<?xml version="1.0" encoding="UTF-8" standalone="no" ?>
<gpx xmlns="http://www.topografix.com/GPX/1/1" xmlns:xsi="http://www.w3.org/2001/XMLSchema-instance" xsi:schemaLocation="http://www.topografix.com/GPX/1/1 http://www.topografix.com/GPX/1/1/gpx.xsd" version="1.1" creator="VisuGPX - https://www.visugpx.com">
  <metadata>
    <name>Sortie montagne aux Andélys 8/05/2016</name>
    <desc><![CDATA[Pas mal de portage, un temps estival, une vraie sortie montagne.]]></desc>
  </metadata>
  <trk>
    <name><![CDATA[Actuel: 08 MAY 2016 09:10]]></name>
    <trkseg>
      <trkpt lat="49.24515" lon="1.42289">
        <ele>-55.59</ele>
        <time>2016-05-08T07:10:31Z</time>
      </trkpt>
      <trkpt lat="49.24511" lon="1.42291">
        <ele>-55.57</ele>
        <time>2016-05-08T07:10:32Z</time>
      </trkpt>
      <trkpt lat="49.24489" lon="1.42308">
        <ele>-53.76</ele>
        <time>2016-05-08T07:10:42Z</time>
      </trkpt>
      <trkpt lat="49.24493" lon="1.42362">
        <ele>-52.06</ele>
        <time>2016-05-08T07:10:54Z</time>
      </trkpt>
      <trkpt lat="49.24507" lon="1.42434">
        <ele>-50.78</ele>
        <time>2016-05-08T07:11:08Z</time>
      </trkpt>
      <trkpt lat="49.24524" lon="1.42514">
        <ele>-48.85</ele>
        <time>2016-05-08T07:11:24Z</time>
      </trkpt>
      <trkpt lat="49.24524" lon="1.42592">
        <ele>-48.33</ele>
        <time>2016-05-08T07:11:39Z</time>
      </trkpt>
      <trkpt lat="49.24517" lon="1.42656">
        <ele>-47.84</ele>
        <time>2016-05-08T07:11:50Z</time>
      </trkpt>
      <trkpt lat="49.24482" lon="1.42718">
        <ele>-45.68</ele>
        <time>2016-05-08T07:12:04Z</time>
      </trkpt>
      <trkpt lat="49.24452" lon="1.42756">
        <ele>-42.65</ele>
        <time>2016-05-08T07:12:16Z</time>
      </trkpt>
      <trkpt lat="49.24437" lon="1.42798">
        <ele>-39.58</ele>
        <time>2016-05-08T07:12:28Z</time>
      </trkpt>
      <trkpt lat="49.24439" lon="1.4286">
        <ele>-36.7</ele>
        <time>2016-05-08T07:12:43Z</time>
      </trkpt>
      <trkpt lat="49.24472" lon="1.42907">
        <ele>-33.65</ele>
        <time>2016-05-08T07:12:57Z</time>
      </trkpt>
      <trkpt lat="49.24482" lon="1.4296">
        <ele>-30.91</ele>
        <time>2016-05-08T07:13:11Z</time>
      </trkpt>
      <trkpt lat="49.2447" lon="1.43016">
        <ele>-27.82</ele>
        <time>2016-05-08T07:13:25Z</time>
      </trkpt>
      <trkpt lat="49.24432" lon="1.4302">
        <ele>-24.63</ele>
        <time>2016-05-08T07:13:38Z</time>
      </trkpt>
      <trkpt lat="49.24413" lon="1.42985">
        <ele>-21.82</ele>
        <time>2016-05-08T07:13:49Z</time>
      </trkpt>
      <trkpt lat="49.24394" lon="1.42929">
        <ele>-18.56</ele>
        <time>2016-05-08T07:14:03Z</time>
      </trkpt>
      <trkpt lat="49.24372" lon="1.42883">
        <ele>-15.41</ele>
        <time>2016-05-08T07:14:16Z</time>
      </trkpt>
      <trkpt lat="49.24337" lon="1.42842">
        <ele>-12.4</ele>
        <time>2016-05-08T07:14:31Z</time>
      </trkpt>
      <trkpt lat="49.24312" lon="1.42814">
        <ele>-9.72</ele>
        <time>2016-05-08T07:14:44Z</time>
      </trkpt>
      <trkpt lat="49.24281" lon="1.42792">
        <ele>-6.96</ele>
        <time>2016-05-08T07:14:57Z</time>
      </trkpt>
      <trkpt lat="49.24244" lon="1.42791">
        <ele>-4.15</ele>
        <time>2016-05-08T07:15:10Z</time>
      </trkpt>
      <trkpt lat="49.24206" lon="1.42797">
        <ele>-1.13</ele>
        <time>2016-05-08T07:15:23Z</time>
      </trkpt>
      <trkpt lat="49.24169" lon="1.42805">
        <ele>2</ele>
        <time>2016-05-08T07:15:36Z</time>
      </trkpt>
      <trkpt lat="49.24132" lon="1.42809">
        <ele>4.82</ele>
        <time>2016-05-08T07:15:50Z</time>
      </trkpt>
      <trkpt lat="49.24104" lon="1.42774">
        <ele>7.85</ele>
        <time>2016-05-08T07:16:04Z</time>
      </trkpt>
      <trkpt lat="49.24081" lon="1.42727">
        <ele>10.9</ele>
        <time>2016-05-08T07:16:18Z</time>
      </trkpt>
      <trkpt lat="49.2406" lon="1.42679">
        <ele>13.77</ele>
        <time>2016-05-08T07:16:30Z</time>
      </trkpt>
      <trkpt lat="49.24036" lon="1.42633">
        <ele>16.82</ele>
        <time>2016-05-08T07:16:42Z</time>
      </trkpt>
      <trkpt lat="49.24005" lon="1.42587">
        <ele>20.08</ele>
        <time>2016-05-08T07:16:56Z</time>
      </trkpt>
      <trkpt lat="49.23962" lon="1.42568">
        <ele>23.15</ele>
        <time>2016-05-08T07:17:10Z</time>
      </trkpt>
      <trkpt lat="49.23925" lon="1.42561">
        <ele>26.2</ele>
        <time>2016-05-08T07:17:24Z</time>
      </trkpt>
      <trkpt lat="49.23888" lon="1.42555">
        <ele>28.89</ele>
        <time>2016-05-08T07:17:37Z</time>
      </trkpt>
      <trkpt lat="49.23868" lon="1.42531">
        <ele>30.95</ele>
        <time>2016-05-08T07:17:48Z</time>
      </trkpt>
      <trkpt lat="49.23872" lon="1.42524">
        <ele>31.3</ele>
        <time>2016-05-08T07:17:50Z</time>
      </trkpt>
      <trkpt lat="49.2392" lon="1.42506">
        <ele>34.71</ele>
        <time>2016-05-08T07:18:02Z</time>
      </trkpt>
      <trkpt lat="49.23964" lon="1.42496">
        <ele>37.91</ele>
        <time>2016-05-08T07:18:16Z</time>
      </trkpt>
      <trkpt lat="49.24" lon="1.4248">
        <ele>40.94</ele>
        <time>2016-05-08T07:18:28Z</time>
      </trkpt>
      <trkpt lat="49.23997" lon="1.42443">
        <ele>42.4</ele>
        <time>2016-05-08T07:18:36Z</time>
      </trkpt>
      <trkpt lat="49.23961" lon="1.42431">
        <ele>44.57</ele>
        <time>2016-05-08T07:18:47Z</time>
      </trkpt>
      <trkpt lat="49.23919" lon="1.42426">
        <ele>47.43</ele>
        <time>2016-05-08T07:19:03Z</time>
      </trkpt>
      <trkpt lat="49.23881" lon="1.42422">
        <ele>50.26</ele>
        <time>2016-05-08T07:19:17Z</time>
      </trkpt>
      <trkpt lat="49.23842" lon="1.42417">
        <ele>53.42</ele>
        <time>2016-05-08T07:19:30Z</time>
      </trkpt>
      <trkpt lat="49.23797" lon="1.42409">
        <ele>56.54</ele>
        <time>2016-05-08T07:19:44Z</time>
      </trkpt>
      <trkpt lat="49.23755" lon="1.42403">
        <ele>59.76</ele>
        <time>2016-05-08T07:19:58Z</time>
      </trkpt>
      <trkpt lat="49.23745" lon="1.42398">
        <ele>60.72</ele>
        <time>2016-05-08T07:20:02Z</time>
      </trkpt>
      <trkpt lat="49.23752" lon="1.42338">
        <ele>62.08</ele>
        <time>2016-05-08T07:20:13Z</time>
      </trkpt>
      <trkpt lat="49.23747" lon="1.42239">
        <ele>64.53</ele>
        <time>2016-05-08T07:20:28Z</time>
      </trkpt>
      <trkpt lat="49.23746" lon="1.42232">
        <ele>64.67</ele>
        <time>2016-05-08T07:20:29Z</time>
      </trkpt>
      <trkpt lat="49.23737" lon="1.42121">
        <ele>66.42</ele>
        <time>2016-05-08T07:20:43Z</time>
      </trkpt>
      <trkpt lat="49.23739" lon="1.42044">
        <ele>67.13</ele>
        <time>2016-05-08T07:20:52Z</time>
      </trkpt>
      <trkpt lat="49.2373" lon="1.4192">
        <ele>68.47</ele>
        <time>2016-05-08T07:21:06Z</time>
      </trkpt>
      <trkpt lat="49.23707" lon="1.41798">
        <ele>69.91</ele>
        <time>2016-05-08T07:21:20Z</time>
      </trkpt>
      <trkpt lat="49.23687" lon="1.41665">
        <ele>70.9</ele>
        <time>2016-05-08T07:21:35Z</time>
      </trkpt>
      <trkpt lat="49.23681" lon="1.41517">
        <ele>71.19</ele>
        <time>2016-05-08T07:21:51Z</time>
      </trkpt>
      <trkpt lat="49.23681" lon="1.41499">
        <ele>71.23</ele>
        <time>2016-05-08T07:21:53Z</time>
      </trkpt>
      <trkpt lat="49.23701" lon="1.41372">
        <ele>71.35</ele>
        <time>2016-05-08T07:22:07Z</time>
      </trkpt>
      <trkpt lat="49.23724" lon="1.4124">
        <ele>71.34</ele>
        <time>2016-05-08T07:22:20Z</time>
      </trkpt>
      <trkpt lat="49.23746" lon="1.41146">
        <ele>71.48</ele>
        <time>2016-05-08T07:22:29Z</time>
      </trkpt>
      <trkpt lat="49.23788" lon="1.41059">
        <ele>70.26</ele>
        <time>2016-05-08T07:22:40Z</time>
      </trkpt>
      <trkpt lat="49.23784" lon="1.41036">
        <ele>70.23</ele>
        <time>2016-05-08T07:22:48Z</time>
      </trkpt>
      <trkpt lat="49.2377" lon="1.41022">
        <ele>70.74</ele>
        <time>2016-05-08T07:22:54Z</time>
      </trkpt>
      <trkpt lat="49.23764" lon="1.41008">
        <ele>70.9</ele>
        <time>2016-05-08T07:22:56Z</time>
      </trkpt>
      <trkpt lat="49.2372" lon="1.40947">
        <ele>71.09</ele>
        <time>2016-05-08T07:23:09Z</time>
      </trkpt>
      <trkpt lat="49.23715" lon="1.40943">
        <ele>71.21</ele>
        <time>2016-05-08T07:23:10Z</time>
      </trkpt>
      <trkpt lat="49.23662" lon="1.40894">
        <ele>70.71</ele>
        <time>2016-05-08T07:23:22Z</time>
      </trkpt>
      <trkpt lat="49.23652" lon="1.40886">
        <ele>70.76</ele>
        <time>2016-05-08T07:23:24Z</time>
      </trkpt>
      <trkpt lat="49.23634" lon="1.4087">
        <ele>71.02</ele>
        <time>2016-05-08T07:23:28Z</time>
      </trkpt>
      <trkpt lat="49.23615" lon="1.40852">
        <ele>70.3</ele>
        <time>2016-05-08T07:23:32Z</time>
      </trkpt>
      <trkpt lat="49.23591" lon="1.40845">
        <ele>66.85</ele>
        <time>2016-05-08T07:23:40Z</time>
      </trkpt>
      <trkpt lat="49.2359" lon="1.40837">
        <ele>68.66</ele>
        <time>2016-05-08T07:23:50Z</time>
      </trkpt>
      <trkpt lat="49.23588" lon="1.40836">
        <ele>68.95</ele>
        <time>2016-05-08T07:23:53Z</time>
      </trkpt>
      <trkpt lat="49.23583" lon="1.40853">
        <ele>68.9</ele>
        <time>2016-05-08T07:23:58Z</time>
      </trkpt>
      <trkpt lat="49.2358" lon="1.4086">
        <ele>68.84</ele>
        <time>2016-05-08T07:24:00Z</time>
      </trkpt>
      <trkpt lat="49.23575" lon="1.40861">
        <ele>68.59</ele>
        <time>2016-05-08T07:24:03Z</time>
      </trkpt>
      <trkpt lat="49.23558" lon="1.4082">
        <ele>65.02</ele>
        <time>2016-05-08T07:24:12Z</time>
      </trkpt>
      <trkpt lat="49.23543" lon="1.4078">
        <ele>61.18</ele>
        <time>2016-05-08T07:24:18Z</time>
      </trkpt>
      <trkpt lat="49.23537" lon="1.40744">
        <ele>59.24</ele>
        <time>2016-05-08T07:24:22Z</time>
      </trkpt>
      <trkpt lat="49.23549" lon="1.40694">
        <ele>56.11</ele>
        <time>2016-05-08T07:24:30Z</time>
      </trkpt>
      <trkpt lat="49.23556" lon="1.40682">
        <ele>55.43</ele>
        <time>2016-05-08T07:24:32Z</time>
      </trkpt>
      <trkpt lat="49.2357" lon="1.40662">
        <ele>55.35</ele>
        <time>2016-05-08T07:24:36Z</time>
      </trkpt>
      <trkpt lat="49.23579" lon="1.40646">
        <ele>54.43</ele>
        <time>2016-05-08T07:24:39Z</time>
      </trkpt>
      <trkpt lat="49.2361" lon="1.40615">
        <ele>52</ele>
        <time>2016-05-08T07:24:47Z</time>
      </trkpt>
      <trkpt lat="49.23626" lon="1.40612">
        <ele>51.46</ele>
        <time>2016-05-08T07:24:50Z</time>
      </trkpt>
      <trkpt lat="49.23642" lon="1.40604">
        <ele>47.1</ele>
        <time>2016-05-08T07:24:53Z</time>
      </trkpt>
      <trkpt lat="49.23664" lon="1.40606">
        <ele>43.63</ele>
        <time>2016-05-08T07:24:56Z</time>
      </trkpt>
      <trkpt lat="49.2367" lon="1.40608">
        <ele>43.63</ele>
        <time>2016-05-08T07:24:57Z</time>
      </trkpt>
      <trkpt lat="49.23699" lon="1.40595">
        <ele>38.26</ele>
        <time>2016-05-08T07:25:04Z</time>
      </trkpt>
      <trkpt lat="49.23703" lon="1.40583">
        <ele>34.86</ele>
        <time>2016-05-08T07:25:07Z</time>
      </trkpt>
      <trkpt lat="49.23707" lon="1.40584">
        <ele>33.2</ele>
        <time>2016-05-08T07:25:10Z</time>
      </trkpt>
      <trkpt lat="49.23716" lon="1.406">
        <ele>29.75</ele>
        <time>2016-05-08T07:25:15Z</time>
      </trkpt>
      <trkpt lat="49.23719" lon="1.40602">
        <ele>28.81</ele>
        <time>2016-05-08T07:25:16Z</time>
      </trkpt>
      <trkpt lat="49.23728" lon="1.40612">
        <ele>23.67</ele>
        <time>2016-05-08T07:25:20Z</time>
      </trkpt>
      <trkpt lat="49.23733" lon="1.40621">
        <ele>19.04</ele>
        <time>2016-05-08T07:25:23Z</time>
      </trkpt>
      <trkpt lat="49.23737" lon="1.40633">
        <ele>15.96</ele>
        <time>2016-05-08T07:25:27Z</time>
      </trkpt>
      <trkpt lat="49.23745" lon="1.4064">
        <ele>14.74</ele>
        <time>2016-05-08T07:25:30Z</time>
      </trkpt>
      <trkpt lat="49.23744" lon="1.40614">
        <ele>11.64</ele>
        <time>2016-05-08T07:25:36Z</time>
      </trkpt>
      <trkpt lat="49.23745" lon="1.40606">
        <ele>11.48</ele>
        <time>2016-05-08T07:25:37Z</time>
      </trkpt>
      <trkpt lat="49.23745" lon="1.40546">
        <ele>14.16</ele>
        <time>2016-05-08T07:25:49Z</time>
      </trkpt>
      <trkpt lat="49.23748" lon="1.40491">
        <ele>14.4</ele>
        <time>2016-05-08T07:26:02Z</time>
      </trkpt>
      <trkpt lat="49.23741" lon="1.40456">
        <ele>15.44</ele>
        <time>2016-05-08T07:26:11Z</time>
      </trkpt>
      <trkpt lat="49.23732" lon="1.40423">
        <ele>12.34</ele>
        <time>2016-05-08T07:26:18Z</time>
      </trkpt>
      <trkpt lat="49.23732" lon="1.40417">
        <ele>10.99</ele>
        <time>2016-05-08T07:26:19Z</time>
      </trkpt>
      <trkpt lat="49.23733" lon="1.40379">
        <ele>6.8</ele>
        <time>2016-05-08T07:26:25Z</time>
      </trkpt>
      <trkpt lat="49.23734" lon="1.40372">
        <ele>6.01</ele>
        <time>2016-05-08T07:26:26Z</time>
      </trkpt>
      <trkpt lat="49.23741" lon="1.40354">
        <ele>1.5</ele>
        <time>2016-05-08T07:26:32Z</time>
      </trkpt>
      <trkpt lat="49.23763" lon="1.40344">
        <ele>-0.72</ele>
        <time>2016-05-08T07:26:44Z</time>
      </trkpt>
      <trkpt lat="49.23771" lon="1.4035">
        <ele>2.59</ele>
        <time>2016-05-08T07:26:52Z</time>
      </trkpt>
      <trkpt lat="49.23781" lon="1.40355">
        <ele>5.67</ele>
        <time>2016-05-08T07:27:04Z</time>
      </trkpt>
      <trkpt lat="49.2378" lon="1.40344">
        <ele>7.15</ele>
        <time>2016-05-08T07:27:22Z</time>
      </trkpt>
      <trkpt lat="49.2378" lon="1.40341">
        <ele>7.5</ele>
        <time>2016-05-08T07:27:25Z</time>
      </trkpt>
      <trkpt lat="49.23783" lon="1.40333">
        <ele>8.84</ele>
        <time>2016-05-08T07:27:31Z</time>
      </trkpt>
      <trkpt lat="49.23812" lon="1.4033">
        <ele>8.9</ele>
        <time>2016-05-08T07:27:44Z</time>
      </trkpt>
      <trkpt lat="49.23825" lon="1.40317">
        <ele>6.85</ele>
        <time>2016-05-08T07:27:50Z</time>
      </trkpt>
      <trkpt lat="49.23831" lon="1.40305">
        <ele>6.97</ele>
        <time>2016-05-08T07:27:53Z</time>
      </trkpt>
      <trkpt lat="49.23838" lon="1.40291">
        <ele>5.9</ele>
        <time>2016-05-08T07:27:55Z</time>
      </trkpt>
      <trkpt lat="49.23844" lon="1.40274">
        <ele>4.57</ele>
        <time>2016-05-08T07:27:57Z</time>
      </trkpt>
      <trkpt lat="49.23847" lon="1.40253">
        <ele>4.56</ele>
        <time>2016-05-08T07:28:01Z</time>
      </trkpt>
      <trkpt lat="49.2386" lon="1.40251">
        <ele>0.67</ele>
        <time>2016-05-08T07:28:08Z</time>
      </trkpt>
      <trkpt lat="49.23864" lon="1.40246">
        <ele>-0.7</ele>
        <time>2016-05-08T07:28:10Z</time>
      </trkpt>
      <trkpt lat="49.2387" lon="1.40236">
        <ele>-3.31</ele>
        <time>2016-05-08T07:28:14Z</time>
      </trkpt>
      <trkpt lat="49.23884" lon="1.40259">
        <ele>-7.44</ele>
        <time>2016-05-08T07:28:23Z</time>
      </trkpt>
      <trkpt lat="49.23885" lon="1.40273">
        <ele>-9.2</ele>
        <time>2016-05-08T07:28:25Z</time>
      </trkpt>
      <trkpt lat="49.23899" lon="1.40269">
        <ele>-11.39</ele>
        <time>2016-05-08T07:28:29Z</time>
      </trkpt>
      <trkpt lat="49.23913" lon="1.40257">
        <ele>-15.27</ele>
        <time>2016-05-08T07:28:33Z</time>
      </trkpt>
      <trkpt lat="49.23918" lon="1.40253">
        <ele>-16.89</ele>
        <time>2016-05-08T07:28:35Z</time>
      </trkpt>
      <trkpt lat="49.23932" lon="1.40235">
        <ele>-21.93</ele>
        <time>2016-05-08T07:28:39Z</time>
      </trkpt>
      <trkpt lat="49.23941" lon="1.40224">
        <ele>-25.32</ele>
        <time>2016-05-08T07:28:42Z</time>
      </trkpt>
      <trkpt lat="49.23949" lon="1.40207">
        <ele>-29.66</ele>
        <time>2016-05-08T07:28:46Z</time>
      </trkpt>
      <trkpt lat="49.23948" lon="1.40192">
        <ele>-33.12</ele>
        <time>2016-05-08T07:28:49Z</time>
      </trkpt>
      <trkpt lat="49.2395" lon="1.40187">
        <ele>-36.16</ele>
        <time>2016-05-08T07:28:52Z</time>
      </trkpt>
      <trkpt lat="49.23953" lon="1.40189">
        <ele>-36.7</ele>
        <time>2016-05-08T07:28:53Z</time>
      </trkpt>
      <trkpt lat="49.23968" lon="1.40211">
        <ele>-40.22</ele>
        <time>2016-05-08T07:28:58Z</time>
      </trkpt>
      <trkpt lat="49.23972" lon="1.40226">
        <ele>-41.49</ele>
        <time>2016-05-08T07:29:01Z</time>
      </trkpt>
      <trkpt lat="49.23963" lon="1.40252">
        <ele>-42.62</ele>
        <time>2016-05-08T07:29:05Z</time>
      </trkpt>
      <trkpt lat="49.23941" lon="1.40281">
        <ele>-39.33</ele>
        <time>2016-05-08T07:29:17Z</time>
      </trkpt>
      <trkpt lat="49.2393" lon="1.403">
        <ele>-36.28</ele>
        <time>2016-05-08T07:29:27Z</time>
      </trkpt>
      <trkpt lat="49.23912" lon="1.40327">
        <ele>-33.25</ele>
        <time>2016-05-08T07:29:41Z</time>
      </trkpt>
      <trkpt lat="49.23901" lon="1.40345">
        <ele>-30.23</ele>
        <time>2016-05-08T07:29:52Z</time>
      </trkpt>
      <trkpt lat="49.23886" lon="1.40366">
        <ele>-26.96</ele>
        <time>2016-05-08T07:30:04Z</time>
      </trkpt>
      <trkpt lat="49.23871" lon="1.40385">
        <ele>-23.93</ele>
        <time>2016-05-08T07:30:16Z</time>
      </trkpt>
      <trkpt lat="49.23863" lon="1.40394">
        <ele>-22.17</ele>
        <time>2016-05-08T07:30:23Z</time>
      </trkpt>
      <trkpt lat="49.23851" lon="1.40415">
        <ele>-18.87</ele>
        <time>2016-05-08T07:30:36Z</time>
      </trkpt>
      <trkpt lat="49.23839" lon="1.40437">
        <ele>-16.45</ele>
        <time>2016-05-08T07:30:49Z</time>
      </trkpt>
      <trkpt lat="49.23827" lon="1.40461">
        <ele>-13.45</ele>
        <time>2016-05-08T07:31:02Z</time>
      </trkpt>
      <trkpt lat="49.23813" lon="1.40485">
        <ele>-10.34</ele>
        <time>2016-05-08T07:31:16Z</time>
      </trkpt>
      <trkpt lat="49.23809" lon="1.40497">
        <ele>-8.74</ele>
        <time>2016-05-08T07:31:23Z</time>
      </trkpt>
      <trkpt lat="49.23797" lon="1.40517">
        <ele>-5.37</ele>
        <time>2016-05-08T07:31:36Z</time>
      </trkpt>
      <trkpt lat="49.23784" lon="1.40539">
        <ele>-2.16</ele>
        <time>2016-05-08T07:31:49Z</time>
      </trkpt>
      <trkpt lat="49.23773" lon="1.40559">
        <ele>1.02</ele>
        <time>2016-05-08T07:32:01Z</time>
      </trkpt>
      <trkpt lat="49.23761" lon="1.40581">
        <ele>4.15</ele>
        <time>2016-05-08T07:32:13Z</time>
      </trkpt>
      <trkpt lat="49.23753" lon="1.40602">
        <ele>7.42</ele>
        <time>2016-05-08T07:32:24Z</time>
      </trkpt>
      <trkpt lat="49.23749" lon="1.40626">
        <ele>10.67</ele>
        <time>2016-05-08T07:32:35Z</time>
      </trkpt>
      <trkpt lat="49.23749" lon="1.40628">
        <ele>10.92</ele>
        <time>2016-05-08T07:32:36Z</time>
      </trkpt>
      <trkpt lat="49.23764" lon="1.40648">
        <ele>14.01</ele>
        <time>2016-05-08T07:32:49Z</time>
      </trkpt>
      <trkpt lat="49.2377" lon="1.40649">
        <ele>14.79</ele>
        <time>2016-05-08T07:32:53Z</time>
      </trkpt>
      <trkpt lat="49.2379" lon="1.4065">
        <ele>18.02</ele>
        <time>2016-05-08T07:33:08Z</time>
      </trkpt>
      <trkpt lat="49.23814" lon="1.40653">
        <ele>21.2</ele>
        <time>2016-05-08T07:33:22Z</time>
      </trkpt>
      <trkpt lat="49.23839" lon="1.40647">
        <ele>24.03</ele>
        <time>2016-05-08T07:33:36Z</time>
      </trkpt>
      <trkpt lat="49.23866" lon="1.4064">
        <ele>26.63</ele>
        <time>2016-05-08T07:33:49Z</time>
      </trkpt>
      <trkpt lat="49.23893" lon="1.40646">
        <ele>29.77</ele>
        <time>2016-05-08T07:34:02Z</time>
      </trkpt>
      <trkpt lat="49.23897" lon="1.4068">
        <ele>32.18</ele>
        <time>2016-05-08T07:34:14Z</time>
      </trkpt>
      <trkpt lat="49.23884" lon="1.40714">
        <ele>35.34</ele>
        <time>2016-05-08T07:34:28Z</time>
      </trkpt>
      <trkpt lat="49.23874" lon="1.40744">
        <ele>38.55</ele>
        <time>2016-05-08T07:34:40Z</time>
      </trkpt>
      <trkpt lat="49.23867" lon="1.4077">
        <ele>41.69</ele>
        <time>2016-05-08T07:34:52Z</time>
      </trkpt>
      <trkpt lat="49.23861" lon="1.40794">
        <ele>44.98</ele>
        <time>2016-05-08T07:35:03Z</time>
      </trkpt>
      <trkpt lat="49.23853" lon="1.4082">
        <ele>48.22</ele>
        <time>2016-05-08T07:35:14Z</time>
      </trkpt>
      <trkpt lat="49.23845" lon="1.40845">
        <ele>51.4</ele>
        <time>2016-05-08T07:35:24Z</time>
      </trkpt>
      <trkpt lat="49.23849" lon="1.40875">
        <ele>54.7</ele>
        <time>2016-05-08T07:35:35Z</time>
      </trkpt>
      <trkpt lat="49.23856" lon="1.4091">
        <ele>57.94</ele>
        <time>2016-05-08T07:35:47Z</time>
      </trkpt>
      <trkpt lat="49.23852" lon="1.40946">
        <ele>60.98</ele>
        <time>2016-05-08T07:35:57Z</time>
      </trkpt>
      <trkpt lat="49.23838" lon="1.40977">
        <ele>64.14</ele>
        <time>2016-05-08T07:36:07Z</time>
      </trkpt>
      <trkpt lat="49.23821" lon="1.40998">
        <ele>67.26</ele>
        <time>2016-05-08T07:36:17Z</time>
      </trkpt>
      <trkpt lat="49.23798" lon="1.41029">
        <ele>69.98</ele>
        <time>2016-05-08T07:36:29Z</time>
      </trkpt>
      <trkpt lat="49.23775" lon="1.41067">
        <ele>70.43</ele>
        <time>2016-05-08T07:36:39Z</time>
      </trkpt>
      <trkpt lat="49.23751" lon="1.41123">
        <ele>71.44</ele>
        <time>2016-05-08T07:36:50Z</time>
      </trkpt>
      <trkpt lat="49.23765" lon="1.41149">
        <ele>70.92</ele>
        <time>2016-05-08T07:36:57Z</time>
      </trkpt>
      <trkpt lat="49.23801" lon="1.41165">
        <ele>70.34</ele>
        <time>2016-05-08T07:37:05Z</time>
      </trkpt>
      <trkpt lat="49.2383" lon="1.41172">
        <ele>69.36</ele>
        <time>2016-05-08T07:37:11Z</time>
      </trkpt>
      <trkpt lat="49.23868" lon="1.41194">
        <ele>68.15</ele>
        <time>2016-05-08T07:37:22Z</time>
      </trkpt>
      <trkpt lat="49.23871" lon="1.41196">
        <ele>68.02</ele>
        <time>2016-05-08T07:37:24Z</time>
      </trkpt>
      <trkpt lat="49.23878" lon="1.41204">
        <ele>68.1</ele>
        <time>2016-05-08T07:37:33Z</time>
      </trkpt>
      <trkpt lat="49.23892" lon="1.41215">
        <ele>67.93</ele>
        <time>2016-05-08T07:37:39Z</time>
      </trkpt>
      <trkpt lat="49.23922" lon="1.41257">
        <ele>66.73</ele>
        <time>2016-05-08T07:37:49Z</time>
      </trkpt>
      <trkpt lat="49.23937" lon="1.41253">
        <ele>64.48</ele>
        <time>2016-05-08T07:37:54Z</time>
      </trkpt>
      <trkpt lat="49.23944" lon="1.41256">
        <ele>63.76</ele>
        <time>2016-05-08T07:37:56Z</time>
      </trkpt>
      <trkpt lat="49.23961" lon="1.41261">
        <ele>61.31</ele>
        <time>2016-05-08T07:38:02Z</time>
      </trkpt>
      <trkpt lat="49.23988" lon="1.41286">
        <ele>58.18</ele>
        <time>2016-05-08T07:38:09Z</time>
      </trkpt>
      <trkpt lat="49.24001" lon="1.41287">
        <ele>55.95</ele>
        <time>2016-05-08T07:38:13Z</time>
      </trkpt>
      <trkpt lat="49.24005" lon="1.41283">
        <ele>54.34</ele>
        <time>2016-05-08T07:38:15Z</time>
      </trkpt>
      <trkpt lat="49.24016" lon="1.41277">
        <ele>50.42</ele>
        <time>2016-05-08T07:38:21Z</time>
      </trkpt>
      <trkpt lat="49.24018" lon="1.41272">
        <ele>49.45</ele>
        <time>2016-05-08T07:38:23Z</time>
      </trkpt>
      <trkpt lat="49.24023" lon="1.41274">
        <ele>47.94</ele>
        <time>2016-05-08T07:38:26Z</time>
      </trkpt>
      <trkpt lat="49.2404" lon="1.41275">
        <ele>44.78</ele>
        <time>2016-05-08T07:38:32Z</time>
      </trkpt>
      <trkpt lat="49.24053" lon="1.41266">
        <ele>40.1</ele>
        <time>2016-05-08T07:38:37Z</time>
      </trkpt>
      <trkpt lat="49.24059" lon="1.41264">
        <ele>37.18</ele>
        <time>2016-05-08T07:38:39Z</time>
      </trkpt>
      <trkpt lat="49.24065" lon="1.41249">
        <ele>32.15</ele>
        <time>2016-05-08T07:38:44Z</time>
      </trkpt>
      <trkpt lat="49.24067" lon="1.41233">
        <ele>29.04</ele>
        <time>2016-05-08T07:38:50Z</time>
      </trkpt>
      <trkpt lat="49.24073" lon="1.4122">
        <ele>25.02</ele>
        <time>2016-05-08T07:38:55Z</time>
      </trkpt>
      <trkpt lat="49.24081" lon="1.4121">
        <ele>21.44</ele>
        <time>2016-05-08T07:38:59Z</time>
      </trkpt>
      <trkpt lat="49.24088" lon="1.41199">
        <ele>17.26</ele>
        <time>2016-05-08T07:39:04Z</time>
      </trkpt>
      <trkpt lat="49.24099" lon="1.41199">
        <ele>13.92</ele>
        <time>2016-05-08T07:39:10Z</time>
      </trkpt>
      <trkpt lat="49.24104" lon="1.41201">
        <ele>13.67</ele>
        <time>2016-05-08T07:39:12Z</time>
      </trkpt>
      <trkpt lat="49.24112" lon="1.41182">
        <ele>10.18</ele>
        <time>2016-05-08T07:39:19Z</time>
      </trkpt>
      <trkpt lat="49.2412" lon="1.4117">
        <ele>5.94</ele>
        <time>2016-05-08T07:39:24Z</time>
      </trkpt>
      <trkpt lat="49.24126" lon="1.41164">
        <ele>3.95</ele>
        <time>2016-05-08T07:39:27Z</time>
      </trkpt>
      <trkpt lat="49.24143" lon="1.41156">
        <ele>1.05</ele>
        <time>2016-05-08T07:39:32Z</time>
      </trkpt>
      <trkpt lat="49.24149" lon="1.41151">
        <ele>0.37</ele>
        <time>2016-05-08T07:39:34Z</time>
      </trkpt>
      <trkpt lat="49.24148" lon="1.41135">
        <ele>-4.32</ele>
        <time>2016-05-08T07:39:39Z</time>
      </trkpt>
      <trkpt lat="49.24152" lon="1.41121">
        <ele>-7.6</ele>
        <time>2016-05-08T07:39:42Z</time>
      </trkpt>
      <trkpt lat="49.24156" lon="1.41103">
        <ele>-12.63</ele>
        <time>2016-05-08T07:39:45Z</time>
      </trkpt>
      <trkpt lat="49.24161" lon="1.41089">
        <ele>-16.4</ele>
        <time>2016-05-08T07:39:48Z</time>
      </trkpt>
      <trkpt lat="49.24166" lon="1.41072">
        <ele>-19.69</ele>
        <time>2016-05-08T07:39:51Z</time>
      </trkpt>
      <trkpt lat="49.24174" lon="1.41059">
        <ele>-23.73</ele>
        <time>2016-05-08T07:39:54Z</time>
      </trkpt>
      <trkpt lat="49.24185" lon="1.41051">
        <ele>-26.95</ele>
        <time>2016-05-08T07:39:57Z</time>
      </trkpt>
      <trkpt lat="49.2419" lon="1.41049">
        <ele>-27.23</ele>
        <time>2016-05-08T07:39:58Z</time>
      </trkpt>
      <trkpt lat="49.24194" lon="1.41047">
        <ele>-27.89</ele>
        <time>2016-05-08T07:39:59Z</time>
      </trkpt>
      <trkpt lat="49.24203" lon="1.41033">
        <ele>-31.72</ele>
        <time>2016-05-08T07:40:06Z</time>
      </trkpt>
      <trkpt lat="49.24207" lon="1.41034">
        <ele>-32.07</ele>
        <time>2016-05-08T07:40:23Z</time>
      </trkpt>
      <trkpt lat="49.24201" lon="1.40988">
        <ele>-34.96</ele>
        <time>2016-05-08T07:40:31Z</time>
      </trkpt>
      <trkpt lat="49.24205" lon="1.40985">
        <ele>-35.43</ele>
        <time>2016-05-08T07:40:32Z</time>
      </trkpt>
      <trkpt lat="49.24215" lon="1.40969">
        <ele>-38.22</ele>
        <time>2016-05-08T07:40:36Z</time>
      </trkpt>
      <trkpt lat="49.24221" lon="1.40966">
        <ele>-38.32</ele>
        <time>2016-05-08T07:40:38Z</time>
      </trkpt>
      <trkpt lat="49.24243" lon="1.40972">
        <ele>-42.54</ele>
        <time>2016-05-08T07:40:43Z</time>
      </trkpt>
      <trkpt lat="49.24252" lon="1.40977">
        <ele>-45.17</ele>
        <time>2016-05-08T07:40:46Z</time>
      </trkpt>
      <trkpt lat="49.24258" lon="1.40983">
        <ele>-45.49</ele>
        <time>2016-05-08T07:40:48Z</time>
      </trkpt>
      <trkpt lat="49.24282" lon="1.40978">
        <ele>-49.03</ele>
        <time>2016-05-08T07:40:54Z</time>
      </trkpt>
      <trkpt lat="49.24298" lon="1.40995">
        <ele>-51.72</ele>
        <time>2016-05-08T07:40:59Z</time>
      </trkpt>
      <trkpt lat="49.24304" lon="1.4101">
        <ele>-53.17</ele>
        <time>2016-05-08T07:41:02Z</time>
      </trkpt>
      <trkpt lat="49.24318" lon="1.41037">
        <ele>-55.19</ele>
        <time>2016-05-08T07:41:07Z</time>
      </trkpt>
      <trkpt lat="49.24326" lon="1.4107">
        <ele>-58.39</ele>
        <time>2016-05-08T07:41:12Z</time>
      </trkpt>
      <trkpt lat="49.24338" lon="1.41103">
        <ele>-60.93</ele>
        <time>2016-05-08T07:41:18Z</time>
      </trkpt>
      <trkpt lat="49.24348" lon="1.41105">
        <ele>-63.75</ele>
        <time>2016-05-08T07:41:22Z</time>
      </trkpt>
      <trkpt lat="49.24358" lon="1.41123">
        <ele>-63.97</ele>
        <time>2016-05-08T07:41:28Z</time>
      </trkpt>
      <trkpt lat="49.24379" lon="1.41187">
        <ele>-62.79</ele>
        <time>2016-05-08T07:41:42Z</time>
      </trkpt>
      <trkpt lat="49.24407" lon="1.41257">
        <ele>-62.94</ele>
        <time>2016-05-08T07:41:56Z</time>
      </trkpt>
      <trkpt lat="49.24411" lon="1.41268">
        <ele>-62.99</ele>
        <time>2016-05-08T07:41:58Z</time>
      </trkpt>
      <trkpt lat="49.24422" lon="1.4129">
        <ele>-62.64</ele>
        <time>2016-05-08T07:42:02Z</time>
      </trkpt>
      <trkpt lat="49.24447" lon="1.41379">
        <ele>-62.52</ele>
        <time>2016-05-08T07:42:15Z</time>
      </trkpt>
      <trkpt lat="49.24466" lon="1.41456">
        <ele>-62.46</ele>
        <time>2016-05-08T07:42:25Z</time>
      </trkpt>
      <trkpt lat="49.24486" lon="1.41544">
        <ele>-62.71</ele>
        <time>2016-05-08T07:42:36Z</time>
      </trkpt>
      <trkpt lat="49.24505" lon="1.41641">
        <ele>-61.06</ele>
        <time>2016-05-08T07:42:50Z</time>
      </trkpt>
      <trkpt lat="49.24505" lon="1.41648">
        <ele>-60.88</ele>
        <time>2016-05-08T07:42:51Z</time>
      </trkpt>
      <trkpt lat="49.24508" lon="1.41668">
        <ele>-60.7</ele>
        <time>2016-05-08T07:42:54Z</time>
      </trkpt>
      <trkpt lat="49.24514" lon="1.41756">
        <ele>-60.8</ele>
        <time>2016-05-08T07:43:06Z</time>
      </trkpt>
      <trkpt lat="49.24515" lon="1.41861">
        <ele>-59.73</ele>
        <time>2016-05-08T07:43:20Z</time>
      </trkpt>
      <trkpt lat="49.24512" lon="1.41889">
        <ele>-59.06</ele>
        <time>2016-05-08T07:43:24Z</time>
      </trkpt>
      <trkpt lat="49.24507" lon="1.41923">
        <ele>-59</ele>
        <time>2016-05-08T07:43:29Z</time>
      </trkpt>
      <trkpt lat="49.24504" lon="1.4195">
        <ele>-58.4</ele>
        <time>2016-05-08T07:43:33Z</time>
      </trkpt>
      <trkpt lat="49.24503" lon="1.42001">
        <ele>-57.82</ele>
        <time>2016-05-08T07:43:40Z</time>
      </trkpt>
      <trkpt lat="49.24515" lon="1.42049">
        <ele>-57.46</ele>
        <time>2016-05-08T07:43:47Z</time>
      </trkpt>
      <trkpt lat="49.24522" lon="1.42166">
        <ele>-55.72</ele>
        <time>2016-05-08T07:44:03Z</time>
      </trkpt>
      <trkpt lat="49.24529" lon="1.4222">
        <ele>-54.81</ele>
        <time>2016-05-08T07:44:11Z</time>
      </trkpt>
      <trkpt lat="49.24534" lon="1.42314">
        <ele>-52.57</ele>
        <time>2016-05-08T07:44:27Z</time>
      </trkpt>
      <trkpt lat="49.24534" lon="1.42345">
        <ele>-51.62</ele>
        <time>2016-05-08T07:44:33Z</time>
      </trkpt>
      <trkpt lat="49.24524" lon="1.42349">
        <ele>-50.9</ele>
        <time>2016-05-08T07:44:37Z</time>
      </trkpt>
      <trkpt lat="49.24502" lon="1.42339">
        <ele>-47.71</ele>
        <time>2016-05-08T07:44:48Z</time>
      </trkpt>
      <trkpt lat="49.24481" lon="1.42339">
        <ele>-44.7</ele>
        <time>2016-05-08T07:44:59Z</time>
      </trkpt>
      <trkpt lat="49.24455" lon="1.42334">
        <ele>-41.65</ele>
        <time>2016-05-08T07:45:10Z</time>
      </trkpt>
      <trkpt lat="49.24433" lon="1.42325">
        <ele>-38.89</ele>
        <time>2016-05-08T07:45:21Z</time>
      </trkpt>
      <trkpt lat="49.2441" lon="1.42319">
        <ele>-35.7</ele>
        <time>2016-05-08T07:45:33Z</time>
      </trkpt>
      <trkpt lat="49.24386" lon="1.42321">
        <ele>-32.69</ele>
        <time>2016-05-08T07:45:44Z</time>
      </trkpt>
      <trkpt lat="49.24362" lon="1.42306">
        <ele>-30.14</ele>
        <time>2016-05-08T07:45:56Z</time>
      </trkpt>
      <trkpt lat="49.24333" lon="1.42283">
        <ele>-27.37</ele>
        <time>2016-05-08T07:46:10Z</time>
      </trkpt>
      <trkpt lat="49.24315" lon="1.42248">
        <ele>-25.29</ele>
        <time>2016-05-08T07:46:23Z</time>
      </trkpt>
      <trkpt lat="49.24301" lon="1.42222">
        <ele>-22.24</ele>
        <time>2016-05-08T07:46:34Z</time>
      </trkpt>
      <trkpt lat="49.24286" lon="1.42191">
        <ele>-20.12</ele>
        <time>2016-05-08T07:46:46Z</time>
      </trkpt>
      <trkpt lat="49.24289" lon="1.4217">
        <ele>-17.04</ele>
        <time>2016-05-08T07:46:57Z</time>
      </trkpt>
      <trkpt lat="49.243" lon="1.42152">
        <ele>-13.75</ele>
        <time>2016-05-08T07:47:08Z</time>
      </trkpt>
      <trkpt lat="49.24309" lon="1.4214">
        <ele>-10.61</ele>
        <time>2016-05-08T07:47:16Z</time>
      </trkpt>
      <trkpt lat="49.2432" lon="1.42125">
        <ele>-7.28</ele>
        <time>2016-05-08T07:47:24Z</time>
      </trkpt>
      <trkpt lat="49.24327" lon="1.42113">
        <ele>-4.17</ele>
        <time>2016-05-08T07:47:32Z</time>
      </trkpt>
      <trkpt lat="49.24325" lon="1.42085">
        <ele>-1.05</ele>
        <time>2016-05-08T07:47:44Z</time>
      </trkpt>
      <trkpt lat="49.24314" lon="1.42057">
        <ele>1.73</ele>
        <time>2016-05-08T07:47:58Z</time>
      </trkpt>
      <trkpt lat="49.24304" lon="1.4203">
        <ele>4.82</ele>
        <time>2016-05-08T07:48:11Z</time>
      </trkpt>
      <trkpt lat="49.24293" lon="1.42002">
        <ele>7.79</ele>
        <time>2016-05-08T07:48:25Z</time>
      </trkpt>
      <trkpt lat="49.24287" lon="1.41983">
        <ele>11.13</ele>
        <time>2016-05-08T07:48:35Z</time>
      </trkpt>
      <trkpt lat="49.24285" lon="1.41961">
        <ele>14.16</ele>
        <time>2016-05-08T07:48:45Z</time>
      </trkpt>
      <trkpt lat="49.24277" lon="1.41933">
        <ele>17.18</ele>
        <time>2016-05-08T07:48:58Z</time>
      </trkpt>
      <trkpt lat="49.24264" lon="1.41904">
        <ele>20.17</ele>
        <time>2016-05-08T07:49:12Z</time>
      </trkpt>
      <trkpt lat="49.24249" lon="1.41877">
        <ele>22.79</ele>
        <time>2016-05-08T07:49:26Z</time>
      </trkpt>
      <trkpt lat="49.24234" lon="1.41851">
        <ele>25.66</ele>
        <time>2016-05-08T07:49:40Z</time>
      </trkpt>
      <trkpt lat="49.24217" lon="1.41828">
        <ele>28.12</ele>
        <time>2016-05-08T07:49:53Z</time>
      </trkpt>
      <trkpt lat="49.24194" lon="1.41796">
        <ele>30.99</ele>
        <time>2016-05-08T07:50:07Z</time>
      </trkpt>
      <trkpt lat="49.24177" lon="1.41771">
        <ele>34.09</ele>
        <time>2016-05-08T07:50:20Z</time>
      </trkpt>
      <trkpt lat="49.24162" lon="1.41747">
        <ele>37.19</ele>
        <time>2016-05-08T07:50:34Z</time>
      </trkpt>
      <trkpt lat="49.24149" lon="1.41733">
        <ele>40.32</ele>
        <time>2016-05-08T07:50:44Z</time>
      </trkpt>
      <trkpt lat="49.24145" lon="1.41726">
        <ele>41.92</ele>
        <time>2016-05-08T07:50:48Z</time>
      </trkpt>
      <trkpt lat="49.24131" lon="1.4171">
        <ele>45.55</ele>
        <time>2016-05-08T07:50:59Z</time>
      </trkpt>
      <trkpt lat="49.24118" lon="1.41696">
        <ele>48.58</ele>
        <time>2016-05-08T07:51:10Z</time>
      </trkpt>
      <trkpt lat="49.24084" lon="1.41689">
        <ele>51.43</ele>
        <time>2016-05-08T07:51:26Z</time>
      </trkpt>
      <trkpt lat="49.24052" lon="1.41692">
        <ele>54.5</ele>
        <time>2016-05-08T07:51:43Z</time>
      </trkpt>
      <trkpt lat="49.24024" lon="1.41682">
        <ele>57</ele>
        <time>2016-05-08T07:51:58Z</time>
      </trkpt>
      <trkpt lat="49.24016" lon="1.41684">
        <ele>57.35</ele>
        <time>2016-05-08T07:52:03Z</time>
      </trkpt>
      <trkpt lat="49.24008" lon="1.41682">
        <ele>57.76</ele>
        <time>2016-05-08T07:52:08Z</time>
      </trkpt>
      <trkpt lat="49.24004" lon="1.41685">
        <ele>58.01</ele>
        <time>2016-05-08T07:52:11Z</time>
      </trkpt>
      <trkpt lat="49.23999" lon="1.41681">
        <ele>58.37</ele>
        <time>2016-05-08T07:52:15Z</time>
      </trkpt>
      <trkpt lat="49.23961" lon="1.41675">
        <ele>59.92</ele>
        <time>2016-05-08T07:52:29Z</time>
      </trkpt>
      <trkpt lat="49.23908" lon="1.41676">
        <ele>62.29</ele>
        <time>2016-05-08T07:52:47Z</time>
      </trkpt>
      <trkpt lat="49.23872" lon="1.41676">
        <ele>64.39</ele>
        <time>2016-05-08T07:53:00Z</time>
      </trkpt>
      <trkpt lat="49.23832" lon="1.41676">
        <ele>66.23</ele>
        <time>2016-05-08T07:53:14Z</time>
      </trkpt>
      <trkpt lat="49.23783" lon="1.41679">
        <ele>67.72</ele>
        <time>2016-05-08T07:53:30Z</time>
      </trkpt>
      <trkpt lat="49.23742" lon="1.41679">
        <ele>68.66</ele>
        <time>2016-05-08T07:53:44Z</time>
      </trkpt>
      <trkpt lat="49.2371" lon="1.4168">
        <ele>69.97</ele>
        <time>2016-05-08T07:53:56Z</time>
      </trkpt>
      <trkpt lat="49.23718" lon="1.41683">
        <ele>70.08</ele>
        <time>2016-05-08T07:54:04Z</time>
      </trkpt>
      <trkpt lat="49.23731" lon="1.41682">
        <ele>69.99</ele>
        <time>2016-05-08T07:54:10Z</time>
      </trkpt>
      <trkpt lat="49.23762" lon="1.41683">
        <ele>68.34</ele>
        <time>2016-05-08T07:54:22Z</time>
      </trkpt>
      <trkpt lat="49.2379" lon="1.41678">
        <ele>66.98</ele>
        <time>2016-05-08T07:54:35Z</time>
      </trkpt>
      <trkpt lat="49.23817" lon="1.41677">
        <ele>66.14</ele>
        <time>2016-05-08T07:54:47Z</time>
      </trkpt>
      <trkpt lat="49.2381" lon="1.41678">
        <ele>66.55</ele>
        <time>2016-05-08T07:54:50Z</time>
      </trkpt>
      <trkpt lat="49.238" lon="1.41678">
        <ele>67.26</ele>
        <time>2016-05-08T07:54:52Z</time>
      </trkpt>
      <trkpt lat="49.23745" lon="1.4168">
        <ele>69.5</ele>
        <time>2016-05-08T07:55:05Z</time>
      </trkpt>
      <trkpt lat="49.23705" lon="1.41681">
        <ele>70.29</ele>
        <time>2016-05-08T07:55:14Z</time>
      </trkpt>
      <trkpt lat="49.23691" lon="1.41686">
        <ele>70.05</ele>
        <time>2016-05-08T07:55:22Z</time>
      </trkpt>
      <trkpt lat="49.23692" lon="1.41683">
        <ele>70.03</ele>
        <time>2016-05-08T07:55:37Z</time>
      </trkpt>
      <trkpt lat="49.23696" lon="1.41681">
        <ele>69.88</ele>
        <time>2016-05-08T07:56:06Z</time>
      </trkpt>
      <trkpt lat="49.23695" lon="1.41676">
        <ele>69.87</ele>
        <time>2016-05-08T07:56:08Z</time>
      </trkpt>
      <trkpt lat="49.23692" lon="1.41678">
        <ele>70.12</ele>
        <time>2016-05-08T07:56:15Z</time>
      </trkpt>
      <trkpt lat="49.23726" lon="1.41683">
        <ele>69.14</ele>
        <time>2016-05-08T07:56:28Z</time>
      </trkpt>
      <trkpt lat="49.23765" lon="1.41682">
        <ele>67.96</ele>
        <time>2016-05-08T07:56:41Z</time>
      </trkpt>
      <trkpt lat="49.23759" lon="1.41678">
        <ele>68.27</ele>
        <time>2016-05-08T07:56:47Z</time>
      </trkpt>
      <trkpt lat="49.2371" lon="1.41683">
        <ele>69.89</ele>
        <time>2016-05-08T07:57:01Z</time>
      </trkpt>
      <trkpt lat="49.23695" lon="1.4168">
        <ele>69.96</ele>
        <time>2016-05-08T07:57:05Z</time>
      </trkpt>
      <trkpt lat="49.23685" lon="1.41608">
        <ele>70.47</ele>
        <time>2016-05-08T07:57:16Z</time>
      </trkpt>
      <trkpt lat="49.23682" lon="1.41498">
        <ele>70.81</ele>
        <time>2016-05-08T07:57:31Z</time>
      </trkpt>
      <trkpt lat="49.23692" lon="1.41426">
        <ele>71.22</ele>
        <time>2016-05-08T07:57:41Z</time>
      </trkpt>
      <trkpt lat="49.2371" lon="1.41314">
        <ele>71.96</ele>
        <time>2016-05-08T07:57:55Z</time>
      </trkpt>
      <trkpt lat="49.23734" lon="1.412">
        <ele>72.81</ele>
        <time>2016-05-08T07:58:09Z</time>
      </trkpt>
      <trkpt lat="49.23771" lon="1.41095">
        <ele>71.96</ele>
        <time>2016-05-08T07:58:22Z</time>
      </trkpt>
      <trkpt lat="49.23796" lon="1.41055">
        <ele>71.01</ele>
        <time>2016-05-08T07:58:28Z</time>
      </trkpt>
      <trkpt lat="49.23794" lon="1.41036">
        <ele>70.17</ele>
        <time>2016-05-08T07:58:34Z</time>
      </trkpt>
      <trkpt lat="49.2378" lon="1.41035">
        <ele>70.7</ele>
        <time>2016-05-08T07:58:39Z</time>
      </trkpt>
      <trkpt lat="49.23755" lon="1.40991">
        <ele>71.18</ele>
        <time>2016-05-08T07:58:49Z</time>
      </trkpt>
      <trkpt lat="49.23718" lon="1.40947">
        <ele>71.3</ele>
        <time>2016-05-08T07:59:00Z</time>
      </trkpt>
      <trkpt lat="49.23676" lon="1.40901">
        <ele>71.2</ele>
        <time>2016-05-08T07:59:10Z</time>
      </trkpt>
      <trkpt lat="49.23666" lon="1.40894">
        <ele>71.07</ele>
        <time>2016-05-08T07:59:12Z</time>
      </trkpt>
      <trkpt lat="49.23637" lon="1.4087">
        <ele>71</ele>
        <time>2016-05-08T07:59:18Z</time>
      </trkpt>
      <trkpt lat="49.23611" lon="1.40848">
        <ele>70.72</ele>
        <time>2016-05-08T07:59:24Z</time>
      </trkpt>
      <trkpt lat="49.23577" lon="1.40857">
        <ele>69.73</ele>
        <time>2016-05-08T07:59:32Z</time>
      </trkpt>
      <trkpt lat="49.23574" lon="1.40863">
        <ele>69.54</ele>
        <time>2016-05-08T07:59:34Z</time>
      </trkpt>
      <trkpt lat="49.23558" lon="1.40834">
        <ele>67.14</ele>
        <time>2016-05-08T07:59:41Z</time>
      </trkpt>
      <trkpt lat="49.2354" lon="1.40783">
        <ele>63.44</ele>
        <time>2016-05-08T07:59:46Z</time>
      </trkpt>
      <trkpt lat="49.23536" lon="1.40764">
        <ele>61.98</ele>
        <time>2016-05-08T07:59:48Z</time>
      </trkpt>
      <trkpt lat="49.23534" lon="1.40745">
        <ele>60.54</ele>
        <time>2016-05-08T07:59:50Z</time>
      </trkpt>
      <trkpt lat="49.23537" lon="1.40724">
        <ele>58.97</ele>
        <time>2016-05-08T07:59:53Z</time>
      </trkpt>
      <trkpt lat="49.23549" lon="1.40696">
        <ele>57.36</ele>
        <time>2016-05-08T07:59:58Z</time>
      </trkpt>
      <trkpt lat="49.23557" lon="1.40682">
        <ele>55.98</ele>
        <time>2016-05-08T08:00:00Z</time>
      </trkpt>
      <trkpt lat="49.23564" lon="1.4067">
        <ele>55.05</ele>
        <time>2016-05-08T08:00:02Z</time>
      </trkpt>
      <trkpt lat="49.23587" lon="1.40624">
        <ele>54.62</ele>
        <time>2016-05-08T08:00:09Z</time>
      </trkpt>
      <trkpt lat="49.23604" lon="1.40612">
        <ele>52.71</ele>
        <time>2016-05-08T08:00:13Z</time>
      </trkpt>
      <trkpt lat="49.23619" lon="1.40606">
        <ele>51.92</ele>
        <time>2016-05-08T08:00:17Z</time>
      </trkpt>
      <trkpt lat="49.23639" lon="1.40597">
        <ele>46.8</ele>
        <time>2016-05-08T08:00:21Z</time>
      </trkpt>
      <trkpt lat="49.23652" lon="1.40597">
        <ele>43.7</ele>
        <time>2016-05-08T08:00:23Z</time>
      </trkpt>
      <trkpt lat="49.23659" lon="1.406">
        <ele>42.5</ele>
        <time>2016-05-08T08:00:24Z</time>
      </trkpt>
      <trkpt lat="49.23694" lon="1.40588">
        <ele>38.37</ele>
        <time>2016-05-08T08:00:32Z</time>
      </trkpt>
      <trkpt lat="49.23699" lon="1.4058">
        <ele>36.15</ele>
        <time>2016-05-08T08:00:34Z</time>
      </trkpt>
      <trkpt lat="49.23713" lon="1.40596">
        <ele>31.66</ele>
        <time>2016-05-08T08:00:40Z</time>
      </trkpt>
      <trkpt lat="49.2372" lon="1.40603">
        <ele>29.37</ele>
        <time>2016-05-08T08:00:43Z</time>
      </trkpt>
      <trkpt lat="49.2373" lon="1.40613">
        <ele>23.41</ele>
        <time>2016-05-08T08:00:47Z</time>
      </trkpt>
      <trkpt lat="49.23737" lon="1.40622">
        <ele>19.86</ele>
        <time>2016-05-08T08:00:50Z</time>
      </trkpt>
      <trkpt lat="49.23743" lon="1.40633">
        <ele>16.43</ele>
        <time>2016-05-08T08:00:54Z</time>
      </trkpt>
      <trkpt lat="49.23747" lon="1.40638">
        <ele>15.66</ele>
        <time>2016-05-08T08:00:56Z</time>
      </trkpt>
      <trkpt lat="49.23745" lon="1.40617">
        <ele>12.51</ele>
        <time>2016-05-08T08:01:02Z</time>
      </trkpt>
      <trkpt lat="49.23744" lon="1.40603">
        <ele>12.44</ele>
        <time>2016-05-08T08:01:04Z</time>
      </trkpt>
      <trkpt lat="49.23744" lon="1.40541">
        <ele>14.66</ele>
        <time>2016-05-08T08:01:17Z</time>
      </trkpt>
      <trkpt lat="49.23749" lon="1.40496">
        <ele>15.66</ele>
        <time>2016-05-08T08:01:27Z</time>
      </trkpt>
      <trkpt lat="49.23746" lon="1.40468">
        <ele>15.64</ele>
        <time>2016-05-08T08:01:34Z</time>
      </trkpt>
      <trkpt lat="49.23733" lon="1.40441">
        <ele>14.59</ele>
        <time>2016-05-08T08:01:42Z</time>
      </trkpt>
      <trkpt lat="49.23716" lon="1.40455">
        <ele>11.12</ele>
        <time>2016-05-08T08:01:50Z</time>
      </trkpt>
      <trkpt lat="49.23708" lon="1.40457">
        <ele>9.92</ele>
        <time>2016-05-08T08:01:52Z</time>
      </trkpt>
      <trkpt lat="49.23694" lon="1.40455">
        <ele>8.5</ele>
        <time>2016-05-08T08:01:55Z</time>
      </trkpt>
      <trkpt lat="49.23682" lon="1.40437">
        <ele>6.25</ele>
        <time>2016-05-08T08:02:03Z</time>
      </trkpt>
      <trkpt lat="49.23687" lon="1.40438">
        <ele>4.14</ele>
        <time>2016-05-08T08:02:17Z</time>
      </trkpt>
      <trkpt lat="49.23696" lon="1.4043">
        <ele>2.64</ele>
        <time>2016-05-08T08:02:21Z</time>
      </trkpt>
      <trkpt lat="49.237" lon="1.40423">
        <ele>0.91</ele>
        <time>2016-05-08T08:02:24Z</time>
      </trkpt>
      <trkpt lat="49.23696" lon="1.40418">
        <ele>-0.73</ele>
        <time>2016-05-08T08:02:27Z</time>
      </trkpt>
      <trkpt lat="49.23686" lon="1.40406">
        <ele>-3.97</ele>
        <time>2016-05-08T08:02:34Z</time>
      </trkpt>
      <trkpt lat="49.23677" lon="1.40387">
        <ele>-7.41</ele>
        <time>2016-05-08T08:02:40Z</time>
      </trkpt>
      <trkpt lat="49.2366" lon="1.4037">
        <ele>-9</ele>
        <time>2016-05-08T08:02:50Z</time>
      </trkpt>
      <trkpt lat="49.23655" lon="1.40366">
        <ele>-8.59</ele>
        <time>2016-05-08T08:02:53Z</time>
      </trkpt>
      <trkpt lat="49.23644" lon="1.40357">
        <ele>-8.36</ele>
        <time>2016-05-08T08:02:58Z</time>
      </trkpt>
      <trkpt lat="49.23634" lon="1.40347">
        <ele>-8.8</ele>
        <time>2016-05-08T08:03:07Z</time>
      </trkpt>
      <trkpt lat="49.23632" lon="1.40347">
        <ele>-6.9</ele>
        <time>2016-05-08T08:03:11Z</time>
      </trkpt>
      <trkpt lat="49.2363" lon="1.40344">
        <ele>-6.14</ele>
        <time>2016-05-08T08:03:14Z</time>
      </trkpt>
      <trkpt lat="49.23623" lon="1.40337">
        <ele>-3.78</ele>
        <time>2016-05-08T08:03:21Z</time>
      </trkpt>
      <trkpt lat="49.23617" lon="1.40343">
        <ele>-0.63</ele>
        <time>2016-05-08T08:03:29Z</time>
      </trkpt>
      <trkpt lat="49.23619" lon="1.40354">
        <ele>-0.17</ele>
        <time>2016-05-08T08:03:36Z</time>
      </trkpt>
      <trkpt lat="49.23624" lon="1.4037">
        <ele>2.29</ele>
        <time>2016-05-08T08:03:50Z</time>
      </trkpt>
      <trkpt lat="49.23624" lon="1.40377">
        <ele>3.74</ele>
        <time>2016-05-08T08:03:55Z</time>
      </trkpt>
      <trkpt lat="49.23618" lon="1.40389">
        <ele>7.53</ele>
        <time>2016-05-08T08:04:02Z</time>
      </trkpt>
      <trkpt lat="49.23617" lon="1.40391">
        <ele>8.03</ele>
        <time>2016-05-08T08:04:03Z</time>
      </trkpt>
      <trkpt lat="49.23609" lon="1.40402">
        <ele>11.94</ele>
        <time>2016-05-08T08:04:11Z</time>
      </trkpt>
      <trkpt lat="49.23608" lon="1.40403">
        <ele>12.41</ele>
        <time>2016-05-08T08:04:12Z</time>
      </trkpt>
      <trkpt lat="49.23604" lon="1.40406">
        <ele>13.82</ele>
        <time>2016-05-08T08:04:17Z</time>
      </trkpt>
      <trkpt lat="49.23593" lon="1.40398">
        <ele>15.53</ele>
        <time>2016-05-08T08:04:32Z</time>
      </trkpt>
      <trkpt lat="49.23583" lon="1.40395">
        <ele>18.75</ele>
        <time>2016-05-08T08:04:47Z</time>
      </trkpt>
      <trkpt lat="49.23581" lon="1.40399">
        <ele>19.72</ele>
        <time>2016-05-08T08:05:04Z</time>
      </trkpt>
      <trkpt lat="49.2358" lon="1.404">
        <ele>19.92</ele>
        <time>2016-05-08T08:05:23Z</time>
      </trkpt>
      <trkpt lat="49.2358" lon="1.40399">
        <ele>20.07</ele>
        <time>2016-05-08T08:05:24Z</time>
      </trkpt>
      <trkpt lat="49.23576" lon="1.40403">
        <ele>21.94</ele>
        <time>2016-05-08T08:05:31Z</time>
      </trkpt>
      <trkpt lat="49.23568" lon="1.40389">
        <ele>22.03</ele>
        <time>2016-05-08T08:05:46Z</time>
      </trkpt>
      <trkpt lat="49.23556" lon="1.40383">
        <ele>24</ele>
        <time>2016-05-08T08:05:54Z</time>
      </trkpt>
      <trkpt lat="49.23549" lon="1.4038">
        <ele>26.1</ele>
        <time>2016-05-08T08:06:04Z</time>
      </trkpt>
      <trkpt lat="49.2355" lon="1.40381">
        <ele>26.18</ele>
        <time>2016-05-08T08:06:15Z</time>
      </trkpt>
      <trkpt lat="49.23552" lon="1.40379">
        <ele>25.32</ele>
        <time>2016-05-08T08:06:47Z</time>
      </trkpt>
      <trkpt lat="49.23549" lon="1.40378">
        <ele>25.29</ele>
        <time>2016-05-08T08:07:04Z</time>
      </trkpt>
      <trkpt lat="49.23547" lon="1.40383">
        <ele>25</ele>
        <time>2016-05-08T08:07:36Z</time>
      </trkpt>
      <trkpt lat="49.2355" lon="1.40384">
        <ele>25.43</ele>
        <time>2016-05-08T08:08:08Z</time>
      </trkpt>
      <trkpt lat="49.23553" lon="1.40395">
        <ele>27.08</ele>
        <time>2016-05-08T08:08:27Z</time>
      </trkpt>
      <trkpt lat="49.23561" lon="1.40422">
        <ele>29.83</ele>
        <time>2016-05-08T08:08:40Z</time>
      </trkpt>
      <trkpt lat="49.23561" lon="1.40438">
        <ele>31.42</ele>
        <time>2016-05-08T08:08:46Z</time>
      </trkpt>
      <trkpt lat="49.23565" lon="1.40476">
        <ele>34.41</ele>
        <time>2016-05-08T08:08:59Z</time>
      </trkpt>
      <trkpt lat="49.23579" lon="1.40511">
        <ele>37.59</ele>
        <time>2016-05-08T08:09:14Z</time>
      </trkpt>
      <trkpt lat="49.23581" lon="1.4053">
        <ele>40.52</ele>
        <time>2016-05-08T08:09:32Z</time>
      </trkpt>
      <trkpt lat="49.23587" lon="1.40553">
        <ele>43.81</ele>
        <time>2016-05-08T08:09:44Z</time>
      </trkpt>
      <trkpt lat="49.23591" lon="1.40567">
        <ele>46.19</ele>
        <time>2016-05-08T08:09:51Z</time>
      </trkpt>
      <trkpt lat="49.23596" lon="1.40584">
        <ele>49.77</ele>
        <time>2016-05-08T08:10:01Z</time>
      </trkpt>
      <trkpt lat="49.23598" lon="1.40596">
        <ele>51.54</ele>
        <time>2016-05-08T08:10:16Z</time>
      </trkpt>
      <trkpt lat="49.23597" lon="1.40615">
        <ele>53.38</ele>
        <time>2016-05-08T08:10:36Z</time>
      </trkpt>
      <trkpt lat="49.23596" lon="1.40615">
        <ele>53.3</ele>
        <time>2016-05-08T08:10:37Z</time>
      </trkpt>
      <trkpt lat="49.2359" lon="1.4062">
        <ele>52.92</ele>
        <time>2016-05-08T08:10:41Z</time>
      </trkpt>
      <trkpt lat="49.23572" lon="1.40649">
        <ele>55.15</ele>
        <time>2016-05-08T08:10:55Z</time>
      </trkpt>
      <trkpt lat="49.23559" lon="1.4067">
        <ele>56.08</ele>
        <time>2016-05-08T08:11:01Z</time>
      </trkpt>
      <trkpt lat="49.23545" lon="1.40695">
        <ele>56.66</ele>
        <time>2016-05-08T08:11:09Z</time>
      </trkpt>
      <trkpt lat="49.23537" lon="1.40705">
        <ele>57.77</ele>
        <time>2016-05-08T08:11:14Z</time>
      </trkpt>
      <trkpt lat="49.23534" lon="1.40718">
        <ele>59.64</ele>
        <time>2016-05-08T08:11:19Z</time>
      </trkpt>
      <trkpt lat="49.23534" lon="1.40722">
        <ele>59.77</ele>
        <time>2016-05-08T08:11:20Z</time>
      </trkpt>
      <trkpt lat="49.23537" lon="1.40738">
        <ele>60.33</ele>
        <time>2016-05-08T08:11:25Z</time>
      </trkpt>
      <trkpt lat="49.2355" lon="1.40779">
        <ele>63.08</ele>
        <time>2016-05-08T08:11:38Z</time>
      </trkpt>
      <trkpt lat="49.23558" lon="1.4081">
        <ele>65.85</ele>
        <time>2016-05-08T08:11:50Z</time>
      </trkpt>
      <trkpt lat="49.23541" lon="1.40831">
        <ele>62.25</ele>
        <time>2016-05-08T08:11:58Z</time>
      </trkpt>
      <trkpt lat="49.23536" lon="1.40839">
        <ele>59.18</ele>
        <time>2016-05-08T08:12:01Z</time>
      </trkpt>
      <trkpt lat="49.23528" lon="1.40846">
        <ele>56.12</ele>
        <time>2016-05-08T08:12:04Z</time>
      </trkpt>
      <trkpt lat="49.23516" lon="1.40861">
        <ele>53.1</ele>
        <time>2016-05-08T08:12:08Z</time>
      </trkpt>
      <trkpt lat="49.23506" lon="1.40876">
        <ele>50.02</ele>
        <time>2016-05-08T08:12:12Z</time>
      </trkpt>
      <trkpt lat="49.23493" lon="1.40896">
        <ele>47.56</ele>
        <time>2016-05-08T08:12:24Z</time>
      </trkpt>
      <trkpt lat="49.23481" lon="1.40908">
        <ele>46.5</ele>
        <time>2016-05-08T08:12:37Z</time>
      </trkpt>
      <trkpt lat="49.23463" lon="1.40926">
        <ele>45.39</ele>
        <time>2016-05-08T08:12:48Z</time>
      </trkpt>
      <trkpt lat="49.23447" lon="1.40941">
        <ele>43.61</ele>
        <time>2016-05-08T08:13:00Z</time>
      </trkpt>
      <trkpt lat="49.23431" lon="1.40948">
        <ele>40.33</ele>
        <time>2016-05-08T08:13:09Z</time>
      </trkpt>
      <trkpt lat="49.23411" lon="1.40955">
        <ele>38.8</ele>
        <time>2016-05-08T08:13:21Z</time>
      </trkpt>
      <trkpt lat="49.23407" lon="1.40959">
        <ele>38.25</ele>
        <time>2016-05-08T08:13:25Z</time>
      </trkpt>
      <trkpt lat="49.23395" lon="1.40962">
        <ele>39.2</ele>
        <time>2016-05-08T08:13:33Z</time>
      </trkpt>
      <trkpt lat="49.23365" lon="1.40972">
        <ele>40</ele>
        <time>2016-05-08T08:13:46Z</time>
      </trkpt>
      <trkpt lat="49.23335" lon="1.40965">
        <ele>40.27</ele>
        <time>2016-05-08T08:13:58Z</time>
      </trkpt>
      <trkpt lat="49.23309" lon="1.40934">
        <ele>36.85</ele>
        <time>2016-05-08T08:14:11Z</time>
      </trkpt>
      <trkpt lat="49.23305" lon="1.40924">
        <ele>33.8</ele>
        <time>2016-05-08T08:14:15Z</time>
      </trkpt>
      <trkpt lat="49.23307" lon="1.40913">
        <ele>30.42</ele>
        <time>2016-05-08T08:14:19Z</time>
      </trkpt>
      <trkpt lat="49.23309" lon="1.40904">
        <ele>26.58</ele>
        <time>2016-05-08T08:14:23Z</time>
      </trkpt>
      <trkpt lat="49.2331" lon="1.40899">
        <ele>23.5</ele>
        <time>2016-05-08T08:14:27Z</time>
      </trkpt>
      <trkpt lat="49.23304" lon="1.4088">
        <ele>19.18</ele>
        <time>2016-05-08T08:14:35Z</time>
      </trkpt>
      <trkpt lat="49.23303" lon="1.40875">
        <ele>17.7</ele>
        <time>2016-05-08T08:14:37Z</time>
      </trkpt>
      <trkpt lat="49.23287" lon="1.40839">
        <ele>13.84</ele>
        <time>2016-05-08T08:14:48Z</time>
      </trkpt>
      <trkpt lat="49.23265" lon="1.40817">
        <ele>14.31</ele>
        <time>2016-05-08T08:15:00Z</time>
      </trkpt>
      <trkpt lat="49.23264" lon="1.40818">
        <ele>14.61</ele>
        <time>2016-05-08T08:15:01Z</time>
      </trkpt>
      <trkpt lat="49.23248" lon="1.40809">
        <ele>16.79</ele>
        <time>2016-05-08T08:15:13Z</time>
      </trkpt>
      <trkpt lat="49.23232" lon="1.40803">
        <ele>19.46</ele>
        <time>2016-05-08T08:15:26Z</time>
      </trkpt>
      <trkpt lat="49.23222" lon="1.40797">
        <ele>20.63</ele>
        <time>2016-05-08T08:15:37Z</time>
      </trkpt>
      <trkpt lat="49.23208" lon="1.40797">
        <ele>22.83</ele>
        <time>2016-05-08T08:15:51Z</time>
      </trkpt>
      <trkpt lat="49.23197" lon="1.40794">
        <ele>24.88</ele>
        <time>2016-05-08T08:16:02Z</time>
      </trkpt>
      <trkpt lat="49.23189" lon="1.40791">
        <ele>24.92</ele>
        <time>2016-05-08T08:16:08Z</time>
      </trkpt>
      <trkpt lat="49.23184" lon="1.40798">
        <ele>26.16</ele>
        <time>2016-05-08T08:16:13Z</time>
      </trkpt>
      <trkpt lat="49.23175" lon="1.40804">
        <ele>27.55</ele>
        <time>2016-05-08T08:16:27Z</time>
      </trkpt>
      <trkpt lat="49.23166" lon="1.40807">
        <ele>28.06</ele>
        <time>2016-05-08T08:16:48Z</time>
      </trkpt>
      <trkpt lat="49.23168" lon="1.40823">
        <ele>30.4</ele>
        <time>2016-05-08T08:17:12Z</time>
      </trkpt>
      <trkpt lat="49.23166" lon="1.4083">
        <ele>30.37</ele>
        <time>2016-05-08T08:17:40Z</time>
      </trkpt>
      <trkpt lat="49.23168" lon="1.40837">
        <ele>30.6</ele>
        <time>2016-05-08T08:18:12Z</time>
      </trkpt>
      <trkpt lat="49.23168" lon="1.40836">
        <ele>30.81</ele>
        <time>2016-05-08T08:18:42Z</time>
      </trkpt>
      <trkpt lat="49.23167" lon="1.40835">
        <ele>30.93</ele>
        <time>2016-05-08T08:19:16Z</time>
      </trkpt>
      <trkpt lat="49.23165" lon="1.40835">
        <ele>30.88</ele>
        <time>2016-05-08T08:19:43Z</time>
      </trkpt>
      <trkpt lat="49.23166" lon="1.4083">
        <ele>30.51</ele>
        <time>2016-05-08T08:20:11Z</time>
      </trkpt>
      <trkpt lat="49.23167" lon="1.40829">
        <ele>29.48</ele>
        <time>2016-05-08T08:20:36Z</time>
      </trkpt>
      <trkpt lat="49.23165" lon="1.40854">
        <ele>31.17</ele>
        <time>2016-05-08T08:20:58Z</time>
      </trkpt>
      <trkpt lat="49.23165" lon="1.4086">
        <ele>31.06</ele>
        <time>2016-05-08T08:21:02Z</time>
      </trkpt>
      <trkpt lat="49.23183" lon="1.40891">
        <ele>34.26</ele>
        <time>2016-05-08T08:21:25Z</time>
      </trkpt>
      <trkpt lat="49.23189" lon="1.40903">
        <ele>34.93</ele>
        <time>2016-05-08T08:21:50Z</time>
      </trkpt>
      <trkpt lat="49.23183" lon="1.40897">
        <ele>35.03</ele>
        <time>2016-05-08T08:22:19Z</time>
      </trkpt>
      <trkpt lat="49.23189" lon="1.40895">
        <ele>35.62</ele>
        <time>2016-05-08T08:22:48Z</time>
      </trkpt>
      <trkpt lat="49.23198" lon="1.40898">
        <ele>37.88</ele>
        <time>2016-05-08T08:23:10Z</time>
      </trkpt>
      <trkpt lat="49.23209" lon="1.40893">
        <ele>39.43</ele>
        <time>2016-05-08T08:23:33Z</time>
      </trkpt>
      <trkpt lat="49.23231" lon="1.40897">
        <ele>38.73</ele>
        <time>2016-05-08T08:23:54Z</time>
      </trkpt>
      <trkpt lat="49.23237" lon="1.40897">
        <ele>38.14</ele>
        <time>2016-05-08T08:23:58Z</time>
      </trkpt>
      <trkpt lat="49.23261" lon="1.40902">
        <ele>34.79</ele>
        <time>2016-05-08T08:24:20Z</time>
      </trkpt>
      <trkpt lat="49.23278" lon="1.40914">
        <ele>34.97</ele>
        <time>2016-05-08T08:24:45Z</time>
      </trkpt>
      <trkpt lat="49.23284" lon="1.40916">
        <ele>34.92</ele>
        <time>2016-05-08T08:25:03Z</time>
      </trkpt>
      <trkpt lat="49.23297" lon="1.40933">
        <ele>37.87</ele>
        <time>2016-05-08T08:25:22Z</time>
      </trkpt>
      <trkpt lat="49.23315" lon="1.4096">
        <ele>41.09</ele>
        <time>2016-05-08T08:25:45Z</time>
      </trkpt>
      <trkpt lat="49.23321" lon="1.40965">
        <ele>40.32</ele>
        <time>2016-05-08T08:25:50Z</time>
      </trkpt>
      <trkpt lat="49.23344" lon="1.40963">
        <ele>40.62</ele>
        <time>2016-05-08T08:26:05Z</time>
      </trkpt>
      <trkpt lat="49.23369" lon="1.40958">
        <ele>39.39</ele>
        <time>2016-05-08T08:26:17Z</time>
      </trkpt>
      <trkpt lat="49.23372" lon="1.40956">
        <ele>39.22</ele>
        <time>2016-05-08T08:26:18Z</time>
      </trkpt>
      <trkpt lat="49.23379" lon="1.40955">
        <ele>38.72</ele>
        <time>2016-05-08T08:26:22Z</time>
      </trkpt>
      <trkpt lat="49.23387" lon="1.40954">
        <ele>38.79</ele>
        <time>2016-05-08T08:26:27Z</time>
      </trkpt>
      <trkpt lat="49.23395" lon="1.40951">
        <ele>39.42</ele>
        <time>2016-05-08T08:26:34Z</time>
      </trkpt>
      <trkpt lat="49.23412" lon="1.40946">
        <ele>40.92</ele>
        <time>2016-05-08T08:26:43Z</time>
      </trkpt>
      <trkpt lat="49.2343" lon="1.40948">
        <ele>43.34</ele>
        <time>2016-05-08T08:26:52Z</time>
      </trkpt>
      <trkpt lat="49.2345" lon="1.40938">
        <ele>45.8</ele>
        <time>2016-05-08T08:27:07Z</time>
      </trkpt>
      <trkpt lat="49.2347" lon="1.40917">
        <ele>46.85</ele>
        <time>2016-05-08T08:27:21Z</time>
      </trkpt>
      <trkpt lat="49.23474" lon="1.40911">
        <ele>48.17</ele>
        <time>2016-05-08T08:27:27Z</time>
      </trkpt>
      <trkpt lat="49.23475" lon="1.40912">
        <ele>47.89</ele>
        <time>2016-05-08T08:27:28Z</time>
      </trkpt>
      <trkpt lat="49.23482" lon="1.4091">
        <ele>47.19</ele>
        <time>2016-05-08T08:27:34Z</time>
      </trkpt>
      <trkpt lat="49.23487" lon="1.409">
        <ele>47.98</ele>
        <time>2016-05-08T08:27:42Z</time>
      </trkpt>
      <trkpt lat="49.23491" lon="1.40893">
        <ele>48.6</ele>
        <time>2016-05-08T08:27:46Z</time>
      </trkpt>
      <trkpt lat="49.23493" lon="1.40891">
        <ele>48.89</ele>
        <time>2016-05-08T08:27:48Z</time>
      </trkpt>
      <trkpt lat="49.23496" lon="1.40885">
        <ele>49.79</ele>
        <time>2016-05-08T08:27:52Z</time>
      </trkpt>
      <trkpt lat="49.23513" lon="1.40866">
        <ele>52.97</ele>
        <time>2016-05-08T08:28:07Z</time>
      </trkpt>
      <trkpt lat="49.23523" lon="1.40855">
        <ele>55.55</ele>
        <time>2016-05-08T08:28:20Z</time>
      </trkpt>
      <trkpt lat="49.23529" lon="1.4085">
        <ele>58.61</ele>
        <time>2016-05-08T08:28:32Z</time>
      </trkpt>
      <trkpt lat="49.23539" lon="1.40842">
        <ele>61.13</ele>
        <time>2016-05-08T08:28:47Z</time>
      </trkpt>
      <trkpt lat="49.23545" lon="1.40834">
        <ele>64.18</ele>
        <time>2016-05-08T08:29:01Z</time>
      </trkpt>
      <trkpt lat="49.23547" lon="1.40833">
        <ele>64.75</ele>
        <time>2016-05-08T08:29:13Z</time>
      </trkpt>
      <trkpt lat="49.23551" lon="1.4083">
        <ele>66</ele>
        <time>2016-05-08T08:29:25Z</time>
      </trkpt>
      <trkpt lat="49.23552" lon="1.4083">
        <ele>66.02</ele>
        <time>2016-05-08T08:29:26Z</time>
      </trkpt>
      <trkpt lat="49.23559" lon="1.40822">
        <ele>66.68</ele>
        <time>2016-05-08T08:29:41Z</time>
      </trkpt>
      <trkpt lat="49.23557" lon="1.40822">
        <ele>67.08</ele>
        <time>2016-05-08T08:29:56Z</time>
      </trkpt>
      <trkpt lat="49.23554" lon="1.40816">
        <ele>67.6</ele>
        <time>2016-05-08T08:30:12Z</time>
      </trkpt>
      <trkpt lat="49.23555" lon="1.40807">
        <ele>65.9</ele>
        <time>2016-05-08T08:30:38Z</time>
      </trkpt>
      <trkpt lat="49.23545" lon="1.40785">
        <ele>63.43</ele>
        <time>2016-05-08T08:30:43Z</time>
      </trkpt>
      <trkpt lat="49.23537" lon="1.40747">
        <ele>60.71</ele>
        <time>2016-05-08T08:30:49Z</time>
      </trkpt>
      <trkpt lat="49.23545" lon="1.40713">
        <ele>58.74</ele>
        <time>2016-05-08T08:30:56Z</time>
      </trkpt>
      <trkpt lat="49.23563" lon="1.40674">
        <ele>55.84</ele>
        <time>2016-05-08T08:31:05Z</time>
      </trkpt>
      <trkpt lat="49.23565" lon="1.40672">
        <ele>55.9</ele>
        <time>2016-05-08T08:31:06Z</time>
      </trkpt>
      <trkpt lat="49.23574" lon="1.40651">
        <ele>55.98</ele>
        <time>2016-05-08T08:31:12Z</time>
      </trkpt>
      <trkpt lat="49.23599" lon="1.40614">
        <ele>53.67</ele>
        <time>2016-05-08T08:31:23Z</time>
      </trkpt>
      <trkpt lat="49.23599" lon="1.40611">
        <ele>53.97</ele>
        <time>2016-05-08T08:31:26Z</time>
      </trkpt>
      <trkpt lat="49.23596" lon="1.40607">
        <ele>52.91</ele>
        <time>2016-05-08T08:31:30Z</time>
      </trkpt>
      <trkpt lat="49.23596" lon="1.40602">
        <ele>52.09</ele>
        <time>2016-05-08T08:31:34Z</time>
      </trkpt>
      <trkpt lat="49.23601" lon="1.40596">
        <ele>51.52</ele>
        <time>2016-05-08T08:31:56Z</time>
      </trkpt>
      <trkpt lat="49.23601" lon="1.40595">
        <ele>52.27</ele>
        <time>2016-05-08T08:32:30Z</time>
      </trkpt>
      <trkpt lat="49.23602" lon="1.40591">
        <ele>52.08</ele>
        <time>2016-05-08T08:32:32Z</time>
      </trkpt>
      <trkpt lat="49.23594" lon="1.40562">
        <ele>48.63</ele>
        <time>2016-05-08T08:32:38Z</time>
      </trkpt>
      <trkpt lat="49.23591" lon="1.4055">
        <ele>46.69</ele>
        <time>2016-05-08T08:32:40Z</time>
      </trkpt>
      <trkpt lat="49.23584" lon="1.40529">
        <ele>42.33</ele>
        <time>2016-05-08T08:32:44Z</time>
      </trkpt>
      <trkpt lat="49.23582" lon="1.40522">
        <ele>40.85</ele>
        <time>2016-05-08T08:32:47Z</time>
      </trkpt>
      <trkpt lat="49.23575" lon="1.40497">
        <ele>37.52</ele>
        <time>2016-05-08T08:32:54Z</time>
      </trkpt>
      <trkpt lat="49.23569" lon="1.40485">
        <ele>36.19</ele>
        <time>2016-05-08T08:32:56Z</time>
      </trkpt>
      <trkpt lat="49.23564" lon="1.40475">
        <ele>35.57</ele>
        <time>2016-05-08T08:32:58Z</time>
      </trkpt>
      <trkpt lat="49.23561" lon="1.40462">
        <ele>34.77</ele>
        <time>2016-05-08T08:33:00Z</time>
      </trkpt>
      <trkpt lat="49.23556" lon="1.4044">
        <ele>33.22</ele>
        <time>2016-05-08T08:33:03Z</time>
      </trkpt>
      <trkpt lat="49.23552" lon="1.40407">
        <ele>30</ele>
        <time>2016-05-08T08:33:08Z</time>
      </trkpt>
      <trkpt lat="49.23544" lon="1.40387">
        <ele>26.29</ele>
        <time>2016-05-08T08:33:20Z</time>
      </trkpt>
      <trkpt lat="49.23547" lon="1.40379">
        <ele>24.97</ele>
        <time>2016-05-08T08:33:34Z</time>
      </trkpt>
      <trkpt lat="49.23542" lon="1.40375">
        <ele>24.73</ele>
        <time>2016-05-08T08:33:37Z</time>
      </trkpt>
      <trkpt lat="49.23533" lon="1.40372">
        <ele>22.18</ele>
        <time>2016-05-08T08:33:42Z</time>
      </trkpt>
      <trkpt lat="49.2353" lon="1.40377">
        <ele>21.45</ele>
        <time>2016-05-08T08:33:44Z</time>
      </trkpt>
      <trkpt lat="49.23526" lon="1.40407">
        <ele>19.59</ele>
        <time>2016-05-08T08:33:55Z</time>
      </trkpt>
      <trkpt lat="49.23519" lon="1.4041">
        <ele>16.52</ele>
        <time>2016-05-08T08:34:08Z</time>
      </trkpt>
      <trkpt lat="49.23519" lon="1.4041">
        <ele>15.25</ele>
        <time>2016-05-08T08:34:10Z</time>
      </trkpt>
      <trkpt lat="49.23516" lon="1.40411">
        <ele>14.62</ele>
        <time>2016-05-08T08:34:19Z</time>
      </trkpt>
      <trkpt lat="49.23508" lon="1.40421">
        <ele>10.71</ele>
        <time>2016-05-08T08:34:25Z</time>
      </trkpt>
      <trkpt lat="49.23501" lon="1.40424">
        <ele>7.61</ele>
        <time>2016-05-08T08:34:31Z</time>
      </trkpt>
      <trkpt lat="49.23494" lon="1.40426">
        <ele>4.31</ele>
        <time>2016-05-08T08:34:36Z</time>
      </trkpt>
      <trkpt lat="49.23487" lon="1.40428">
        <ele>0.87</ele>
        <time>2016-05-08T08:34:43Z</time>
      </trkpt>
      <trkpt lat="49.23477" lon="1.40431">
        <ele>-2.9</ele>
        <time>2016-05-08T08:34:49Z</time>
      </trkpt>
      <trkpt lat="49.2347" lon="1.40433">
        <ele>-5.09</ele>
        <time>2016-05-08T08:34:52Z</time>
      </trkpt>
      <trkpt lat="49.23466" lon="1.4042">
        <ele>-7.55</ele>
        <time>2016-05-08T08:34:57Z</time>
      </trkpt>
      <trkpt lat="49.23459" lon="1.40401">
        <ele>-11.32</ele>
        <time>2016-05-08T08:35:02Z</time>
      </trkpt>
      <trkpt lat="49.23452" lon="1.40382">
        <ele>-15.18</ele>
        <time>2016-05-08T08:35:06Z</time>
      </trkpt>
      <trkpt lat="49.2345" lon="1.4037">
        <ele>-19.07</ele>
        <time>2016-05-08T08:35:09Z</time>
      </trkpt>
      <trkpt lat="49.23448" lon="1.40362">
        <ele>-20.8</ele>
        <time>2016-05-08T08:35:13Z</time>
      </trkpt>
      <trkpt lat="49.23445" lon="1.40349">
        <ele>-22.46</ele>
        <time>2016-05-08T08:35:17Z</time>
      </trkpt>
      <trkpt lat="49.23439" lon="1.40329">
        <ele>-26.89</ele>
        <time>2016-05-08T08:35:22Z</time>
      </trkpt>
      <trkpt lat="49.23441" lon="1.40307">
        <ele>-29.91</ele>
        <time>2016-05-08T08:35:27Z</time>
      </trkpt>
      <trkpt lat="49.23442" lon="1.40284">
        <ele>-33.17</ele>
        <time>2016-05-08T08:35:33Z</time>
      </trkpt>
      <trkpt lat="49.23441" lon="1.40268">
        <ele>-36.07</ele>
        <time>2016-05-08T08:35:38Z</time>
      </trkpt>
      <trkpt lat="49.23442" lon="1.40259">
        <ele>-38.86</ele>
        <time>2016-05-08T08:35:41Z</time>
      </trkpt>
      <trkpt lat="49.23448" lon="1.40249">
        <ele>-41.41</ele>
        <time>2016-05-08T08:35:45Z</time>
      </trkpt>
      <trkpt lat="49.23449" lon="1.40243">
        <ele>-43.41</ele>
        <time>2016-05-08T08:35:50Z</time>
      </trkpt>
      <trkpt lat="49.23441" lon="1.40244">
        <ele>-46.63</ele>
        <time>2016-05-08T08:36:03Z</time>
      </trkpt>
      <trkpt lat="49.23445" lon="1.40235">
        <ele>-50.08</ele>
        <time>2016-05-08T08:36:16Z</time>
      </trkpt>
      <trkpt lat="49.23451" lon="1.40222">
        <ele>-53.39</ele>
        <time>2016-05-08T08:36:23Z</time>
      </trkpt>
      <trkpt lat="49.2345" lon="1.40216">
        <ele>-54.62</ele>
        <time>2016-05-08T08:36:26Z</time>
      </trkpt>
      <trkpt lat="49.23445" lon="1.4021">
        <ele>-57</ele>
        <time>2016-05-08T08:36:31Z</time>
      </trkpt>
      <trkpt lat="49.23442" lon="1.40197">
        <ele>-60.59</ele>
        <time>2016-05-08T08:36:37Z</time>
      </trkpt>
      <trkpt lat="49.2344" lon="1.40178">
        <ele>-63.68</ele>
        <time>2016-05-08T08:36:44Z</time>
      </trkpt>
      <trkpt lat="49.23439" lon="1.40173">
        <ele>-63.45</ele>
        <time>2016-05-08T08:36:59Z</time>
      </trkpt>
      <trkpt lat="49.23436" lon="1.40171">
        <ele>-64.4</ele>
        <time>2016-05-08T08:37:27Z</time>
      </trkpt>
      <trkpt lat="49.2344" lon="1.40176">
        <ele>-63.82</ele>
        <time>2016-05-08T08:37:58Z</time>
      </trkpt>
      <trkpt lat="49.2344" lon="1.40172">
        <ele>-64.44</ele>
        <time>2016-05-08T08:38:26Z</time>
      </trkpt>
      <trkpt lat="49.23439" lon="1.40173">
        <ele>-64.69</ele>
        <time>2016-05-08T08:38:57Z</time>
      </trkpt>
      <trkpt lat="49.23402" lon="1.40174">
        <ele>-64.67</ele>
        <time>2016-05-08T08:39:09Z</time>
      </trkpt>
      <trkpt lat="49.23343" lon="1.40173">
        <ele>-64.62</ele>
        <time>2016-05-08T08:39:25Z</time>
      </trkpt>
      <trkpt lat="49.23295" lon="1.40162">
        <ele>-64.39</ele>
        <time>2016-05-08T08:39:38Z</time>
      </trkpt>
      <trkpt lat="49.23262" lon="1.40173">
        <ele>-63.46</ele>
        <time>2016-05-08T08:39:48Z</time>
      </trkpt>
      <trkpt lat="49.23251" lon="1.40177">
        <ele>-62.91</ele>
        <time>2016-05-08T08:39:52Z</time>
      </trkpt>
      <trkpt lat="49.23242" lon="1.40218">
        <ele>-60.1</ele>
        <time>2016-05-08T08:40:05Z</time>
      </trkpt>
      <trkpt lat="49.23232" lon="1.40267">
        <ele>-57.02</ele>
        <time>2016-05-08T08:40:19Z</time>
      </trkpt>
      <trkpt lat="49.23222" lon="1.40317">
        <ele>-53.9</ele>
        <time>2016-05-08T08:40:34Z</time>
      </trkpt>
      <trkpt lat="49.23211" lon="1.40361">
        <ele>-51.21</ele>
        <time>2016-05-08T08:40:47Z</time>
      </trkpt>
      <trkpt lat="49.23203" lon="1.40407">
        <ele>-48.23</ele>
        <time>2016-05-08T08:41:01Z</time>
      </trkpt>
      <trkpt lat="49.23191" lon="1.40454">
        <ele>-45.69</ele>
        <time>2016-05-08T08:41:16Z</time>
      </trkpt>
      <trkpt lat="49.23169" lon="1.40491">
        <ele>-43.1</ele>
        <time>2016-05-08T08:41:31Z</time>
      </trkpt>
      <trkpt lat="49.23147" lon="1.40509">
        <ele>-40.13</ele>
        <time>2016-05-08T08:41:44Z</time>
      </trkpt>
      <trkpt lat="49.23119" lon="1.40529">
        <ele>-37.06</ele>
        <time>2016-05-08T08:41:58Z</time>
      </trkpt>
      <trkpt lat="49.23095" lon="1.40548">
        <ele>-34</ele>
        <time>2016-05-08T08:42:11Z</time>
      </trkpt>
      <trkpt lat="49.23071" lon="1.40571">
        <ele>-30.83</ele>
        <time>2016-05-08T08:42:24Z</time>
      </trkpt>
      <trkpt lat="49.23053" lon="1.40597">
        <ele>-28.26</ele>
        <time>2016-05-08T08:42:36Z</time>
      </trkpt>
      <trkpt lat="49.23038" lon="1.40628">
        <ele>-25.11</ele>
        <time>2016-05-08T08:42:49Z</time>
      </trkpt>
      <trkpt lat="49.23027" lon="1.4067">
        <ele>-22.08</ele>
        <time>2016-05-08T08:43:01Z</time>
      </trkpt>
      <trkpt lat="49.23025" lon="1.40728">
        <ele>-19.27</ele>
        <time>2016-05-08T08:43:16Z</time>
      </trkpt>
      <trkpt lat="49.23027" lon="1.40772">
        <ele>-17.43</ele>
        <time>2016-05-08T08:43:28Z</time>
      </trkpt>
      <trkpt lat="49.23039" lon="1.40811">
        <ele>-15.16</ele>
        <time>2016-05-08T08:43:40Z</time>
      </trkpt>
      <trkpt lat="49.2305" lon="1.40852">
        <ele>-12.59</ele>
        <time>2016-05-08T08:43:52Z</time>
      </trkpt>
      <trkpt lat="49.23062" lon="1.40891">
        <ele>-9.59</ele>
        <time>2016-05-08T08:44:05Z</time>
      </trkpt>
      <trkpt lat="49.23069" lon="1.40928">
        <ele>-7.13</ele>
        <time>2016-05-08T08:44:18Z</time>
      </trkpt>
      <trkpt lat="49.23074" lon="1.40946">
        <ele>-5.52</ele>
        <time>2016-05-08T08:44:24Z</time>
      </trkpt>
      <trkpt lat="49.23077" lon="1.40972">
        <ele>-3.69</ele>
        <time>2016-05-08T08:44:33Z</time>
      </trkpt>
      <trkpt lat="49.23076" lon="1.41008">
        <ele>-0.77</ele>
        <time>2016-05-08T08:44:46Z</time>
      </trkpt>
      <trkpt lat="49.2308" lon="1.41046">
        <ele>2.05</ele>
        <time>2016-05-08T08:45:00Z</time>
      </trkpt>
      <trkpt lat="49.23083" lon="1.41064">
        <ele>4.16</ele>
        <time>2016-05-08T08:45:06Z</time>
      </trkpt>
      <trkpt lat="49.23085" lon="1.41068">
        <ele>4.24</ele>
        <time>2016-05-08T08:45:07Z</time>
      </trkpt>
      <trkpt lat="49.23094" lon="1.41095">
        <ele>6.06</ele>
        <time>2016-05-08T08:45:15Z</time>
      </trkpt>
      <trkpt lat="49.23109" lon="1.41127">
        <ele>9.4</ele>
        <time>2016-05-08T08:45:29Z</time>
      </trkpt>
      <trkpt lat="49.23113" lon="1.41137">
        <ele>10.37</ele>
        <time>2016-05-08T08:45:33Z</time>
      </trkpt>
      <trkpt lat="49.23121" lon="1.41172">
        <ele>13.96</ele>
        <time>2016-05-08T08:45:45Z</time>
      </trkpt>
      <trkpt lat="49.2313" lon="1.41193">
        <ele>16.97</ele>
        <time>2016-05-08T08:45:57Z</time>
      </trkpt>
      <trkpt lat="49.23135" lon="1.41199">
        <ele>18.08</ele>
        <time>2016-05-08T08:46:01Z</time>
      </trkpt>
      <trkpt lat="49.2315" lon="1.41221">
        <ele>20.46</ele>
        <time>2016-05-08T08:46:11Z</time>
      </trkpt>
      <trkpt lat="49.23155" lon="1.4124">
        <ele>22.65</ele>
        <time>2016-05-08T08:46:19Z</time>
      </trkpt>
      <trkpt lat="49.23162" lon="1.41265">
        <ele>26.09</ele>
        <time>2016-05-08T08:46:31Z</time>
      </trkpt>
      <trkpt lat="49.23169" lon="1.41282">
        <ele>29.29</ele>
        <time>2016-05-08T08:46:41Z</time>
      </trkpt>
      <trkpt lat="49.23183" lon="1.4131">
        <ele>31.91</ele>
        <time>2016-05-08T08:46:55Z</time>
      </trkpt>
      <trkpt lat="49.23188" lon="1.41315">
        <ele>32.38</ele>
        <time>2016-05-08T08:46:59Z</time>
      </trkpt>
      <trkpt lat="49.23208" lon="1.41322">
        <ele>33.62</ele>
        <time>2016-05-08T08:47:08Z</time>
      </trkpt>
      <trkpt lat="49.23213" lon="1.4131">
        <ele>34.63</ele>
        <time>2016-05-08T08:47:14Z</time>
      </trkpt>
      <trkpt lat="49.23217" lon="1.41282">
        <ele>36.17</ele>
        <time>2016-05-08T08:47:26Z</time>
      </trkpt>
      <trkpt lat="49.2321" lon="1.41231">
        <ele>38.92</ele>
        <time>2016-05-08T08:47:44Z</time>
      </trkpt>
      <trkpt lat="49.232" lon="1.4118">
        <ele>40.4</ele>
        <time>2016-05-08T08:47:57Z</time>
      </trkpt>
      <trkpt lat="49.23204" lon="1.41166">
        <ele>41.34</ele>
        <time>2016-05-08T08:48:02Z</time>
      </trkpt>
      <trkpt lat="49.23211" lon="1.41168">
        <ele>42.22</ele>
        <time>2016-05-08T08:48:06Z</time>
      </trkpt>
      <trkpt lat="49.23215" lon="1.41176">
        <ele>43.5</ele>
        <time>2016-05-08T08:48:11Z</time>
      </trkpt>
      <trkpt lat="49.23225" lon="1.41209">
        <ele>45.86</ele>
        <time>2016-05-08T08:48:23Z</time>
      </trkpt>
      <trkpt lat="49.23247" lon="1.41248">
        <ele>48.35</ele>
        <time>2016-05-08T08:48:37Z</time>
      </trkpt>
      <trkpt lat="49.23267" lon="1.4128">
        <ele>50.75</ele>
        <time>2016-05-08T08:48:50Z</time>
      </trkpt>
      <trkpt lat="49.23277" lon="1.41328">
        <ele>52.86</ele>
        <time>2016-05-08T08:49:03Z</time>
      </trkpt>
      <trkpt lat="49.23279" lon="1.41342">
        <ele>54.34</ele>
        <time>2016-05-08T08:49:07Z</time>
      </trkpt>
      <trkpt lat="49.23288" lon="1.41405">
        <ele>57.28</ele>
        <time>2016-05-08T08:49:22Z</time>
      </trkpt>
      <trkpt lat="49.23286" lon="1.41448">
        <ele>60.05</ele>
        <time>2016-05-08T08:49:33Z</time>
      </trkpt>
      <trkpt lat="49.23285" lon="1.41499">
        <ele>62.03</ele>
        <time>2016-05-08T08:49:46Z</time>
      </trkpt>
      <trkpt lat="49.23285" lon="1.41529">
        <ele>63.41</ele>
        <time>2016-05-08T08:49:52Z</time>
      </trkpt>
      <trkpt lat="49.23276" lon="1.4158">
        <ele>65.76</ele>
        <time>2016-05-08T08:50:07Z</time>
      </trkpt>
      <trkpt lat="49.23269" lon="1.41606">
        <ele>66.68</ele>
        <time>2016-05-08T08:50:15Z</time>
      </trkpt>
      <trkpt lat="49.23269" lon="1.41609">
        <ele>67.08</ele>
        <time>2016-05-08T08:50:17Z</time>
      </trkpt>
      <trkpt lat="49.23274" lon="1.41609">
        <ele>66.99</ele>
        <time>2016-05-08T08:50:28Z</time>
      </trkpt>
      <trkpt lat="49.23276" lon="1.41609">
        <ele>68.14</ele>
        <time>2016-05-08T08:50:58Z</time>
      </trkpt>
      <trkpt lat="49.23273" lon="1.41608">
        <ele>67.15</ele>
        <time>2016-05-08T08:51:15Z</time>
      </trkpt>
      <trkpt lat="49.23277" lon="1.41581">
        <ele>66.01</ele>
        <time>2016-05-08T08:51:24Z</time>
      </trkpt>
      <trkpt lat="49.23294" lon="1.41532">
        <ele>65.09</ele>
        <time>2016-05-08T08:51:33Z</time>
      </trkpt>
      <trkpt lat="49.23306" lon="1.41509">
        <ele>67.93</ele>
        <time>2016-05-08T08:51:40Z</time>
      </trkpt>
      <trkpt lat="49.23309" lon="1.41501">
        <ele>68.08</ele>
        <time>2016-05-08T08:51:42Z</time>
      </trkpt>
      <trkpt lat="49.23309" lon="1.41477">
        <ele>67.58</ele>
        <time>2016-05-08T08:51:46Z</time>
      </trkpt>
      <trkpt lat="49.23314" lon="1.41449">
        <ele>66.87</ele>
        <time>2016-05-08T08:51:50Z</time>
      </trkpt>
      <trkpt lat="49.2332" lon="1.41379">
        <ele>68.2</ele>
        <time>2016-05-08T08:52:03Z</time>
      </trkpt>
      <trkpt lat="49.2331" lon="1.41314">
        <ele>67.38</ele>
        <time>2016-05-08T08:52:14Z</time>
      </trkpt>
      <trkpt lat="49.23305" lon="1.41294">
        <ele>66.81</ele>
        <time>2016-05-08T08:52:17Z</time>
      </trkpt>
      <trkpt lat="49.233" lon="1.4126">
        <ele>66.66</ele>
        <time>2016-05-08T08:52:22Z</time>
      </trkpt>
      <trkpt lat="49.23294" lon="1.41218">
        <ele>66.71</ele>
        <time>2016-05-08T08:52:28Z</time>
      </trkpt>
      <trkpt lat="49.23301" lon="1.41154">
        <ele>67.35</ele>
        <time>2016-05-08T08:52:38Z</time>
      </trkpt>
      <trkpt lat="49.23329" lon="1.41125">
        <ele>65.67</ele>
        <time>2016-05-08T08:52:46Z</time>
      </trkpt>
      <trkpt lat="49.23365" lon="1.41118">
        <ele>67.74</ele>
        <time>2016-05-08T08:52:55Z</time>
      </trkpt>
      <trkpt lat="49.23384" lon="1.41086">
        <ele>66.84</ele>
        <time>2016-05-08T08:53:00Z</time>
      </trkpt>
      <trkpt lat="49.23398" lon="1.41074">
        <ele>66.79</ele>
        <time>2016-05-08T08:53:03Z</time>
      </trkpt>
      <trkpt lat="49.23416" lon="1.41063">
        <ele>67.85</ele>
        <time>2016-05-08T08:53:07Z</time>
      </trkpt>
      <trkpt lat="49.2344" lon="1.41051">
        <ele>68.27</ele>
        <time>2016-05-08T08:53:13Z</time>
      </trkpt>
      <trkpt lat="49.23471" lon="1.41022">
        <ele>69.31</ele>
        <time>2016-05-08T08:53:22Z</time>
      </trkpt>
      <trkpt lat="49.23486" lon="1.41003">
        <ele>69.4</ele>
        <time>2016-05-08T08:53:26Z</time>
      </trkpt>
      <trkpt lat="49.23514" lon="1.40945">
        <ele>69.67</ele>
        <time>2016-05-08T08:53:35Z</time>
      </trkpt>
      <trkpt lat="49.23528" lon="1.40927">
        <ele>69.91</ele>
        <time>2016-05-08T08:53:39Z</time>
      </trkpt>
      <trkpt lat="49.23539" lon="1.40916">
        <ele>71.04</ele>
        <time>2016-05-08T08:53:42Z</time>
      </trkpt>
      <trkpt lat="49.23547" lon="1.40891">
        <ele>71.81</ele>
        <time>2016-05-08T08:53:46Z</time>
      </trkpt>
      <trkpt lat="49.23554" lon="1.40868">
        <ele>71.75</ele>
        <time>2016-05-08T08:53:49Z</time>
      </trkpt>
      <trkpt lat="49.23559" lon="1.40852">
        <ele>71.87</ele>
        <time>2016-05-08T08:53:51Z</time>
      </trkpt>
      <trkpt lat="49.23593" lon="1.40783">
        <ele>71.84</ele>
        <time>2016-05-08T08:54:03Z</time>
      </trkpt>
      <trkpt lat="49.236" lon="1.40772">
        <ele>71.13</ele>
        <time>2016-05-08T08:54:05Z</time>
      </trkpt>
      <trkpt lat="49.23608" lon="1.40752">
        <ele>68.63</ele>
        <time>2016-05-08T08:54:09Z</time>
      </trkpt>
      <trkpt lat="49.23614" lon="1.40706">
        <ele>65.55</ele>
        <time>2016-05-08T08:54:19Z</time>
      </trkpt>
      <trkpt lat="49.23615" lon="1.40681">
        <ele>63.26</ele>
        <time>2016-05-08T08:54:22Z</time>
      </trkpt>
      <trkpt lat="49.23627" lon="1.40658">
        <ele>59.88</ele>
        <time>2016-05-08T08:54:28Z</time>
      </trkpt>
      <trkpt lat="49.23636" lon="1.4065">
        <ele>56.86</ele>
        <time>2016-05-08T08:54:31Z</time>
      </trkpt>
      <trkpt lat="49.23641" lon="1.40646">
        <ele>54.93</ele>
        <time>2016-05-08T08:54:33Z</time>
      </trkpt>
      <trkpt lat="49.23651" lon="1.40643">
        <ele>52.51</ele>
        <time>2016-05-08T08:54:37Z</time>
      </trkpt>
      <trkpt lat="49.23654" lon="1.40641">
        <ele>51.94</ele>
        <time>2016-05-08T08:54:38Z</time>
      </trkpt>
      <trkpt lat="49.23662" lon="1.40627">
        <ele>47.33</ele>
        <time>2016-05-08T08:54:42Z</time>
      </trkpt>
      <trkpt lat="49.23667" lon="1.40617">
        <ele>45.31</ele>
        <time>2016-05-08T08:54:44Z</time>
      </trkpt>
      <trkpt lat="49.23675" lon="1.40613">
        <ele>43.4</ele>
        <time>2016-05-08T08:54:47Z</time>
      </trkpt>
      <trkpt lat="49.23687" lon="1.40603">
        <ele>42.01</ele>
        <time>2016-05-08T08:54:51Z</time>
      </trkpt>
      <trkpt lat="49.23698" lon="1.40584">
        <ele>37.47</ele>
        <time>2016-05-08T08:54:55Z</time>
      </trkpt>
      <trkpt lat="49.23708" lon="1.4059">
        <ele>34.96</ele>
        <time>2016-05-08T08:55:00Z</time>
      </trkpt>
      <trkpt lat="49.23719" lon="1.40603">
        <ele>30.93</ele>
        <time>2016-05-08T08:55:05Z</time>
      </trkpt>
      <trkpt lat="49.23721" lon="1.40605">
        <ele>29.19</ele>
        <time>2016-05-08T08:55:06Z</time>
      </trkpt>
      <trkpt lat="49.23732" lon="1.40616">
        <ele>24.25</ele>
        <time>2016-05-08T08:55:10Z</time>
      </trkpt>
      <trkpt lat="49.23737" lon="1.40625">
        <ele>20.71</ele>
        <time>2016-05-08T08:55:13Z</time>
      </trkpt>
      <trkpt lat="49.23742" lon="1.40633">
        <ele>19.03</ele>
        <time>2016-05-08T08:55:15Z</time>
      </trkpt>
      <trkpt lat="49.23779" lon="1.40645">
        <ele>18.58</ele>
        <time>2016-05-08T08:55:23Z</time>
      </trkpt>
      <trkpt lat="49.238" lon="1.40651">
        <ele>21.6</ele>
        <time>2016-05-08T08:55:33Z</time>
      </trkpt>
      <trkpt lat="49.23823" lon="1.40651">
        <ele>24.75</ele>
        <time>2016-05-08T08:55:45Z</time>
      </trkpt>
      <trkpt lat="49.2385" lon="1.40642">
        <ele>27.84</ele>
        <time>2016-05-08T08:55:59Z</time>
      </trkpt>
      <trkpt lat="49.23876" lon="1.40639">
        <ele>30.98</ele>
        <time>2016-05-08T08:56:12Z</time>
      </trkpt>
      <trkpt lat="49.23899" lon="1.4066">
        <ele>34.15</ele>
        <time>2016-05-08T08:56:26Z</time>
      </trkpt>
      <trkpt lat="49.23898" lon="1.40674">
        <ele>35.48</ele>
        <time>2016-05-08T08:56:36Z</time>
      </trkpt>
      <trkpt lat="49.23897" lon="1.4067">
        <ele>35.56</ele>
        <time>2016-05-08T08:56:53Z</time>
      </trkpt>
      <trkpt lat="49.23896" lon="1.40676">
        <ele>35.82</ele>
        <time>2016-05-08T08:57:07Z</time>
      </trkpt>
      <trkpt lat="49.239" lon="1.40675">
        <ele>35.74</ele>
        <time>2016-05-08T08:57:27Z</time>
      </trkpt>
      <trkpt lat="49.23893" lon="1.40676">
        <ele>35.44</ele>
        <time>2016-05-08T08:57:51Z</time>
      </trkpt>
      <trkpt lat="49.23892" lon="1.4068">
        <ele>36.51</ele>
        <time>2016-05-08T08:57:59Z</time>
      </trkpt>
      <trkpt lat="49.23898" lon="1.40677">
        <ele>36.24</ele>
        <time>2016-05-08T08:58:24Z</time>
      </trkpt>
      <trkpt lat="49.23902" lon="1.40675">
        <ele>36.99</ele>
        <time>2016-05-08T08:58:43Z</time>
      </trkpt>
      <trkpt lat="49.23905" lon="1.40674">
        <ele>36.1</ele>
        <time>2016-05-08T08:58:53Z</time>
      </trkpt>
      <trkpt lat="49.23899" lon="1.40668">
        <ele>35.95</ele>
        <time>2016-05-08T08:59:17Z</time>
      </trkpt>
      <trkpt lat="49.23898" lon="1.40674">
        <ele>35.98</ele>
        <time>2016-05-08T08:59:21Z</time>
      </trkpt>
      <trkpt lat="49.2389" lon="1.40716">
        <ele>38.9</ele>
        <time>2016-05-08T08:59:37Z</time>
      </trkpt>
      <trkpt lat="49.23875" lon="1.4075">
        <ele>42.07</ele>
        <time>2016-05-08T08:59:51Z</time>
      </trkpt>
      <trkpt lat="49.23865" lon="1.40774">
        <ele>45.24</ele>
        <time>2016-05-08T09:00:04Z</time>
      </trkpt>
      <trkpt lat="49.23859" lon="1.40797">
        <ele>48.28</ele>
        <time>2016-05-08T09:00:16Z</time>
      </trkpt>
      <trkpt lat="49.23854" lon="1.40819">
        <ele>51.42</ele>
        <time>2016-05-08T09:00:28Z</time>
      </trkpt>
      <trkpt lat="49.23858" lon="1.40841">
        <ele>54.5</ele>
        <time>2016-05-08T09:00:37Z</time>
      </trkpt>
      <trkpt lat="49.23863" lon="1.40875">
        <ele>57.64</ele>
        <time>2016-05-08T09:00:48Z</time>
      </trkpt>
      <trkpt lat="49.23865" lon="1.4091">
        <ele>60.77</ele>
        <time>2016-05-08T09:01:00Z</time>
      </trkpt>
      <trkpt lat="49.23857" lon="1.40952">
        <ele>64</ele>
        <time>2016-05-08T09:01:12Z</time>
      </trkpt>
      <trkpt lat="49.23846" lon="1.40976">
        <ele>67.01</ele>
        <time>2016-05-08T09:01:21Z</time>
      </trkpt>
      <trkpt lat="49.23832" lon="1.40993">
        <ele>69.8</ele>
        <time>2016-05-08T09:01:30Z</time>
      </trkpt>
      <trkpt lat="49.23824" lon="1.41007">
        <ele>71.23</ele>
        <time>2016-05-08T09:01:36Z</time>
      </trkpt>
      <trkpt lat="49.23804" lon="1.41044">
        <ele>72.76</ele>
        <time>2016-05-08T09:01:51Z</time>
      </trkpt>
      <trkpt lat="49.23784" lon="1.41069">
        <ele>73.06</ele>
        <time>2016-05-08T09:02:02Z</time>
      </trkpt>
      <trkpt lat="49.23761" lon="1.41116">
        <ele>74.04</ele>
        <time>2016-05-08T09:02:11Z</time>
      </trkpt>
      <trkpt lat="49.23774" lon="1.41153">
        <ele>73.6</ele>
        <time>2016-05-08T09:02:20Z</time>
      </trkpt>
      <trkpt lat="49.23803" lon="1.41164">
        <ele>72.68</ele>
        <time>2016-05-08T09:02:26Z</time>
      </trkpt>
      <trkpt lat="49.23813" lon="1.41169">
        <ele>72.8</ele>
        <time>2016-05-08T09:02:28Z</time>
      </trkpt>
      <trkpt lat="49.23852" lon="1.41184">
        <ele>71.69</ele>
        <time>2016-05-08T09:02:37Z</time>
      </trkpt>
      <trkpt lat="49.23879" lon="1.41212">
        <ele>70.67</ele>
        <time>2016-05-08T09:02:44Z</time>
      </trkpt>
      <trkpt lat="49.239" lon="1.41237">
        <ele>69.42</ele>
        <time>2016-05-08T09:02:50Z</time>
      </trkpt>
      <trkpt lat="49.23918" lon="1.41236">
        <ele>67.24</ele>
        <time>2016-05-08T09:02:56Z</time>
      </trkpt>
      <trkpt lat="49.23937" lon="1.41241">
        <ele>64.7</ele>
        <time>2016-05-08T09:03:04Z</time>
      </trkpt>
      <trkpt lat="49.23965" lon="1.41266">
        <ele>61.06</ele>
        <time>2016-05-08T09:03:11Z</time>
      </trkpt>
      <trkpt lat="49.23975" lon="1.41276">
        <ele>59.6</ele>
        <time>2016-05-08T09:03:14Z</time>
      </trkpt>
      <trkpt lat="49.23993" lon="1.41272">
        <ele>55.49</ele>
        <time>2016-05-08T09:03:20Z</time>
      </trkpt>
      <trkpt lat="49.24003" lon="1.41264">
        <ele>52.48</ele>
        <time>2016-05-08T09:03:24Z</time>
      </trkpt>
      <trkpt lat="49.24002" lon="1.4126">
        <ele>52.46</ele>
        <time>2016-05-08T09:03:25Z</time>
      </trkpt>
      <trkpt lat="49.24003" lon="1.41257">
        <ele>52.18</ele>
        <time>2016-05-08T09:03:26Z</time>
      </trkpt>
      <trkpt lat="49.24005" lon="1.41196">
        <ele>50.56</ele>
        <time>2016-05-08T09:03:39Z</time>
      </trkpt>
      <trkpt lat="49.24003" lon="1.41176">
        <ele>50.47</ele>
        <time>2016-05-08T09:03:50Z</time>
      </trkpt>
      <trkpt lat="49.24" lon="1.41157">
        <ele>49.65</ele>
        <time>2016-05-08T09:04:05Z</time>
      </trkpt>
      <trkpt lat="49.24" lon="1.41151">
        <ele>49.46</ele>
        <time>2016-05-08T09:04:09Z</time>
      </trkpt>
      <trkpt lat="49.24" lon="1.41146">
        <ele>49.1</ele>
        <time>2016-05-08T09:04:13Z</time>
      </trkpt>
      <trkpt lat="49.23999" lon="1.41138">
        <ele>49.1</ele>
        <time>2016-05-08T09:04:21Z</time>
      </trkpt>
      <trkpt lat="49.23995" lon="1.41127">
        <ele>48.88</ele>
        <time>2016-05-08T09:04:25Z</time>
      </trkpt>
      <trkpt lat="49.23989" lon="1.41099">
        <ele>47.59</ele>
        <time>2016-05-08T09:04:38Z</time>
      </trkpt>
      <trkpt lat="49.2399" lon="1.41099">
        <ele>47.33</ele>
        <time>2016-05-08T09:04:42Z</time>
      </trkpt>
      <trkpt lat="49.24006" lon="1.41096">
        <ele>43.42</ele>
        <time>2016-05-08T09:04:48Z</time>
      </trkpt>
      <trkpt lat="49.24013" lon="1.41094">
        <ele>40.24</ele>
        <time>2016-05-08T09:04:52Z</time>
      </trkpt>
      <trkpt lat="49.24015" lon="1.41087">
        <ele>38.9</ele>
        <time>2016-05-08T09:05:03Z</time>
      </trkpt>
      <trkpt lat="49.24017" lon="1.41075">
        <ele>36.45</ele>
        <time>2016-05-08T09:05:08Z</time>
      </trkpt>
      <trkpt lat="49.24017" lon="1.41056">
        <ele>34.77</ele>
        <time>2016-05-08T09:05:18Z</time>
      </trkpt>
      <trkpt lat="49.24014" lon="1.41054">
        <ele>35.56</ele>
        <time>2016-05-08T09:05:20Z</time>
      </trkpt>
      <trkpt lat="49.24011" lon="1.4105">
        <ele>35.62</ele>
        <time>2016-05-08T09:05:22Z</time>
      </trkpt>
      <trkpt lat="49.24008" lon="1.41044">
        <ele>35.97</ele>
        <time>2016-05-08T09:05:25Z</time>
      </trkpt>
      <trkpt lat="49.24007" lon="1.41038">
        <ele>35.6</ele>
        <time>2016-05-08T09:05:28Z</time>
      </trkpt>
      <trkpt lat="49.23995" lon="1.41018">
        <ele>34.9</ele>
        <time>2016-05-08T09:05:43Z</time>
      </trkpt>
      <trkpt lat="49.23991" lon="1.41016">
        <ele>35.9</ele>
        <time>2016-05-08T09:05:47Z</time>
      </trkpt>
      <trkpt lat="49.23987" lon="1.41009">
        <ele>36.79</ele>
        <time>2016-05-08T09:05:57Z</time>
      </trkpt>
      <trkpt lat="49.23983" lon="1.40993">
        <ele>35.35</ele>
        <time>2016-05-08T09:06:02Z</time>
      </trkpt>
      <trkpt lat="49.23982" lon="1.4098">
        <ele>34.9</ele>
        <time>2016-05-08T09:06:06Z</time>
      </trkpt>
      <trkpt lat="49.23978" lon="1.40974">
        <ele>36.09</ele>
        <time>2016-05-08T09:06:10Z</time>
      </trkpt>
      <trkpt lat="49.23969" lon="1.40958">
        <ele>38.47</ele>
        <time>2016-05-08T09:06:22Z</time>
      </trkpt>
      <trkpt lat="49.23979" lon="1.40949">
        <ele>35.19</ele>
        <time>2016-05-08T09:06:26Z</time>
      </trkpt>
      <trkpt lat="49.23983" lon="1.40942">
        <ele>32.69</ele>
        <time>2016-05-08T09:06:29Z</time>
      </trkpt>
      <trkpt lat="49.2398" lon="1.40928">
        <ele>30.06</ele>
        <time>2016-05-08T09:06:42Z</time>
      </trkpt>
      <trkpt lat="49.2398" lon="1.40922">
        <ele>29.64</ele>
        <time>2016-05-08T09:06:53Z</time>
      </trkpt>
      <trkpt lat="49.23978" lon="1.40916">
        <ele>28.21</ele>
        <time>2016-05-08T09:06:59Z</time>
      </trkpt>
      <trkpt lat="49.23992" lon="1.4091">
        <ele>24.24</ele>
        <time>2016-05-08T09:07:07Z</time>
      </trkpt>
      <trkpt lat="49.23998" lon="1.40907">
        <ele>21.18</ele>
        <time>2016-05-08T09:07:11Z</time>
      </trkpt>
      <trkpt lat="49.24002" lon="1.40902">
        <ele>18.25</ele>
        <time>2016-05-08T09:07:16Z</time>
      </trkpt>
      <trkpt lat="49.24005" lon="1.40899">
        <ele>17.64</ele>
        <time>2016-05-08T09:07:17Z</time>
      </trkpt>
      <trkpt lat="49.24021" lon="1.40896">
        <ele>15.76</ele>
        <time>2016-05-08T09:07:26Z</time>
      </trkpt>
      <trkpt lat="49.24021" lon="1.40895">
        <ele>15.02</ele>
        <time>2016-05-08T09:07:55Z</time>
      </trkpt>
      <trkpt lat="49.24021" lon="1.40896">
        <ele>16.98</ele>
        <time>2016-05-08T09:08:00Z</time>
      </trkpt>
      <trkpt lat="49.2402" lon="1.40898">
        <ele>16.24</ele>
        <time>2016-05-08T09:08:27Z</time>
      </trkpt>
      <trkpt lat="49.2402" lon="1.40896">
        <ele>16.88</ele>
        <time>2016-05-08T09:08:54Z</time>
      </trkpt>
      <trkpt lat="49.24035" lon="1.40895">
        <ele>15.02</ele>
        <time>2016-05-08T09:09:14Z</time>
      </trkpt>
      <trkpt lat="49.24047" lon="1.40891">
        <ele>14.15</ele>
        <time>2016-05-08T09:09:16Z</time>
      </trkpt>
      <trkpt lat="49.24069" lon="1.40872">
        <ele>10.55</ele>
        <time>2016-05-08T09:09:20Z</time>
      </trkpt>
      <trkpt lat="49.24074" lon="1.40864">
        <ele>8.78</ele>
        <time>2016-05-08T09:09:22Z</time>
      </trkpt>
      <trkpt lat="49.24082" lon="1.40845">
        <ele>5.66</ele>
        <time>2016-05-08T09:09:25Z</time>
      </trkpt>
      <trkpt lat="49.24087" lon="1.40819">
        <ele>0.47</ele>
        <time>2016-05-08T09:09:28Z</time>
      </trkpt>
      <trkpt lat="49.24087" lon="1.40811">
        <ele>-1.12</ele>
        <time>2016-05-08T09:09:29Z</time>
      </trkpt>
      <trkpt lat="49.24096" lon="1.40782">
        <ele>-7.6</ele>
        <time>2016-05-08T09:09:34Z</time>
      </trkpt>
      <trkpt lat="49.24106" lon="1.40784">
        <ele>-9.82</ele>
        <time>2016-05-08T09:09:36Z</time>
      </trkpt>
      <trkpt lat="49.24125" lon="1.40765">
        <ele>-13.54</ele>
        <time>2016-05-08T09:09:42Z</time>
      </trkpt>
      <trkpt lat="49.24119" lon="1.40745">
        <ele>-17.58</ele>
        <time>2016-05-08T09:09:45Z</time>
      </trkpt>
      <trkpt lat="49.24116" lon="1.40733">
        <ele>-20.58</ele>
        <time>2016-05-08T09:09:47Z</time>
      </trkpt>
      <trkpt lat="49.24121" lon="1.40722">
        <ele>-23.71</ele>
        <time>2016-05-08T09:09:50Z</time>
      </trkpt>
      <trkpt lat="49.24141" lon="1.40718">
        <ele>-26.99</ele>
        <time>2016-05-08T09:09:56Z</time>
      </trkpt>
      <trkpt lat="49.2414" lon="1.40716">
        <ele>-27.25</ele>
        <time>2016-05-08T09:09:57Z</time>
      </trkpt>
      <trkpt lat="49.24127" lon="1.40712">
        <ele>-26.98</ele>
        <time>2016-05-08T09:10:01Z</time>
      </trkpt>
      <trkpt lat="49.24104" lon="1.40704">
        <ele>-26.46</ele>
        <time>2016-05-08T09:10:09Z</time>
      </trkpt>
      <trkpt lat="49.24111" lon="1.40691">
        <ele>-28.33</ele>
        <time>2016-05-08T09:10:15Z</time>
      </trkpt>
      <trkpt lat="49.2413" lon="1.4069">
        <ele>-31.16</ele>
        <time>2016-05-08T09:10:26Z</time>
      </trkpt>
      <trkpt lat="49.24128" lon="1.40688">
        <ele>-31.02</ele>
        <time>2016-05-08T09:10:31Z</time>
      </trkpt>
      <trkpt lat="49.24126" lon="1.40683">
        <ele>-30.28</ele>
        <time>2016-05-08T09:10:34Z</time>
      </trkpt>
      <trkpt lat="49.2413" lon="1.40641">
        <ele>-30.03</ele>
        <time>2016-05-08T09:10:45Z</time>
      </trkpt>
      <trkpt lat="49.24137" lon="1.40632">
        <ele>-28.4</ele>
        <time>2016-05-08T09:10:54Z</time>
      </trkpt>
      <trkpt lat="49.24137" lon="1.40633">
        <ele>-29.23</ele>
        <time>2016-05-08T09:11:07Z</time>
      </trkpt>
      <trkpt lat="49.24138" lon="1.40635">
        <ele>-30.15</ele>
        <time>2016-05-08T09:11:21Z</time>
      </trkpt>
      <trkpt lat="49.24134" lon="1.40636">
        <ele>-29.07</ele>
        <time>2016-05-08T09:11:30Z</time>
      </trkpt>
      <trkpt lat="49.24135" lon="1.40637">
        <ele>-29.8</ele>
        <time>2016-05-08T09:11:32Z</time>
      </trkpt>
      <trkpt lat="49.24136" lon="1.40635">
        <ele>-31.09</ele>
        <time>2016-05-08T09:11:36Z</time>
      </trkpt>
      <trkpt lat="49.24137" lon="1.40636">
        <ele>-30.09</ele>
        <time>2016-05-08T09:11:47Z</time>
      </trkpt>
      <trkpt lat="49.2414" lon="1.40634">
        <ele>-31.16</ele>
        <time>2016-05-08T09:11:52Z</time>
      </trkpt>
      <trkpt lat="49.24139" lon="1.40634">
        <ele>-31.37</ele>
        <time>2016-05-08T09:11:53Z</time>
      </trkpt>
      <trkpt lat="49.24131" lon="1.40641">
        <ele>-30.18</ele>
        <time>2016-05-08T09:12:11Z</time>
      </trkpt>
      <trkpt lat="49.24132" lon="1.4064">
        <ele>-31.01</ele>
        <time>2016-05-08T09:12:16Z</time>
      </trkpt>
      <trkpt lat="49.24134" lon="1.40636">
        <ele>-31.62</ele>
        <time>2016-05-08T09:12:36Z</time>
      </trkpt>
      <trkpt lat="49.24138" lon="1.40635">
        <ele>-31.19</ele>
        <time>2016-05-08T09:12:56Z</time>
      </trkpt>
      <trkpt lat="49.24136" lon="1.40643">
        <ele>-31.5</ele>
        <time>2016-05-08T09:13:16Z</time>
      </trkpt>
      <trkpt lat="49.24138" lon="1.40645">
        <ele>-31.74</ele>
        <time>2016-05-08T09:13:18Z</time>
      </trkpt>
      <trkpt lat="49.24154" lon="1.40639">
        <ele>-33.83</ele>
        <time>2016-05-08T09:13:23Z</time>
      </trkpt>
      <trkpt lat="49.24177" lon="1.40616">
        <ele>-38.49</ele>
        <time>2016-05-08T09:13:32Z</time>
      </trkpt>
      <trkpt lat="49.24189" lon="1.40608">
        <ele>-41.68</ele>
        <time>2016-05-08T09:13:37Z</time>
      </trkpt>
      <trkpt lat="49.24197" lon="1.40614">
        <ele>-43.25</ele>
        <time>2016-05-08T09:13:41Z</time>
      </trkpt>
      <trkpt lat="49.24202" lon="1.40594">
        <ele>-44.52</ele>
        <time>2016-05-08T09:13:49Z</time>
      </trkpt>
      <trkpt lat="49.24175" lon="1.40491">
        <ele>-43.91</ele>
        <time>2016-05-08T09:14:06Z</time>
      </trkpt>
      <trkpt lat="49.24166" lon="1.40439">
        <ele>-43.69</ele>
        <time>2016-05-08T09:14:18Z</time>
      </trkpt>
      <trkpt lat="49.24163" lon="1.40407">
        <ele>-44.68</ele>
        <time>2016-05-08T09:14:25Z</time>
      </trkpt>
      <trkpt lat="49.24164" lon="1.4043">
        <ele>-44.1</ele>
        <time>2016-05-08T09:14:32Z</time>
      </trkpt>
      <trkpt lat="49.24166" lon="1.40441">
        <ele>-43.95</ele>
        <time>2016-05-08T09:14:42Z</time>
      </trkpt>
      <trkpt lat="49.24164" lon="1.40449">
        <ele>-43.42</ele>
        <time>2016-05-08T09:14:55Z</time>
      </trkpt>
      <trkpt lat="49.24171" lon="1.40477">
        <ele>-42.64</ele>
        <time>2016-05-08T09:15:01Z</time>
      </trkpt>
      <trkpt lat="49.24177" lon="1.40498">
        <ele>-43.11</ele>
        <time>2016-05-08T09:15:04Z</time>
      </trkpt>
      <trkpt lat="49.24204" lon="1.40604">
        <ele>-44.57</ele>
        <time>2016-05-08T09:15:17Z</time>
      </trkpt>
      <trkpt lat="49.24208" lon="1.4062">
        <ele>-44.72</ele>
        <time>2016-05-08T09:15:19Z</time>
      </trkpt>
      <trkpt lat="49.24229" lon="1.40633">
        <ele>-46.39</ele>
        <time>2016-05-08T09:15:23Z</time>
      </trkpt>
      <trkpt lat="49.24249" lon="1.40638">
        <ele>-47.94</ele>
        <time>2016-05-08T09:15:26Z</time>
      </trkpt>
      <trkpt lat="49.24271" lon="1.40649">
        <ele>-52.65</ele>
        <time>2016-05-08T09:15:30Z</time>
      </trkpt>
      <trkpt lat="49.24279" lon="1.40669">
        <ele>-55.96</ele>
        <time>2016-05-08T09:15:32Z</time>
      </trkpt>
      <trkpt lat="49.24285" lon="1.40685">
        <ele>-58.55</ele>
        <time>2016-05-08T09:15:34Z</time>
      </trkpt>
      <trkpt lat="49.2429" lon="1.40706">
        <ele>-63.08</ele>
        <time>2016-05-08T09:15:42Z</time>
      </trkpt>
      <trkpt lat="49.24299" lon="1.40677">
        <ele>-62.72</ele>
        <time>2016-05-08T09:15:49Z</time>
      </trkpt>
      <trkpt lat="49.243" lon="1.40642">
        <ele>-62.86</ele>
        <time>2016-05-08T09:15:54Z</time>
      </trkpt>
      <trkpt lat="49.24297" lon="1.40606">
        <ele>-62.42</ele>
        <time>2016-05-08T09:15:59Z</time>
      </trkpt>
      <trkpt lat="49.24285" lon="1.40565">
        <ele>-61.67</ele>
        <time>2016-05-08T09:16:05Z</time>
      </trkpt>
      <trkpt lat="49.24249" lon="1.40474">
        <ele>-60.54</ele>
        <time>2016-05-08T09:16:18Z</time>
      </trkpt>
      <trkpt lat="49.24215" lon="1.40405">
        <ele>-60.6</ele>
        <time>2016-05-08T09:16:28Z</time>
      </trkpt>
      <trkpt lat="49.24207" lon="1.40374">
        <ele>-61.22</ele>
        <time>2016-05-08T09:16:32Z</time>
      </trkpt>
      <trkpt lat="49.24204" lon="1.40341">
        <ele>-61.69</ele>
        <time>2016-05-08T09:16:36Z</time>
      </trkpt>
      <trkpt lat="49.24211" lon="1.4032">
        <ele>-62.91</ele>
        <time>2016-05-08T09:16:40Z</time>
      </trkpt>
      <trkpt lat="49.24212" lon="1.40295">
        <ele>-63.43</ele>
        <time>2016-05-08T09:16:44Z</time>
      </trkpt>
      <trkpt lat="49.24227" lon="1.40247">
        <ele>-63.23</ele>
        <time>2016-05-08T09:16:50Z</time>
      </trkpt>
      <trkpt lat="49.24233" lon="1.4018">
        <ele>-63.98</ele>
        <time>2016-05-08T09:16:57Z</time>
      </trkpt>
      <trkpt lat="49.24203" lon="1.40074">
        <ele>-64.46</ele>
        <time>2016-05-08T09:17:08Z</time>
      </trkpt>
      <trkpt lat="49.24194" lon="1.40052">
        <ele>-64.32</ele>
        <time>2016-05-08T09:17:11Z</time>
      </trkpt>
      <trkpt lat="49.24178" lon="1.40028">
        <ele>-63.8</ele>
        <time>2016-05-08T09:17:15Z</time>
      </trkpt>
      <trkpt lat="49.24161" lon="1.39994">
        <ele>-64.97</ele>
        <time>2016-05-08T09:17:22Z</time>
      </trkpt>
      <trkpt lat="49.24164" lon="1.39989">
        <ele>-64.63</ele>
        <time>2016-05-08T09:17:27Z</time>
      </trkpt>
      <trkpt lat="49.24161" lon="1.39978">
        <ele>-64.54</ele>
        <time>2016-05-08T09:17:33Z</time>
      </trkpt>
      <trkpt lat="49.2415" lon="1.39943">
        <ele>-65.28</ele>
        <time>2016-05-08T09:17:41Z</time>
      </trkpt>
      <trkpt lat="49.24168" lon="1.3992">
        <ele>-65.17</ele>
        <time>2016-05-08T09:17:46Z</time>
      </trkpt>
      <trkpt lat="49.24227" lon="1.39873">
        <ele>-65.34</ele>
        <time>2016-05-08T09:17:59Z</time>
      </trkpt>
      <trkpt lat="49.24249" lon="1.39855">
        <ele>-65.18</ele>
        <time>2016-05-08T09:18:04Z</time>
      </trkpt>
      <trkpt lat="49.24261" lon="1.39843">
        <ele>-65.3</ele>
        <time>2016-05-08T09:18:07Z</time>
      </trkpt>
      <trkpt lat="49.24294" lon="1.39826">
        <ele>-65.08</ele>
        <time>2016-05-08T09:18:14Z</time>
      </trkpt>
      <trkpt lat="49.24366" lon="1.3979">
        <ele>-64.64</ele>
        <time>2016-05-08T09:18:29Z</time>
      </trkpt>
      <trkpt lat="49.2437" lon="1.39788">
        <ele>-64.58</ele>
        <time>2016-05-08T09:18:30Z</time>
      </trkpt>
      <trkpt lat="49.24392" lon="1.39779">
        <ele>-64.11</ele>
        <time>2016-05-08T09:18:35Z</time>
      </trkpt>
      <trkpt lat="49.24413" lon="1.39758">
        <ele>-63.8</ele>
        <time>2016-05-08T09:18:40Z</time>
      </trkpt>
      <trkpt lat="49.24463" lon="1.39672">
        <ele>-64.75</ele>
        <time>2016-05-08T09:18:54Z</time>
      </trkpt>
      <trkpt lat="49.24501" lon="1.39607">
        <ele>-64.43</ele>
        <time>2016-05-08T09:19:04Z</time>
      </trkpt>
      <trkpt lat="49.24517" lon="1.39594">
        <ele>-64.08</ele>
        <time>2016-05-08T09:19:08Z</time>
      </trkpt>
      <trkpt lat="49.24537" lon="1.39582">
        <ele>-64.33</ele>
        <time>2016-05-08T09:19:14Z</time>
      </trkpt>
      <trkpt lat="49.24545" lon="1.3957">
        <ele>-64.06</ele>
        <time>2016-05-08T09:19:17Z</time>
      </trkpt>
      <trkpt lat="49.24558" lon="1.39578">
        <ele>-63.26</ele>
        <time>2016-05-08T09:19:21Z</time>
      </trkpt>
      <trkpt lat="49.24595" lon="1.39636">
        <ele>-60.56</ele>
        <time>2016-05-08T09:19:34Z</time>
      </trkpt>
      <trkpt lat="49.2458" lon="1.39675">
        <ele>-60.14</ele>
        <time>2016-05-08T09:19:41Z</time>
      </trkpt>
      <trkpt lat="49.24573" lon="1.397">
        <ele>-59.87</ele>
        <time>2016-05-08T09:19:44Z</time>
      </trkpt>
      <trkpt lat="49.24571" lon="1.39735">
        <ele>-59.08</ele>
        <time>2016-05-08T09:19:48Z</time>
      </trkpt>
      <trkpt lat="49.24578" lon="1.39773">
        <ele>-59.01</ele>
        <time>2016-05-08T09:19:53Z</time>
      </trkpt>
      <trkpt lat="49.24595" lon="1.39861">
        <ele>-60.47</ele>
        <time>2016-05-08T09:20:03Z</time>
      </trkpt>
      <trkpt lat="49.24603" lon="1.39904">
        <ele>-60.53</ele>
        <time>2016-05-08T09:20:08Z</time>
      </trkpt>
      <trkpt lat="49.24607" lon="1.39928">
        <ele>-60.53</ele>
        <time>2016-05-08T09:20:12Z</time>
      </trkpt>
      <trkpt lat="49.24611" lon="1.3994">
        <ele>-58.37</ele>
        <time>2016-05-08T09:20:21Z</time>
      </trkpt>
      <trkpt lat="49.24613" lon="1.3997">
        <ele>-58.59</ele>
        <time>2016-05-08T09:20:36Z</time>
      </trkpt>
      <trkpt lat="49.24617" lon="1.40019">
        <ele>-56.43</ele>
        <time>2016-05-08T09:20:52Z</time>
      </trkpt>
      <trkpt lat="49.2462" lon="1.40082">
        <ele>-53.27</ele>
        <time>2016-05-08T09:21:09Z</time>
      </trkpt>
      <trkpt lat="49.2463" lon="1.40121">
        <ele>-50.52</ele>
        <time>2016-05-08T09:21:22Z</time>
      </trkpt>
      <trkpt lat="49.24646" lon="1.40133">
        <ele>-47.06</ele>
        <time>2016-05-08T09:21:32Z</time>
      </trkpt>
      <trkpt lat="49.24658" lon="1.40136">
        <ele>-44.83</ele>
        <time>2016-05-08T09:21:39Z</time>
      </trkpt>
      <trkpt lat="49.24672" lon="1.40174">
        <ele>-41.87</ele>
        <time>2016-05-08T09:21:53Z</time>
      </trkpt>
      <trkpt lat="49.24687" lon="1.40221">
        <ele>-38.83</ele>
        <time>2016-05-08T09:22:08Z</time>
      </trkpt>
      <trkpt lat="49.24696" lon="1.4026">
        <ele>-35.81</ele>
        <time>2016-05-08T09:22:20Z</time>
      </trkpt>
      <trkpt lat="49.24715" lon="1.40289">
        <ele>-32.78</ele>
        <time>2016-05-08T09:22:33Z</time>
      </trkpt>
      <trkpt lat="49.24739" lon="1.40308">
        <ele>-29.52</ele>
        <time>2016-05-08T09:22:47Z</time>
      </trkpt>
      <trkpt lat="49.24759" lon="1.40331">
        <ele>-26.5</ele>
        <time>2016-05-08T09:23:00Z</time>
      </trkpt>
      <trkpt lat="49.24772" lon="1.40345">
        <ele>-23.4</ele>
        <time>2016-05-08T09:23:08Z</time>
      </trkpt>
      <trkpt lat="49.24788" lon="1.40363">
        <ele>-20.29</ele>
        <time>2016-05-08T09:23:19Z</time>
      </trkpt>
      <trkpt lat="49.24801" lon="1.40384">
        <ele>-17.08</ele>
        <time>2016-05-08T09:23:30Z</time>
      </trkpt>
      <trkpt lat="49.24814" lon="1.4039">
        <ele>-14.07</ele>
        <time>2016-05-08T09:23:41Z</time>
      </trkpt>
      <trkpt lat="49.24816" lon="1.40392">
        <ele>-13.35</ele>
        <time>2016-05-08T09:23:43Z</time>
      </trkpt>
      <trkpt lat="49.24825" lon="1.40414">
        <ele>-9.94</ele>
        <time>2016-05-08T09:23:54Z</time>
      </trkpt>
      <trkpt lat="49.24827" lon="1.40421">
        <ele>-8.74</ele>
        <time>2016-05-08T09:23:57Z</time>
      </trkpt>
      <trkpt lat="49.24834" lon="1.40429">
        <ele>-6.98</ele>
        <time>2016-05-08T09:24:04Z</time>
      </trkpt>
      <trkpt lat="49.2485" lon="1.40416">
        <ele>-3.69</ele>
        <time>2016-05-08T09:24:15Z</time>
      </trkpt>
      <trkpt lat="49.24867" lon="1.40406">
        <ele>-0.57</ele>
        <time>2016-05-08T09:24:26Z</time>
      </trkpt>
      <trkpt lat="49.2488" lon="1.40391">
        <ele>2.47</ele>
        <time>2016-05-08T09:24:36Z</time>
      </trkpt>
      <trkpt lat="49.24887" lon="1.40382">
        <ele>5.48</ele>
        <time>2016-05-08T09:24:45Z</time>
      </trkpt>
      <trkpt lat="49.24888" lon="1.4038">
        <ele>5.66</ele>
        <time>2016-05-08T09:24:46Z</time>
      </trkpt>
      <trkpt lat="49.24891" lon="1.4037">
        <ele>7.31</ele>
        <time>2016-05-08T09:24:53Z</time>
      </trkpt>
      <trkpt lat="49.24893" lon="1.40367">
        <ele>7.83</ele>
        <time>2016-05-08T09:24:55Z</time>
      </trkpt>
      <trkpt lat="49.24906" lon="1.40346">
        <ele>11.07</ele>
        <time>2016-05-08T09:25:09Z</time>
      </trkpt>
      <trkpt lat="49.24913" lon="1.40331">
        <ele>14.38</ele>
        <time>2016-05-08T09:25:17Z</time>
      </trkpt>
      <trkpt lat="49.24928" lon="1.40299">
        <ele>16.18</ele>
        <time>2016-05-08T09:25:29Z</time>
      </trkpt>
      <trkpt lat="49.24931" lon="1.40289">
        <ele>17.82</ele>
        <time>2016-05-08T09:25:34Z</time>
      </trkpt>
      <trkpt lat="49.24938" lon="1.40256">
        <ele>20.57</ele>
        <time>2016-05-08T09:25:48Z</time>
      </trkpt>
      <trkpt lat="49.24941" lon="1.40213">
        <ele>23.74</ele>
        <time>2016-05-08T09:26:02Z</time>
      </trkpt>
      <trkpt lat="49.24945" lon="1.40174">
        <ele>26.75</ele>
        <time>2016-05-08T09:26:16Z</time>
      </trkpt>
      <trkpt lat="49.24952" lon="1.40147">
        <ele>29.88</ele>
        <time>2016-05-08T09:26:28Z</time>
      </trkpt>
      <trkpt lat="49.24964" lon="1.40116">
        <ele>32.64</ele>
        <time>2016-05-08T09:26:42Z</time>
      </trkpt>
      <trkpt lat="49.24973" lon="1.4009">
        <ele>35.68</ele>
        <time>2016-05-08T09:26:53Z</time>
      </trkpt>
      <trkpt lat="49.24987" lon="1.40066">
        <ele>38.85</ele>
        <time>2016-05-08T09:27:05Z</time>
      </trkpt>
      <trkpt lat="49.25002" lon="1.40037">
        <ele>42.02</ele>
        <time>2016-05-08T09:27:19Z</time>
      </trkpt>
      <trkpt lat="49.25014" lon="1.40005">
        <ele>44.81</ele>
        <time>2016-05-08T09:27:33Z</time>
      </trkpt>
      <trkpt lat="49.25025" lon="1.39971">
        <ele>47.86</ele>
        <time>2016-05-08T09:27:47Z</time>
      </trkpt>
      <trkpt lat="49.25042" lon="1.39947">
        <ele>50.95</ele>
        <time>2016-05-08T09:27:59Z</time>
      </trkpt>
      <trkpt lat="49.25054" lon="1.39925">
        <ele>54.3</ele>
        <time>2016-05-08T09:28:10Z</time>
      </trkpt>
      <trkpt lat="49.25058" lon="1.39903">
        <ele>56.95</ele>
        <time>2016-05-08T09:28:22Z</time>
      </trkpt>
      <trkpt lat="49.25057" lon="1.39902">
        <ele>57.11</ele>
        <time>2016-05-08T09:28:37Z</time>
      </trkpt>
      <trkpt lat="49.25058" lon="1.39905">
        <ele>56.75</ele>
        <time>2016-05-08T09:29:10Z</time>
      </trkpt>
      <trkpt lat="49.25058" lon="1.39903">
        <ele>57.95</ele>
        <time>2016-05-08T09:29:34Z</time>
      </trkpt>
      <trkpt lat="49.25058" lon="1.39903">
        <ele>56.67</ele>
        <time>2016-05-08T09:30:04Z</time>
      </trkpt>
      <trkpt lat="49.25058" lon="1.39902">
        <ele>57.29</ele>
        <time>2016-05-08T09:30:34Z</time>
      </trkpt>
      <trkpt lat="49.25058" lon="1.39903">
        <ele>57.53</ele>
        <time>2016-05-08T09:31:08Z</time>
      </trkpt>
      <trkpt lat="49.25055" lon="1.39903">
        <ele>57.03</ele>
        <time>2016-05-08T09:31:31Z</time>
      </trkpt>
      <trkpt lat="49.25049" lon="1.39896">
        <ele>56.91</ele>
        <time>2016-05-08T09:31:36Z</time>
      </trkpt>
      <trkpt lat="49.25032" lon="1.3982">
        <ele>58.91</ele>
        <time>2016-05-08T09:31:53Z</time>
      </trkpt>
      <trkpt lat="49.25011" lon="1.39736">
        <ele>60.71</ele>
        <time>2016-05-08T09:32:09Z</time>
      </trkpt>
      <trkpt lat="49.2501" lon="1.39731">
        <ele>60.81</ele>
        <time>2016-05-08T09:32:10Z</time>
      </trkpt>
      <trkpt lat="49.24992" lon="1.39631">
        <ele>61.5</ele>
        <time>2016-05-08T09:32:26Z</time>
      </trkpt>
      <trkpt lat="49.24987" lon="1.39599">
        <ele>61.29</ele>
        <time>2016-05-08T09:32:31Z</time>
      </trkpt>
      <trkpt lat="49.2497" lon="1.39506">
        <ele>61.5</ele>
        <time>2016-05-08T09:32:45Z</time>
      </trkpt>
      <trkpt lat="49.24963" lon="1.39453">
        <ele>62.56</ele>
        <time>2016-05-08T09:32:54Z</time>
      </trkpt>
      <trkpt lat="49.24948" lon="1.39386">
        <ele>61.43</ele>
        <time>2016-05-08T09:33:07Z</time>
      </trkpt>
      <trkpt lat="49.24943" lon="1.39373">
        <ele>60.99</ele>
        <time>2016-05-08T09:33:10Z</time>
      </trkpt>
      <trkpt lat="49.24934" lon="1.39359">
        <ele>58.84</ele>
        <time>2016-05-08T09:33:15Z</time>
      </trkpt>
      <trkpt lat="49.2493" lon="1.39334">
        <ele>55.5</ele>
        <time>2016-05-08T09:33:22Z</time>
      </trkpt>
      <trkpt lat="49.24928" lon="1.39313">
        <ele>52.25</ele>
        <time>2016-05-08T09:33:26Z</time>
      </trkpt>
      <trkpt lat="49.24926" lon="1.39292">
        <ele>49</ele>
        <time>2016-05-08T09:33:30Z</time>
      </trkpt>
      <trkpt lat="49.24923" lon="1.39273">
        <ele>45.8</ele>
        <time>2016-05-08T09:33:33Z</time>
      </trkpt>
      <trkpt lat="49.24923" lon="1.39244">
        <ele>42.63</ele>
        <time>2016-05-08T09:33:38Z</time>
      </trkpt>
      <trkpt lat="49.24922" lon="1.39209">
        <ele>42.46</ele>
        <time>2016-05-08T09:33:47Z</time>
      </trkpt>
      <trkpt lat="49.24927" lon="1.39181">
        <ele>39.45</ele>
        <time>2016-05-08T09:33:54Z</time>
      </trkpt>
      <trkpt lat="49.24925" lon="1.39168">
        <ele>38.03</ele>
        <time>2016-05-08T09:33:57Z</time>
      </trkpt>
      <trkpt lat="49.24923" lon="1.39133">
        <ele>35.65</ele>
        <time>2016-05-08T09:34:06Z</time>
      </trkpt>
      <trkpt lat="49.24918" lon="1.39117">
        <ele>32.18</ele>
        <time>2016-05-08T09:34:10Z</time>
      </trkpt>
      <trkpt lat="49.24918" lon="1.39102">
        <ele>28.65</ele>
        <time>2016-05-08T09:34:14Z</time>
      </trkpt>
      <trkpt lat="49.2492" lon="1.39094">
        <ele>26.99</ele>
        <time>2016-05-08T09:34:18Z</time>
      </trkpt>
      <trkpt lat="49.24921" lon="1.39083">
        <ele>23.69</ele>
        <time>2016-05-08T09:34:30Z</time>
      </trkpt>
      <trkpt lat="49.24921" lon="1.39074">
        <ele>20.23</ele>
        <time>2016-05-08T09:34:35Z</time>
      </trkpt>
      <trkpt lat="49.24922" lon="1.39067">
        <ele>16.74</ele>
        <time>2016-05-08T09:34:40Z</time>
      </trkpt>
      <trkpt lat="49.24928" lon="1.39065">
        <ele>13.68</ele>
        <time>2016-05-08T09:34:58Z</time>
      </trkpt>
      <trkpt lat="49.24933" lon="1.39066">
        <ele>10.43</ele>
        <time>2016-05-08T09:35:13Z</time>
      </trkpt>
      <trkpt lat="49.2494" lon="1.39069">
        <ele>8.79</ele>
        <time>2016-05-08T09:35:32Z</time>
      </trkpt>
      <trkpt lat="49.24963" lon="1.39079">
        <ele>5.03</ele>
        <time>2016-05-08T09:35:43Z</time>
      </trkpt>
      <trkpt lat="49.24974" lon="1.39084">
        <ele>1.43</ele>
        <time>2016-05-08T09:35:50Z</time>
      </trkpt>
      <trkpt lat="49.24983" lon="1.39086">
        <ele>-2.45</ele>
        <time>2016-05-08T09:35:55Z</time>
      </trkpt>
      <trkpt lat="49.24987" lon="1.39091">
        <ele>-5.45</ele>
        <time>2016-05-08T09:35:59Z</time>
      </trkpt>
      <trkpt lat="49.24993" lon="1.39094">
        <ele>-8.35</ele>
        <time>2016-05-08T09:36:05Z</time>
      </trkpt>
      <trkpt lat="49.24994" lon="1.39092">
        <ele>-8.97</ele>
        <time>2016-05-08T09:36:08Z</time>
      </trkpt>
      <trkpt lat="49.24994" lon="1.39076">
        <ele>-12.27</ele>
        <time>2016-05-08T09:36:16Z</time>
      </trkpt>
      <trkpt lat="49.25" lon="1.39069">
        <ele>-16.02</ele>
        <time>2016-05-08T09:36:27Z</time>
      </trkpt>
      <trkpt lat="49.25007" lon="1.39065">
        <ele>-19.4</ele>
        <time>2016-05-08T09:36:33Z</time>
      </trkpt>
      <trkpt lat="49.25013" lon="1.39059">
        <ele>-23.1</ele>
        <time>2016-05-08T09:36:40Z</time>
      </trkpt>
      <trkpt lat="49.2502" lon="1.39055">
        <ele>-26.57</ele>
        <time>2016-05-08T09:36:50Z</time>
      </trkpt>
      <trkpt lat="49.25021" lon="1.39055">
        <ele>-26.75</ele>
        <time>2016-05-08T09:36:51Z</time>
      </trkpt>
      <trkpt lat="49.25024" lon="1.39051">
        <ele>-27.61</ele>
        <time>2016-05-08T09:36:56Z</time>
      </trkpt>
      <trkpt lat="49.25028" lon="1.3904">
        <ele>-25.18</ele>
        <time>2016-05-08T09:37:17Z</time>
      </trkpt>
      <trkpt lat="49.25031" lon="1.39039">
        <ele>-22.12</ele>
        <time>2016-05-08T09:37:31Z</time>
      </trkpt>
      <trkpt lat="49.2504" lon="1.39029">
        <ele>-18.95</ele>
        <time>2016-05-08T09:37:50Z</time>
      </trkpt>
      <trkpt lat="49.25047" lon="1.39023">
        <ele>-15.76</ele>
        <time>2016-05-08T09:38:05Z</time>
      </trkpt>
      <trkpt lat="49.25057" lon="1.39016">
        <ele>-12.65</ele>
        <time>2016-05-08T09:38:20Z</time>
      </trkpt>
      <trkpt lat="49.2506" lon="1.39009">
        <ele>-9.63</ele>
        <time>2016-05-08T09:38:31Z</time>
      </trkpt>
      <trkpt lat="49.25057" lon="1.38995">
        <ele>-7.83</ele>
        <time>2016-05-08T09:38:54Z</time>
      </trkpt>
      <trkpt lat="49.2506" lon="1.38987">
        <ele>-6.37</ele>
        <time>2016-05-08T09:39:14Z</time>
      </trkpt>
      <trkpt lat="49.25061" lon="1.38985">
        <ele>-6.71</ele>
        <time>2016-05-08T09:39:16Z</time>
      </trkpt>
      <trkpt lat="49.25072" lon="1.38952">
        <ele>-9.33</ele>
        <time>2016-05-08T09:39:28Z</time>
      </trkpt>
      <trkpt lat="49.25075" lon="1.38938">
        <ele>-7.63</ele>
        <time>2016-05-08T09:39:40Z</time>
      </trkpt>
      <trkpt lat="49.25076" lon="1.38937">
        <ele>-7.38</ele>
        <time>2016-05-08T09:39:41Z</time>
      </trkpt>
      <trkpt lat="49.25079" lon="1.38927">
        <ele>-5.36</ele>
        <time>2016-05-08T09:39:55Z</time>
      </trkpt>
      <trkpt lat="49.2508" lon="1.38917">
        <ele>-2.1</ele>
        <time>2016-05-08T09:40:08Z</time>
      </trkpt>
      <trkpt lat="49.25078" lon="1.38914">
        <ele>0.35</ele>
        <time>2016-05-08T09:40:20Z</time>
      </trkpt>
      <trkpt lat="49.2507" lon="1.38904">
        <ele>3.27</ele>
        <time>2016-05-08T09:40:35Z</time>
      </trkpt>
      <trkpt lat="49.25076" lon="1.38888">
        <ele>4.56</ele>
        <time>2016-05-08T09:40:50Z</time>
      </trkpt>
      <trkpt lat="49.25078" lon="1.38883">
        <ele>4.14</ele>
        <time>2016-05-08T09:40:52Z</time>
      </trkpt>
      <trkpt lat="49.2508" lon="1.38869">
        <ele>2.06</ele>
        <time>2016-05-08T09:40:57Z</time>
      </trkpt>
      <trkpt lat="49.25085" lon="1.38855">
        <ele>-0.32</ele>
        <time>2016-05-08T09:41:02Z</time>
      </trkpt>
      <trkpt lat="49.25085" lon="1.38843">
        <ele>-1.68</ele>
        <time>2016-05-08T09:41:06Z</time>
      </trkpt>
      <trkpt lat="49.25085" lon="1.38817">
        <ele>1.09</ele>
        <time>2016-05-08T09:41:20Z</time>
      </trkpt>
      <trkpt lat="49.25086" lon="1.38812">
        <ele>2.39</ele>
        <time>2016-05-08T09:41:23Z</time>
      </trkpt>
      <trkpt lat="49.25086" lon="1.38811">
        <ele>2.54</ele>
        <time>2016-05-08T09:41:25Z</time>
      </trkpt>
      <trkpt lat="49.25091" lon="1.388">
        <ele>5.91</ele>
        <time>2016-05-08T09:41:36Z</time>
      </trkpt>
      <trkpt lat="49.25092" lon="1.38787">
        <ele>8.92</ele>
        <time>2016-05-08T09:41:50Z</time>
      </trkpt>
      <trkpt lat="49.25093" lon="1.38777">
        <ele>11.93</ele>
        <time>2016-05-08T09:42:08Z</time>
      </trkpt>
      <trkpt lat="49.25092" lon="1.38767">
        <ele>14.96</ele>
        <time>2016-05-08T09:42:25Z</time>
      </trkpt>
      <trkpt lat="49.2509" lon="1.38759">
        <ele>18.11</ele>
        <time>2016-05-08T09:42:41Z</time>
      </trkpt>
      <trkpt lat="49.25087" lon="1.38749">
        <ele>21.29</ele>
        <time>2016-05-08T09:43:00Z</time>
      </trkpt>
      <trkpt lat="49.25084" lon="1.38744">
        <ele>22.18</ele>
        <time>2016-05-08T09:43:20Z</time>
      </trkpt>
      <trkpt lat="49.25069" lon="1.38751">
        <ele>19.22</ele>
        <time>2016-05-08T09:43:41Z</time>
      </trkpt>
      <trkpt lat="49.2507" lon="1.3875">
        <ele>20.73</ele>
        <time>2016-05-08T09:43:59Z</time>
      </trkpt>
      <trkpt lat="49.25069" lon="1.38749">
        <ele>20.02</ele>
        <time>2016-05-08T09:44:26Z</time>
      </trkpt>
      <trkpt lat="49.2507" lon="1.38748">
        <ele>20.09</ele>
        <time>2016-05-08T09:44:52Z</time>
      </trkpt>
      <trkpt lat="49.25071" lon="1.38748">
        <ele>19.21</ele>
        <time>2016-05-08T09:45:19Z</time>
      </trkpt>
      <trkpt lat="49.25071" lon="1.3875">
        <ele>19.63</ele>
        <time>2016-05-08T09:45:50Z</time>
      </trkpt>
      <trkpt lat="49.25071" lon="1.38748">
        <ele>20.01</ele>
        <time>2016-05-08T09:46:23Z</time>
      </trkpt>
      <trkpt lat="49.2507" lon="1.38749">
        <ele>19.37</ele>
        <time>2016-05-08T09:46:51Z</time>
      </trkpt>
      <trkpt lat="49.2507" lon="1.3875">
        <ele>19.78</ele>
        <time>2016-05-08T09:47:38Z</time>
      </trkpt>
      <trkpt lat="49.25075" lon="1.38748">
        <ele>20.84</ele>
        <time>2016-05-08T09:48:50Z</time>
      </trkpt>
      <trkpt lat="49.25083" lon="1.38747">
        <ele>23.53</ele>
        <time>2016-05-08T09:49:36Z</time>
      </trkpt>
      <trkpt lat="49.25093" lon="1.38739">
        <ele>22.32</ele>
        <time>2016-05-08T09:50:11Z</time>
      </trkpt>
      <trkpt lat="49.25114" lon="1.38759">
        <ele>25.3</ele>
        <time>2016-05-08T09:50:35Z</time>
      </trkpt>
      <trkpt lat="49.2514" lon="1.38777">
        <ele>28.1</ele>
        <time>2016-05-08T09:50:53Z</time>
      </trkpt>
      <trkpt lat="49.25159" lon="1.38783">
        <ele>30.09</ele>
        <time>2016-05-08T09:51:06Z</time>
      </trkpt>
      <trkpt lat="49.2517" lon="1.38804">
        <ele>31.78</ele>
        <time>2016-05-08T09:51:18Z</time>
      </trkpt>
      <trkpt lat="49.25185" lon="1.3883">
        <ele>35.17</ele>
        <time>2016-05-08T09:51:31Z</time>
      </trkpt>
      <trkpt lat="49.25192" lon="1.38849">
        <ele>38.22</ele>
        <time>2016-05-08T09:51:40Z</time>
      </trkpt>
      <trkpt lat="49.25197" lon="1.38855">
        <ele>40.88</ele>
        <time>2016-05-08T09:51:48Z</time>
      </trkpt>
      <trkpt lat="49.25201" lon="1.38872">
        <ele>44.03</ele>
        <time>2016-05-08T09:52:03Z</time>
      </trkpt>
      <trkpt lat="49.25209" lon="1.38867">
        <ele>47.25</ele>
        <time>2016-05-08T09:52:16Z</time>
      </trkpt>
      <trkpt lat="49.25216" lon="1.38861">
        <ele>50.31</ele>
        <time>2016-05-08T09:52:30Z</time>
      </trkpt>
      <trkpt lat="49.25223" lon="1.38852">
        <ele>53.43</ele>
        <time>2016-05-08T09:52:49Z</time>
      </trkpt>
      <trkpt lat="49.25229" lon="1.38848">
        <ele>54.93</ele>
        <time>2016-05-08T09:52:58Z</time>
      </trkpt>
      <trkpt lat="49.25243" lon="1.38836">
        <ele>58.49</ele>
        <time>2016-05-08T09:53:10Z</time>
      </trkpt>
      <trkpt lat="49.25247" lon="1.38837">
        <ele>59.86</ele>
        <time>2016-05-08T09:53:13Z</time>
      </trkpt>
      <trkpt lat="49.25267" lon="1.38831">
        <ele>60.29</ele>
        <time>2016-05-08T09:53:25Z</time>
      </trkpt>
      <trkpt lat="49.25292" lon="1.38797">
        <ele>59.36</ele>
        <time>2016-05-08T09:53:37Z</time>
      </trkpt>
      <trkpt lat="49.25301" lon="1.3875">
        <ele>55.95</ele>
        <time>2016-05-08T09:53:46Z</time>
      </trkpt>
      <trkpt lat="49.25313" lon="1.3871">
        <ele>54.68</ele>
        <time>2016-05-08T09:53:55Z</time>
      </trkpt>
      <trkpt lat="49.25309" lon="1.38686">
        <ele>49.71</ele>
        <time>2016-05-08T09:54:00Z</time>
      </trkpt>
      <trkpt lat="49.25308" lon="1.38674">
        <ele>45.97</ele>
        <time>2016-05-08T09:54:02Z</time>
      </trkpt>
      <trkpt lat="49.25302" lon="1.38652">
        <ele>41.78</ele>
        <time>2016-05-08T09:54:05Z</time>
      </trkpt>
      <trkpt lat="49.25286" lon="1.38617">
        <ele>37.16</ele>
        <time>2016-05-08T09:54:10Z</time>
      </trkpt>
      <trkpt lat="49.2528" lon="1.38596">
        <ele>33.99</ele>
        <time>2016-05-08T09:54:17Z</time>
      </trkpt>
      <trkpt lat="49.25281" lon="1.38593">
        <ele>33.76</ele>
        <time>2016-05-08T09:54:18Z</time>
      </trkpt>
      <trkpt lat="49.25279" lon="1.3858">
        <ele>32.06</ele>
        <time>2016-05-08T09:54:23Z</time>
      </trkpt>
      <trkpt lat="49.25278" lon="1.38532">
        <ele>29.9</ele>
        <time>2016-05-08T09:54:35Z</time>
      </trkpt>
      <trkpt lat="49.25279" lon="1.38526">
        <ele>29.89</ele>
        <time>2016-05-08T09:54:36Z</time>
      </trkpt>
      <trkpt lat="49.25276" lon="1.38465">
        <ele>29.48</ele>
        <time>2016-05-08T09:54:46Z</time>
      </trkpt>
      <trkpt lat="49.25274" lon="1.38445">
        <ele>30.38</ele>
        <time>2016-05-08T09:54:51Z</time>
      </trkpt>
      <trkpt lat="49.25282" lon="1.38421">
        <ele>30.72</ele>
        <time>2016-05-08T09:54:57Z</time>
      </trkpt>
      <trkpt lat="49.25285" lon="1.38369">
        <ele>31.46</ele>
        <time>2016-05-08T09:55:09Z</time>
      </trkpt>
      <trkpt lat="49.2529" lon="1.38352">
        <ele>33.44</ele>
        <time>2016-05-08T09:55:14Z</time>
      </trkpt>
      <trkpt lat="49.25287" lon="1.38322">
        <ele>34.64</ele>
        <time>2016-05-08T09:55:24Z</time>
      </trkpt>
      <trkpt lat="49.25308" lon="1.38293">
        <ele>31.06</ele>
        <time>2016-05-08T09:55:32Z</time>
      </trkpt>
      <trkpt lat="49.25315" lon="1.38278">
        <ele>27.7</ele>
        <time>2016-05-08T09:55:37Z</time>
      </trkpt>
      <trkpt lat="49.2531" lon="1.38264">
        <ele>23.45</ele>
        <time>2016-05-08T09:55:43Z</time>
      </trkpt>
      <trkpt lat="49.2531" lon="1.38252">
        <ele>20.3</ele>
        <time>2016-05-08T09:55:47Z</time>
      </trkpt>
      <trkpt lat="49.25313" lon="1.38239">
        <ele>16.76</ele>
        <time>2016-05-08T09:55:51Z</time>
      </trkpt>
      <trkpt lat="49.25315" lon="1.38225">
        <ele>13.27</ele>
        <time>2016-05-08T09:55:56Z</time>
      </trkpt>
      <trkpt lat="49.25313" lon="1.38213">
        <ele>9.96</ele>
        <time>2016-05-08T09:56:02Z</time>
      </trkpt>
      <trkpt lat="49.25313" lon="1.38204">
        <ele>6.71</ele>
        <time>2016-05-08T09:56:07Z</time>
      </trkpt>
      <trkpt lat="49.25314" lon="1.38203">
        <ele>6.45</ele>
        <time>2016-05-08T09:56:08Z</time>
      </trkpt>
      <trkpt lat="49.25315" lon="1.38192">
        <ele>3.83</ele>
        <time>2016-05-08T09:56:13Z</time>
      </trkpt>
      <trkpt lat="49.2531" lon="1.38187">
        <ele>-0.25</ele>
        <time>2016-05-08T09:56:20Z</time>
      </trkpt>
      <trkpt lat="49.25311" lon="1.38181">
        <ele>-3.3</ele>
        <time>2016-05-08T09:56:27Z</time>
      </trkpt>
      <trkpt lat="49.25313" lon="1.38166">
        <ele>-6.79</ele>
        <time>2016-05-08T09:56:45Z</time>
      </trkpt>
      <trkpt lat="49.25313" lon="1.38166">
        <ele>-7.07</ele>
        <time>2016-05-08T09:56:46Z</time>
      </trkpt>
      <trkpt lat="49.25311" lon="1.38155">
        <ele>-10.25</ele>
        <time>2016-05-08T09:56:56Z</time>
      </trkpt>
      <trkpt lat="49.25311" lon="1.38148">
        <ele>-12.39</ele>
        <time>2016-05-08T09:57:02Z</time>
      </trkpt>
      <trkpt lat="49.2532" lon="1.38124">
        <ele>-15.63</ele>
        <time>2016-05-08T09:57:09Z</time>
      </trkpt>
      <trkpt lat="49.2534" lon="1.38111">
        <ele>-15.31</ele>
        <time>2016-05-08T09:57:20Z</time>
      </trkpt>
      <trkpt lat="49.25345" lon="1.38109">
        <ele>-16.66</ele>
        <time>2016-05-08T09:57:22Z</time>
      </trkpt>
      <trkpt lat="49.25349" lon="1.38112">
        <ele>-16.13</ele>
        <time>2016-05-08T09:57:31Z</time>
      </trkpt>
      <trkpt lat="49.25353" lon="1.38113">
        <ele>-15.84</ele>
        <time>2016-05-08T09:57:47Z</time>
      </trkpt>
      <trkpt lat="49.25354" lon="1.38113">
        <ele>-17.37</ele>
        <time>2016-05-08T09:57:51Z</time>
      </trkpt>
      <trkpt lat="49.25353" lon="1.3811">
        <ele>-17.32</ele>
        <time>2016-05-08T09:58:17Z</time>
      </trkpt>
      <trkpt lat="49.25355" lon="1.38112">
        <ele>-17.32</ele>
        <time>2016-05-08T09:58:47Z</time>
      </trkpt>
      <trkpt lat="49.25356" lon="1.38109">
        <ele>-17.17</ele>
        <time>2016-05-08T09:59:23Z</time>
      </trkpt>
      <trkpt lat="49.25358" lon="1.38114">
        <ele>-16.97</ele>
        <time>2016-05-08T09:59:53Z</time>
      </trkpt>
      <trkpt lat="49.25354" lon="1.38116">
        <ele>-17.01</ele>
        <time>2016-05-08T10:00:23Z</time>
      </trkpt>
      <trkpt lat="49.25354" lon="1.38116">
        <ele>-16.9</ele>
        <time>2016-05-08T10:00:54Z</time>
      </trkpt>
      <trkpt lat="49.25354" lon="1.38114">
        <ele>-16.83</ele>
        <time>2016-05-08T10:01:24Z</time>
      </trkpt>
      <trkpt lat="49.25351" lon="1.38113">
        <ele>-16.68</ele>
        <time>2016-05-08T10:01:52Z</time>
      </trkpt>
      <trkpt lat="49.25353" lon="1.38114">
        <ele>-17.52</ele>
        <time>2016-05-08T10:02:18Z</time>
      </trkpt>
      <trkpt lat="49.25353" lon="1.38113">
        <ele>-17.55</ele>
        <time>2016-05-08T10:02:20Z</time>
      </trkpt>
      <trkpt lat="49.25371" lon="1.381">
        <ele>-19.25</ele>
        <time>2016-05-08T10:02:31Z</time>
      </trkpt>
      <trkpt lat="49.25375" lon="1.381">
        <ele>-19.4</ele>
        <time>2016-05-08T10:02:33Z</time>
      </trkpt>
      <trkpt lat="49.25389" lon="1.38102">
        <ele>-19.33</ele>
        <time>2016-05-08T10:02:39Z</time>
      </trkpt>
      <trkpt lat="49.25406" lon="1.38092">
        <ele>-22.79</ele>
        <time>2016-05-08T10:02:45Z</time>
      </trkpt>
      <trkpt lat="49.25419" lon="1.38076">
        <ele>-27.05</ele>
        <time>2016-05-08T10:02:50Z</time>
      </trkpt>
      <trkpt lat="49.25424" lon="1.38068">
        <ele>-30.05</ele>
        <time>2016-05-08T10:02:52Z</time>
      </trkpt>
      <trkpt lat="49.25429" lon="1.38065">
        <ele>-33.06</ele>
        <time>2016-05-08T10:02:55Z</time>
      </trkpt>
      <trkpt lat="49.2543" lon="1.38065">
        <ele>-33.25</ele>
        <time>2016-05-08T10:02:56Z</time>
      </trkpt>
      <trkpt lat="49.25432" lon="1.38066">
        <ele>-33.07</ele>
        <time>2016-05-08T10:02:59Z</time>
      </trkpt>
      <trkpt lat="49.25434" lon="1.38067">
        <ele>-33.09</ele>
        <time>2016-05-08T10:03:03Z</time>
      </trkpt>
      <trkpt lat="49.25443" lon="1.38064">
        <ele>-35.51</ele>
        <time>2016-05-08T10:03:07Z</time>
      </trkpt>
      <trkpt lat="49.2545" lon="1.38062">
        <ele>-37.21</ele>
        <time>2016-05-08T10:03:10Z</time>
      </trkpt>
      <trkpt lat="49.25467" lon="1.38062">
        <ele>-39.02</ele>
        <time>2016-05-08T10:03:22Z</time>
      </trkpt>
      <trkpt lat="49.25473" lon="1.38065">
        <ele>-39.17</ele>
        <time>2016-05-08T10:03:26Z</time>
      </trkpt>
      <trkpt lat="49.25509" lon="1.381">
        <ele>-36.18</ele>
        <time>2016-05-08T10:03:43Z</time>
      </trkpt>
      <trkpt lat="49.25542" lon="1.38117">
        <ele>-37.01</ele>
        <time>2016-05-08T10:03:54Z</time>
      </trkpt>
      <trkpt lat="49.25568" lon="1.38138">
        <ele>-39.6</ele>
        <time>2016-05-08T10:04:00Z</time>
      </trkpt>
      <trkpt lat="49.25595" lon="1.38164">
        <ele>-41.56</ele>
        <time>2016-05-08T10:04:05Z</time>
      </trkpt>
      <trkpt lat="49.25618" lon="1.38175">
        <ele>-45.31</ele>
        <time>2016-05-08T10:04:10Z</time>
      </trkpt>
      <trkpt lat="49.25623" lon="1.38175">
        <ele>-46.26</ele>
        <time>2016-05-08T10:04:12Z</time>
      </trkpt>
      <trkpt lat="49.25624" lon="1.38169">
        <ele>-49.24</ele>
        <time>2016-05-08T10:04:16Z</time>
      </trkpt>
      <trkpt lat="49.25628" lon="1.38166">
        <ele>-51.51</ele>
        <time>2016-05-08T10:04:21Z</time>
      </trkpt>
      <trkpt lat="49.25636" lon="1.38161">
        <ele>-54.32</ele>
        <time>2016-05-08T10:04:25Z</time>
      </trkpt>
      <trkpt lat="49.25641" lon="1.38159">
        <ele>-57.42</ele>
        <time>2016-05-08T10:04:29Z</time>
      </trkpt>
      <trkpt lat="49.25648" lon="1.38167">
        <ele>-57.47</ele>
        <time>2016-05-08T10:04:34Z</time>
      </trkpt>
      <trkpt lat="49.25659" lon="1.38177">
        <ele>-57.32</ele>
        <time>2016-05-08T10:04:39Z</time>
      </trkpt>
      <trkpt lat="49.25672" lon="1.38193">
        <ele>-56.75</ele>
        <time>2016-05-08T10:04:47Z</time>
      </trkpt>
      <trkpt lat="49.2568" lon="1.38199">
        <ele>-57.4</ele>
        <time>2016-05-08T10:04:57Z</time>
      </trkpt>
      <trkpt lat="49.25686" lon="1.38204">
        <ele>-57.52</ele>
        <time>2016-05-08T10:05:18Z</time>
      </trkpt>
      <trkpt lat="49.25717" lon="1.38226">
        <ele>-56.42</ele>
        <time>2016-05-08T10:05:31Z</time>
      </trkpt>
      <trkpt lat="49.2574" lon="1.38239">
        <ele>-54.11</ele>
        <time>2016-05-08T10:05:44Z</time>
      </trkpt>
      <trkpt lat="49.25762" lon="1.38253">
        <ele>-50.99</ele>
        <time>2016-05-08T10:05:58Z</time>
      </trkpt>
      <trkpt lat="49.25784" lon="1.38282">
        <ele>-48.55</ele>
        <time>2016-05-08T10:06:11Z</time>
      </trkpt>
      <trkpt lat="49.25784" lon="1.38286">
        <ele>-48.23</ele>
        <time>2016-05-08T10:06:13Z</time>
      </trkpt>
      <trkpt lat="49.25767" lon="1.38324">
        <ele>-45.08</ele>
        <time>2016-05-08T10:06:30Z</time>
      </trkpt>
      <trkpt lat="49.25754" lon="1.3835">
        <ele>-42.94</ele>
        <time>2016-05-08T10:06:41Z</time>
      </trkpt>
      <trkpt lat="49.25731" lon="1.38382">
        <ele>-39.85</ele>
        <time>2016-05-08T10:06:56Z</time>
      </trkpt>
      <trkpt lat="49.25714" lon="1.38408">
        <ele>-37.23</ele>
        <time>2016-05-08T10:07:11Z</time>
      </trkpt>
      <trkpt lat="49.2571" lon="1.38418">
        <ele>-36.57</ele>
        <time>2016-05-08T10:07:16Z</time>
      </trkpt>
      <trkpt lat="49.25694" lon="1.38455">
        <ele>-33.35</ele>
        <time>2016-05-08T10:07:32Z</time>
      </trkpt>
      <trkpt lat="49.25677" lon="1.38495">
        <ele>-30.33</ele>
        <time>2016-05-08T10:07:46Z</time>
      </trkpt>
      <trkpt lat="49.25675" lon="1.38497">
        <ele>-30.04</ele>
        <time>2016-05-08T10:07:47Z</time>
      </trkpt>
      <trkpt lat="49.25665" lon="1.38532">
        <ele>-27.37</ele>
        <time>2016-05-08T10:08:02Z</time>
      </trkpt>
      <trkpt lat="49.25665" lon="1.38534">
        <ele>-27.05</ele>
        <time>2016-05-08T10:08:03Z</time>
      </trkpt>
      <trkpt lat="49.25665" lon="1.38563">
        <ele>-24.68</ele>
        <time>2016-05-08T10:08:13Z</time>
      </trkpt>
      <trkpt lat="49.25661" lon="1.38601">
        <ele>-21.95</ele>
        <time>2016-05-08T10:08:25Z</time>
      </trkpt>
      <trkpt lat="49.25665" lon="1.38627">
        <ele>-20.26</ele>
        <time>2016-05-08T10:08:34Z</time>
      </trkpt>
      <trkpt lat="49.25671" lon="1.38667">
        <ele>-18.14</ele>
        <time>2016-05-08T10:08:48Z</time>
      </trkpt>
      <trkpt lat="49.25671" lon="1.38685">
        <ele>-17.22</ele>
        <time>2016-05-08T10:08:54Z</time>
      </trkpt>
      <trkpt lat="49.25665" lon="1.3871">
        <ele>-15.62</ele>
        <time>2016-05-08T10:09:02Z</time>
      </trkpt>
      <trkpt lat="49.25665" lon="1.3875">
        <ele>-12.35</ele>
        <time>2016-05-08T10:09:16Z</time>
      </trkpt>
      <trkpt lat="49.25655" lon="1.38784">
        <ele>-9.21</ele>
        <time>2016-05-08T10:09:30Z</time>
      </trkpt>
      <trkpt lat="49.25648" lon="1.38808">
        <ele>-6.53</ele>
        <time>2016-05-08T10:09:42Z</time>
      </trkpt>
      <trkpt lat="49.2564" lon="1.38835">
        <ele>-3.43</ele>
        <time>2016-05-08T10:09:55Z</time>
      </trkpt>
      <trkpt lat="49.25644" lon="1.38839">
        <ele>-2.24</ele>
        <time>2016-05-08T10:09:59Z</time>
      </trkpt>
      <trkpt lat="49.25673" lon="1.38834">
        <ele>0.68</ele>
        <time>2016-05-08T10:10:13Z</time>
      </trkpt>
      <trkpt lat="49.25698" lon="1.38823">
        <ele>3.99</ele>
        <time>2016-05-08T10:10:26Z</time>
      </trkpt>
      <trkpt lat="49.25716" lon="1.3881">
        <ele>7.04</ele>
        <time>2016-05-08T10:10:41Z</time>
      </trkpt>
      <trkpt lat="49.2573" lon="1.38788">
        <ele>10.35</ele>
        <time>2016-05-08T10:10:54Z</time>
      </trkpt>
      <trkpt lat="49.25741" lon="1.38775">
        <ele>12.29</ele>
        <time>2016-05-08T10:11:01Z</time>
      </trkpt>
      <trkpt lat="49.25756" lon="1.38739">
        <ele>15.22</ele>
        <time>2016-05-08T10:11:16Z</time>
      </trkpt>
      <trkpt lat="49.25769" lon="1.38705">
        <ele>18.3</ele>
        <time>2016-05-08T10:11:30Z</time>
      </trkpt>
      <trkpt lat="49.25785" lon="1.3868">
        <ele>21.65</ele>
        <time>2016-05-08T10:11:45Z</time>
      </trkpt>
      <trkpt lat="49.25787" lon="1.38675">
        <ele>22.01</ele>
        <time>2016-05-08T10:11:58Z</time>
      </trkpt>
      <trkpt lat="49.25795" lon="1.38674">
        <ele>23.29</ele>
        <time>2016-05-08T10:12:10Z</time>
      </trkpt>
      <trkpt lat="49.25812" lon="1.38688">
        <ele>26.65</ele>
        <time>2016-05-08T10:12:23Z</time>
      </trkpt>
      <trkpt lat="49.25819" lon="1.38699">
        <ele>28.26</ele>
        <time>2016-05-08T10:12:30Z</time>
      </trkpt>
      <trkpt lat="49.25832" lon="1.38723">
        <ele>31.59</ele>
        <time>2016-05-08T10:12:44Z</time>
      </trkpt>
      <trkpt lat="49.25845" lon="1.3874">
        <ele>34.7</ele>
        <time>2016-05-08T10:12:57Z</time>
      </trkpt>
      <trkpt lat="49.25852" lon="1.38753">
        <ele>37.89</ele>
        <time>2016-05-08T10:13:07Z</time>
      </trkpt>
      <trkpt lat="49.25862" lon="1.3877">
        <ele>40.43</ele>
        <time>2016-05-08T10:13:19Z</time>
      </trkpt>
      <trkpt lat="49.25872" lon="1.38773">
        <ele>43.8</ele>
        <time>2016-05-08T10:13:30Z</time>
      </trkpt>
      <trkpt lat="49.25883" lon="1.38767">
        <ele>46.38</ele>
        <time>2016-05-08T10:13:43Z</time>
      </trkpt>
      <trkpt lat="49.25904" lon="1.38761">
        <ele>48.58</ele>
        <time>2016-05-08T10:14:00Z</time>
      </trkpt>
      <trkpt lat="49.25927" lon="1.38755">
        <ele>50.81</ele>
        <time>2016-05-08T10:14:15Z</time>
      </trkpt>
      <trkpt lat="49.25955" lon="1.38742">
        <ele>53.21</ele>
        <time>2016-05-08T10:14:29Z</time>
      </trkpt>
      <trkpt lat="49.25982" lon="1.38735">
        <ele>56.32</ele>
        <time>2016-05-08T10:14:44Z</time>
      </trkpt>
      <trkpt lat="49.2601" lon="1.38728">
        <ele>59.47</ele>
        <time>2016-05-08T10:15:00Z</time>
      </trkpt>
      <trkpt lat="49.26039" lon="1.38725">
        <ele>60.57</ele>
        <time>2016-05-08T10:15:16Z</time>
      </trkpt>
      <trkpt lat="49.26081" lon="1.38735">
        <ele>63.22</ele>
        <time>2016-05-08T10:15:30Z</time>
      </trkpt>
      <trkpt lat="49.26114" lon="1.38755">
        <ele>63.28</ele>
        <time>2016-05-08T10:15:45Z</time>
      </trkpt>
      <trkpt lat="49.26129" lon="1.38761">
        <ele>63.32</ele>
        <time>2016-05-08T10:16:13Z</time>
      </trkpt>
      <trkpt lat="49.26131" lon="1.38769">
        <ele>64.14</ele>
        <time>2016-05-08T10:16:43Z</time>
      </trkpt>
      <trkpt lat="49.26134" lon="1.38771">
        <ele>63.19</ele>
        <time>2016-05-08T10:17:15Z</time>
      </trkpt>
      <trkpt lat="49.26165" lon="1.38792">
        <ele>64.14</ele>
        <time>2016-05-08T10:17:24Z</time>
      </trkpt>
      <trkpt lat="49.26206" lon="1.38814">
        <ele>62.39</ele>
        <time>2016-05-08T10:17:33Z</time>
      </trkpt>
      <trkpt lat="49.26245" lon="1.38818">
        <ele>61.76</ele>
        <time>2016-05-08T10:17:41Z</time>
      </trkpt>
      <trkpt lat="49.26274" lon="1.38838">
        <ele>60.61</ele>
        <time>2016-05-08T10:17:47Z</time>
      </trkpt>
      <trkpt lat="49.26344" lon="1.38946">
        <ele>60.06</ele>
        <time>2016-05-08T10:18:04Z</time>
      </trkpt>
      <trkpt lat="49.26348" lon="1.38952">
        <ele>60.29</ele>
        <time>2016-05-08T10:18:05Z</time>
      </trkpt>
      <trkpt lat="49.26345" lon="1.38986">
        <ele>59.55</ele>
        <time>2016-05-08T10:18:12Z</time>
      </trkpt>
      <trkpt lat="49.26278" lon="1.39022">
        <ele>60.69</ele>
        <time>2016-05-08T10:18:27Z</time>
      </trkpt>
      <trkpt lat="49.26269" lon="1.39025">
        <ele>60.95</ele>
        <time>2016-05-08T10:18:29Z</time>
      </trkpt>
      <trkpt lat="49.26256" lon="1.39034">
        <ele>61.69</ele>
        <time>2016-05-08T10:18:32Z</time>
      </trkpt>
      <trkpt lat="49.26221" lon="1.3907">
        <ele>62.85</ele>
        <time>2016-05-08T10:18:41Z</time>
      </trkpt>
      <trkpt lat="49.26189" lon="1.39109">
        <ele>64.15</ele>
        <time>2016-05-08T10:18:50Z</time>
      </trkpt>
      <trkpt lat="49.26137" lon="1.39172">
        <ele>65.67</ele>
        <time>2016-05-08T10:19:05Z</time>
      </trkpt>
      <trkpt lat="49.26114" lon="1.39207">
        <ele>65.94</ele>
        <time>2016-05-08T10:19:12Z</time>
      </trkpt>
      <trkpt lat="49.26109" lon="1.39219">
        <ele>66.09</ele>
        <time>2016-05-08T10:19:14Z</time>
      </trkpt>
      <trkpt lat="49.2609" lon="1.39252">
        <ele>66.29</ele>
        <time>2016-05-08T10:19:20Z</time>
      </trkpt>
      <trkpt lat="49.26056" lon="1.39297">
        <ele>66.46</ele>
        <time>2016-05-08T10:19:29Z</time>
      </trkpt>
      <trkpt lat="49.26043" lon="1.39312">
        <ele>66.58</ele>
        <time>2016-05-08T10:19:32Z</time>
      </trkpt>
      <trkpt lat="49.25978" lon="1.39417">
        <ele>67.1</ele>
        <time>2016-05-08T10:19:49Z</time>
      </trkpt>
      <trkpt lat="49.2594" lon="1.39482">
        <ele>66.58</ele>
        <time>2016-05-08T10:20:00Z</time>
      </trkpt>
      <trkpt lat="49.25916" lon="1.39491">
        <ele>67.44</ele>
        <time>2016-05-08T10:20:05Z</time>
      </trkpt>
      <trkpt lat="49.25807" lon="1.39485">
        <ele>67.34</ele>
        <time>2016-05-08T10:20:21Z</time>
      </trkpt>
      <trkpt lat="49.25726" lon="1.39509">
        <ele>66.81</ele>
        <time>2016-05-08T10:20:34Z</time>
      </trkpt>
      <trkpt lat="49.25657" lon="1.39527">
        <ele>68.96</ele>
        <time>2016-05-08T10:20:47Z</time>
      </trkpt>
      <trkpt lat="49.25568" lon="1.39528">
        <ele>68.5</ele>
        <time>2016-05-08T10:21:05Z</time>
      </trkpt>
      <trkpt lat="49.25529" lon="1.39527">
        <ele>68.34</ele>
        <time>2016-05-08T10:21:12Z</time>
      </trkpt>
      <trkpt lat="49.25467" lon="1.39544">
        <ele>68.18</ele>
        <time>2016-05-08T10:21:23Z</time>
      </trkpt>
      <trkpt lat="49.25408" lon="1.3957">
        <ele>68.6</ele>
        <time>2016-05-08T10:21:35Z</time>
      </trkpt>
      <trkpt lat="49.25345" lon="1.39616">
        <ele>68.89</ele>
        <time>2016-05-08T10:21:49Z</time>
      </trkpt>
      <trkpt lat="49.25285" lon="1.39683">
        <ele>68.4</ele>
        <time>2016-05-08T10:22:03Z</time>
      </trkpt>
      <trkpt lat="49.25203" lon="1.39738">
        <ele>69.08</ele>
        <time>2016-05-08T10:22:18Z</time>
      </trkpt>
      <trkpt lat="49.25165" lon="1.3976">
        <ele>68.83</ele>
        <time>2016-05-08T10:22:25Z</time>
      </trkpt>
      <trkpt lat="49.25147" lon="1.39779">
        <ele>69.41</ele>
        <time>2016-05-08T10:22:29Z</time>
      </trkpt>
      <trkpt lat="49.25128" lon="1.39809">
        <ele>68.8</ele>
        <time>2016-05-08T10:22:34Z</time>
      </trkpt>
      <trkpt lat="49.25104" lon="1.39836">
        <ele>66.71</ele>
        <time>2016-05-08T10:22:39Z</time>
      </trkpt>
      <trkpt lat="49.25074" lon="1.39886">
        <ele>63.38</ele>
        <time>2016-05-08T10:22:45Z</time>
      </trkpt>
      <trkpt lat="49.25049" lon="1.39901">
        <ele>59.55</ele>
        <time>2016-05-08T10:22:50Z</time>
      </trkpt>
      <trkpt lat="49.25041" lon="1.39882">
        <ele>58.7</ele>
        <time>2016-05-08T10:22:53Z</time>
      </trkpt>
      <trkpt lat="49.25014" lon="1.39766">
        <ele>60.53</ele>
        <time>2016-05-08T10:23:07Z</time>
      </trkpt>
      <trkpt lat="49.25008" lon="1.39745">
        <ele>60.47</ele>
        <time>2016-05-08T10:23:09Z</time>
      </trkpt>
      <trkpt lat="49.24978" lon="1.39578">
        <ele>62.52</ele>
        <time>2016-05-08T10:23:25Z</time>
      </trkpt>
      <trkpt lat="49.24963" lon="1.39465">
        <ele>63.36</ele>
        <time>2016-05-08T10:23:38Z</time>
      </trkpt>
      <trkpt lat="49.24947" lon="1.39392">
        <ele>63.55</ele>
        <time>2016-05-08T10:23:47Z</time>
      </trkpt>
      <trkpt lat="49.24939" lon="1.39371">
        <ele>62.23</ele>
        <time>2016-05-08T10:23:50Z</time>
      </trkpt>
      <trkpt lat="49.24934" lon="1.39363">
        <ele>60.86</ele>
        <time>2016-05-08T10:23:52Z</time>
      </trkpt>
      <trkpt lat="49.24929" lon="1.39355">
        <ele>59.43</ele>
        <time>2016-05-08T10:23:55Z</time>
      </trkpt>
      <trkpt lat="49.24919" lon="1.39357">
        <ele>54.77</ele>
        <time>2016-05-08T10:23:59Z</time>
      </trkpt>
      <trkpt lat="49.24914" lon="1.39363">
        <ele>53.29</ele>
        <time>2016-05-08T10:24:01Z</time>
      </trkpt>
      <trkpt lat="49.24905" lon="1.39371">
        <ele>51.61</ele>
        <time>2016-05-08T10:24:04Z</time>
      </trkpt>
      <trkpt lat="49.2489" lon="1.39389">
        <ele>49.09</ele>
        <time>2016-05-08T10:24:08Z</time>
      </trkpt>
      <trkpt lat="49.24876" lon="1.39399">
        <ele>46.99</ele>
        <time>2016-05-08T10:24:12Z</time>
      </trkpt>
      <trkpt lat="49.24859" lon="1.39407">
        <ele>43.62</ele>
        <time>2016-05-08T10:24:17Z</time>
      </trkpt>
      <trkpt lat="49.24853" lon="1.39414">
        <ele>42.8</ele>
        <time>2016-05-08T10:24:19Z</time>
      </trkpt>
      <trkpt lat="49.24838" lon="1.39427">
        <ele>38.18</ele>
        <time>2016-05-08T10:24:23Z</time>
      </trkpt>
      <trkpt lat="49.24834" lon="1.39431">
        <ele>37.17</ele>
        <time>2016-05-08T10:24:25Z</time>
      </trkpt>
      <trkpt lat="49.24818" lon="1.39454">
        <ele>33.77</ele>
        <time>2016-05-08T10:24:32Z</time>
      </trkpt>
      <trkpt lat="49.24809" lon="1.39463">
        <ele>30.72</ele>
        <time>2016-05-08T10:24:36Z</time>
      </trkpt>
      <trkpt lat="49.24807" lon="1.39466">
        <ele>29.3</ele>
        <time>2016-05-08T10:24:39Z</time>
      </trkpt>
      <trkpt lat="49.248" lon="1.3947">
        <ele>26.2</ele>
        <time>2016-05-08T10:24:49Z</time>
      </trkpt>
      <trkpt lat="49.24799" lon="1.3947">
        <ele>25.95</ele>
        <time>2016-05-08T10:24:50Z</time>
      </trkpt>
      <trkpt lat="49.24774" lon="1.39499">
        <ele>23.65</ele>
        <time>2016-05-08T10:25:01Z</time>
      </trkpt>
      <trkpt lat="49.24754" lon="1.39536">
        <ele>20.6</ele>
        <time>2016-05-08T10:25:10Z</time>
      </trkpt>
      <trkpt lat="49.24738" lon="1.39552">
        <ele>16.72</ele>
        <time>2016-05-08T10:25:16Z</time>
      </trkpt>
      <trkpt lat="49.24725" lon="1.39557">
        <ele>13.26</ele>
        <time>2016-05-08T10:25:20Z</time>
      </trkpt>
      <trkpt lat="49.24719" lon="1.3956">
        <ele>9.83</ele>
        <time>2016-05-08T10:25:25Z</time>
      </trkpt>
      <trkpt lat="49.2472" lon="1.39563">
        <ele>9.78</ele>
        <time>2016-05-08T10:25:42Z</time>
      </trkpt>
      <trkpt lat="49.24714" lon="1.39567">
        <ele>6.7</ele>
        <time>2016-05-08T10:25:47Z</time>
      </trkpt>
      <trkpt lat="49.24706" lon="1.39572">
        <ele>3.26</ele>
        <time>2016-05-08T10:25:52Z</time>
      </trkpt>
      <trkpt lat="49.24703" lon="1.39574">
        <ele>1.86</ele>
        <time>2016-05-08T10:25:56Z</time>
      </trkpt>
      <trkpt lat="49.24701" lon="1.39575">
        <ele>1.33</ele>
        <time>2016-05-08T10:25:58Z</time>
      </trkpt>
      <trkpt lat="49.2469" lon="1.3959">
        <ele>-2.53</ele>
        <time>2016-05-08T10:26:13Z</time>
      </trkpt>
      <trkpt lat="49.24689" lon="1.3959">
        <ele>-4.77</ele>
        <time>2016-05-08T10:26:16Z</time>
      </trkpt>
      <trkpt lat="49.24688" lon="1.3959">
        <ele>-4.8</ele>
        <time>2016-05-08T10:26:22Z</time>
      </trkpt>
      <trkpt lat="49.24678" lon="1.39597">
        <ele>-8.51</ele>
        <time>2016-05-08T10:26:29Z</time>
      </trkpt>
      <trkpt lat="49.24678" lon="1.39598">
        <ele>-8.78</ele>
        <time>2016-05-08T10:26:30Z</time>
      </trkpt>
      <trkpt lat="49.24673" lon="1.39601">
        <ele>-10.82</ele>
        <time>2016-05-08T10:26:50Z</time>
      </trkpt>
      <trkpt lat="49.24669" lon="1.39612">
        <ele>-13.9</ele>
        <time>2016-05-08T10:27:12Z</time>
      </trkpt>
      <trkpt lat="49.24666" lon="1.39619">
        <ele>-17.25</ele>
        <time>2016-05-08T10:27:20Z</time>
      </trkpt>
      <trkpt lat="49.24666" lon="1.3962">
        <ele>-17.52</ele>
        <time>2016-05-08T10:27:21Z</time>
      </trkpt>
      <trkpt lat="49.24664" lon="1.39631">
        <ele>-20.68</ele>
        <time>2016-05-08T10:27:34Z</time>
      </trkpt>
      <trkpt lat="49.24661" lon="1.3964">
        <ele>-23.42</ele>
        <time>2016-05-08T10:27:44Z</time>
      </trkpt>
      <trkpt lat="49.24655" lon="1.39657">
        <ele>-25.05</ele>
        <time>2016-05-08T10:27:48Z</time>
      </trkpt>
      <trkpt lat="49.24638" lon="1.39712">
        <ele>-28.17</ele>
        <time>2016-05-08T10:28:00Z</time>
      </trkpt>
      <trkpt lat="49.24642" lon="1.39726">
        <ele>-26.07</ele>
        <time>2016-05-08T10:28:06Z</time>
      </trkpt>
      <trkpt lat="49.24637" lon="1.39757">
        <ele>-28.38</ele>
        <time>2016-05-08T10:28:16Z</time>
      </trkpt>
      <trkpt lat="49.24636" lon="1.39767">
        <ele>-31</ele>
        <time>2016-05-08T10:28:29Z</time>
      </trkpt>
      <trkpt lat="49.24634" lon="1.39775">
        <ele>-33.55</ele>
        <time>2016-05-08T10:28:46Z</time>
      </trkpt>
      <trkpt lat="49.24627" lon="1.39768">
        <ele>-37.02</ele>
        <time>2016-05-08T10:28:57Z</time>
      </trkpt>
      <trkpt lat="49.24621" lon="1.39767">
        <ele>-40.14</ele>
        <time>2016-05-08T10:29:17Z</time>
      </trkpt>
      <trkpt lat="49.24618" lon="1.39781">
        <ele>-43.52</ele>
        <time>2016-05-08T10:29:27Z</time>
      </trkpt>
      <trkpt lat="49.24617" lon="1.3979">
        <ele>-46.61</ele>
        <time>2016-05-08T10:29:38Z</time>
      </trkpt>
      <trkpt lat="49.24613" lon="1.39793">
        <ele>-49.76</ele>
        <time>2016-05-08T10:29:49Z</time>
      </trkpt>
      <trkpt lat="49.24608" lon="1.39795">
        <ele>-53.01</ele>
        <time>2016-05-08T10:30:06Z</time>
      </trkpt>
      <trkpt lat="49.24603" lon="1.39796">
        <ele>-56.18</ele>
        <time>2016-05-08T10:30:16Z</time>
      </trkpt>
      <trkpt lat="49.24601" lon="1.39797">
        <ele>-57.07</ele>
        <time>2016-05-08T10:30:18Z</time>
      </trkpt>
      <trkpt lat="49.24596" lon="1.39805">
        <ele>-57.26</ele>
        <time>2016-05-08T10:30:39Z</time>
      </trkpt>
      <trkpt lat="49.2459" lon="1.39803">
        <ele>-58.84</ele>
        <time>2016-05-08T10:31:06Z</time>
      </trkpt>
      <trkpt lat="49.24583" lon="1.39784">
        <ele>-58.23</ele>
        <time>2016-05-08T10:31:12Z</time>
      </trkpt>
      <trkpt lat="49.24578" lon="1.39768">
        <ele>-58.03</ele>
        <time>2016-05-08T10:31:15Z</time>
      </trkpt>
      <trkpt lat="49.24575" lon="1.3974">
        <ele>-58.55</ele>
        <time>2016-05-08T10:31:19Z</time>
      </trkpt>
      <trkpt lat="49.24574" lon="1.39726">
        <ele>-58.72</ele>
        <time>2016-05-08T10:31:21Z</time>
      </trkpt>
      <trkpt lat="49.24575" lon="1.39696">
        <ele>-59.43</ele>
        <time>2016-05-08T10:31:28Z</time>
      </trkpt>
      <trkpt lat="49.24564" lon="1.39693">
        <ele>-59.28</ele>
        <time>2016-05-08T10:31:32Z</time>
      </trkpt>
      <trkpt lat="49.24537" lon="1.39714">
        <ele>-60.43</ele>
        <time>2016-05-08T10:31:37Z</time>
      </trkpt>
      <trkpt lat="49.24478" lon="1.39777">
        <ele>-60.78</ele>
        <time>2016-05-08T10:31:49Z</time>
      </trkpt>
      <trkpt lat="49.24475" lon="1.39812">
        <ele>-61.16</ele>
        <time>2016-05-08T10:31:55Z</time>
      </trkpt>
      <trkpt lat="49.245" lon="1.39837">
        <ele>-61.73</ele>
        <time>2016-05-08T10:32:02Z</time>
      </trkpt>
      <trkpt lat="49.24521" lon="1.39884">
        <ele>-63.34</ele>
        <time>2016-05-08T10:32:11Z</time>
      </trkpt>
      <trkpt lat="49.24531" lon="1.39893">
        <ele>-63.17</ele>
        <time>2016-05-08T10:32:14Z</time>
      </trkpt>
      <trkpt lat="49.2453" lon="1.39941">
        <ele>-63.4</ele>
        <time>2016-05-08T10:32:22Z</time>
      </trkpt>
      <trkpt lat="49.24506" lon="1.4001">
        <ele>-63.2</ele>
        <time>2016-05-08T10:32:33Z</time>
      </trkpt>
      <trkpt lat="49.24501" lon="1.4008">
        <ele>-62.71</ele>
        <time>2016-05-08T10:32:44Z</time>
      </trkpt>
      <trkpt lat="49.24496" lon="1.40186">
        <ele>-62.53</ele>
        <time>2016-05-08T10:33:00Z</time>
      </trkpt>
      <trkpt lat="49.24495" lon="1.40279">
        <ele>-61.55</ele>
        <time>2016-05-08T10:33:14Z</time>
      </trkpt>
      <trkpt lat="49.24493" lon="1.40397">
        <ele>-61.76</ele>
        <time>2016-05-08T10:33:31Z</time>
      </trkpt>
      <trkpt lat="49.24494" lon="1.40479">
        <ele>-61.93</ele>
        <time>2016-05-08T10:33:44Z</time>
      </trkpt>
      <trkpt lat="49.24495" lon="1.40596">
        <ele>-61.43</ele>
        <time>2016-05-08T10:34:02Z</time>
      </trkpt>
      <trkpt lat="49.24493" lon="1.4066">
        <ele>-60.63</ele>
        <time>2016-05-08T10:34:14Z</time>
      </trkpt>
      <trkpt lat="49.24492" lon="1.40683">
        <ele>-62.7</ele>
        <time>2016-05-08T10:34:19Z</time>
      </trkpt>
      <trkpt lat="49.24491" lon="1.4077">
        <ele>-61.2</ele>
        <time>2016-05-08T10:34:32Z</time>
      </trkpt>
      <trkpt lat="49.2449" lon="1.40795">
        <ele>-60.88</ele>
        <time>2016-05-08T10:34:36Z</time>
      </trkpt>
      <trkpt lat="49.24491" lon="1.40816">
        <ele>-60.6</ele>
        <time>2016-05-08T10:34:39Z</time>
      </trkpt>
      <trkpt lat="49.2451" lon="1.40875">
        <ele>-60.45</ele>
        <time>2016-05-08T10:34:48Z</time>
      </trkpt>
      <trkpt lat="49.24534" lon="1.40934">
        <ele>-60.5</ele>
        <time>2016-05-08T10:34:57Z</time>
      </trkpt>
      <trkpt lat="49.24576" lon="1.41031">
        <ele>-59.78</ele>
        <time>2016-05-08T10:35:13Z</time>
      </trkpt>
      <trkpt lat="49.24588" lon="1.41071">
        <ele>-59.44</ele>
        <time>2016-05-08T10:35:20Z</time>
      </trkpt>
      <trkpt lat="49.24628" lon="1.41152">
        <ele>-58.9</ele>
        <time>2016-05-08T10:35:33Z</time>
      </trkpt>
      <trkpt lat="49.24652" lon="1.41191">
        <ele>-58.89</ele>
        <time>2016-05-08T10:35:41Z</time>
      </trkpt>
      <trkpt lat="49.24664" lon="1.41243">
        <ele>-58.47</ele>
        <time>2016-05-08T10:35:48Z</time>
      </trkpt>
      <trkpt lat="49.24663" lon="1.41354">
        <ele>-58.89</ele>
        <time>2016-05-08T10:36:03Z</time>
      </trkpt>
      <trkpt lat="49.24656" lon="1.41434">
        <ele>-58.07</ele>
        <time>2016-05-08T10:36:16Z</time>
      </trkpt>
      <trkpt lat="49.24645" lon="1.4148">
        <ele>-58.27</ele>
        <time>2016-05-08T10:36:25Z</time>
      </trkpt>
      <trkpt lat="49.24629" lon="1.41482">
        <ele>-58.54</ele>
        <time>2016-05-08T10:36:30Z</time>
      </trkpt>
      <trkpt lat="49.24618" lon="1.41509">
        <ele>-58.41</ele>
        <time>2016-05-08T10:36:38Z</time>
      </trkpt>
      <trkpt lat="49.24621" lon="1.4152">
        <ele>-58.37</ele>
        <time>2016-05-08T10:36:40Z</time>
      </trkpt>
      <trkpt lat="49.24629" lon="1.4155">
        <ele>-58.5</ele>
        <time>2016-05-08T10:36:45Z</time>
      </trkpt>
      <trkpt lat="49.24649" lon="1.41634">
        <ele>-58.49</ele>
        <time>2016-05-08T10:36:59Z</time>
      </trkpt>
      <trkpt lat="49.24653" lon="1.41654">
        <ele>-58.5</ele>
        <time>2016-05-08T10:37:02Z</time>
      </trkpt>
      <trkpt lat="49.24658" lon="1.41689">
        <ele>-58.49</ele>
        <time>2016-05-08T10:37:08Z</time>
      </trkpt>
      <trkpt lat="49.24663" lon="1.41711">
        <ele>-58.72</ele>
        <time>2016-05-08T10:37:12Z</time>
      </trkpt>
      <trkpt lat="49.24664" lon="1.41782">
        <ele>-58.4</ele>
        <time>2016-05-08T10:37:22Z</time>
      </trkpt>
      <trkpt lat="49.24667" lon="1.41809">
        <ele>-58.59</ele>
        <time>2016-05-08T10:37:26Z</time>
      </trkpt>
      <trkpt lat="49.24674" lon="1.41858">
        <ele>-57.98</ele>
        <time>2016-05-08T10:37:33Z</time>
      </trkpt>
      <trkpt lat="49.24677" lon="1.41891">
        <ele>-57.09</ele>
        <time>2016-05-08T10:37:37Z</time>
      </trkpt>
      <trkpt lat="49.24673" lon="1.42002">
        <ele>-56.17</ele>
        <time>2016-05-08T10:37:51Z</time>
      </trkpt>
      <trkpt lat="49.24673" lon="1.42057">
        <ele>-56.15</ele>
        <time>2016-05-08T10:37:58Z</time>
      </trkpt>
      <trkpt lat="49.2468" lon="1.42084">
        <ele>-56.14</ele>
        <time>2016-05-08T10:38:02Z</time>
      </trkpt>
      <trkpt lat="49.24719" lon="1.42174">
        <ele>-54.24</ele>
        <time>2016-05-08T10:38:18Z</time>
      </trkpt>
      <trkpt lat="49.24746" lon="1.42207">
        <ele>-52.2</ele>
        <time>2016-05-08T10:38:28Z</time>
      </trkpt>
      <trkpt lat="49.24751" lon="1.42248">
        <ele>-52.41</ele>
        <time>2016-05-08T10:38:38Z</time>
      </trkpt>
      <trkpt lat="49.24748" lon="1.42268">
        <ele>-52.62</ele>
        <time>2016-05-08T10:38:48Z</time>
      </trkpt>
      <trkpt lat="49.24748" lon="1.42269">
        <ele>-52.47</ele>
        <time>2016-05-08T10:38:57Z</time>
      </trkpt>
      <trkpt lat="49.24749" lon="1.42268">
        <ele>-51.9</ele>
        <time>2016-05-08T10:39:05Z</time>
      </trkpt>
    </trkseg>
  </trk>
</gpx>